<?xml version="1.0" encoding="UTF-8" standalone="no" ?>
<gpx xmlns="http://www.topografix.com/GPX/1/1" xmlns:xsi="http://www.w3.org/2001/XMLSchema-instance" xsi:schemaLocation="http://www.topografix.com/GPX/1/1 http://www.topografix.com/GPX/1/1/gpx.xsd" version="1.1" creator="VisuGPX - https://www.visugpx.com">
  <metadata>
    <name>Variante 2 de St Pierre de Chandieu au départ de St Just Chaleyssin</name>
    <desc><![CDATA[Variante plus courte de St Pierre de Chandieu au départ de St Just Chaleyssin]]></desc>
  </metadata>
  <trk>
    <name><![CDATA[20190512083522-yW3ki]]></name>
    <trkseg>
      <trkpt lat="45.58409" lon="4.99868">
        <ele>240.8</ele>
        <time>2019-03-24T09:12:36.000Z</time>
      </trkpt>
      <trkpt lat="45.58366" lon="4.99587">
        <ele>240.3</ele>
        <time>2019-03-24T09:12:38.000Z</time>
      </trkpt>
      <trkpt lat="45.58452" lon="4.99575">
        <ele>241.9</ele>
        <time>2019-03-24T09:12:40.000Z</time>
      </trkpt>
      <trkpt lat="45.58506" lon="4.99548">
        <ele>245.1</ele>
        <time>2019-03-24T09:12:42.000Z</time>
      </trkpt>
      <trkpt lat="45.58626" lon="4.99513">
        <ele>254.9</ele>
        <time>2019-03-24T09:12:44.000Z</time>
      </trkpt>
      <trkpt lat="45.58644" lon="4.99556">
        <ele>256</ele>
        <time>2019-03-24T09:12:46.000Z</time>
      </trkpt>
      <trkpt lat="45.5864" lon="4.99608">
        <ele>254.6</ele>
        <time>2019-03-24T09:12:48.000Z</time>
      </trkpt>
      <trkpt lat="45.58668" lon="4.99754">
        <ele>252.6</ele>
        <time>2019-03-24T09:12:50.000Z</time>
      </trkpt>
      <trkpt lat="45.58765" lon="4.99872">
        <ele>260.7</ele>
        <time>2019-03-24T09:12:52.000Z</time>
      </trkpt>
      <trkpt lat="45.58808" lon="4.99944">
        <ele>258.8</ele>
        <time>2019-03-24T09:12:54.000Z</time>
      </trkpt>
      <trkpt lat="45.58943" lon="5.00196">
        <ele>256.3</ele>
        <time>2019-03-24T09:12:56.000Z</time>
      </trkpt>
      <trkpt lat="45.58981" lon="5.00241">
        <ele>254</ele>
        <time>2019-03-24T09:12:58.000Z</time>
      </trkpt>
      <trkpt lat="45.59054" lon="5.00279">
        <ele>251.5</ele>
        <time>2019-03-24T09:13:00.000Z</time>
      </trkpt>
      <trkpt lat="45.59168" lon="5.00247">
        <ele>253.4</ele>
        <time>2019-03-24T09:13:02.000Z</time>
      </trkpt>
      <trkpt lat="45.59277" lon="5.00178">
        <ele>258.1</ele>
        <time>2019-03-24T09:13:04.000Z</time>
      </trkpt>
      <trkpt lat="45.59331" lon="5.00189">
        <ele>259</ele>
        <time>2019-03-24T09:13:06.000Z</time>
      </trkpt>
      <trkpt lat="45.59407" lon="5.00189">
        <ele>261.3</ele>
        <time>2019-03-24T09:13:09.000Z</time>
      </trkpt>
      <trkpt lat="45.59448" lon="5.002">
        <ele>262.8</ele>
        <time>2019-03-24T09:13:11.000Z</time>
      </trkpt>
      <trkpt lat="45.595" lon="5.00217">
        <ele>265.7</ele>
        <time>2019-03-24T09:13:13.000Z</time>
      </trkpt>
      <trkpt lat="45.59556" lon="5.00273">
        <ele>262.5</ele>
        <time>2019-03-24T09:13:15.000Z</time>
      </trkpt>
      <trkpt lat="45.59631" lon="5.00299">
        <ele>265.8</ele>
        <time>2019-03-24T09:13:17.000Z</time>
      </trkpt>
      <trkpt lat="45.59691" lon="5.00359">
        <ele>266.7</ele>
        <time>2019-03-24T09:13:19.000Z</time>
      </trkpt>
      <trkpt lat="45.59754" lon="5.00397">
        <ele>267.8</ele>
        <time>2019-03-24T09:13:21.000Z</time>
      </trkpt>
      <trkpt lat="45.59722" lon="5.00477">
        <ele>267.5</ele>
        <time>2019-03-24T09:13:23.000Z</time>
      </trkpt>
      <trkpt lat="45.60024" lon="5.0077">
        <ele>276</ele>
        <time>2019-03-24T09:13:25.000Z</time>
      </trkpt>
      <trkpt lat="45.6009" lon="5.00826">
        <ele>275</ele>
        <time>2019-03-24T09:13:27.000Z</time>
      </trkpt>
      <trkpt lat="45.60114" lon="5.0084">
        <ele>275</ele>
        <time>2019-03-24T09:13:29.000Z</time>
      </trkpt>
      <trkpt lat="45.60134" lon="5.00863">
        <ele>276</ele>
        <time>2019-03-24T09:13:31.000Z</time>
      </trkpt>
      <trkpt lat="45.60206" lon="5.00983">
        <ele>279</ele>
        <time>2019-03-24T09:13:33.000Z</time>
      </trkpt>
      <trkpt lat="45.60265" lon="5.01059">
        <ele>282</ele>
        <time>2019-03-24T09:13:35.000Z</time>
      </trkpt>
      <trkpt lat="45.60325" lon="5.01134">
        <ele>280</ele>
        <time>2019-03-24T09:13:37.000Z</time>
      </trkpt>
      <trkpt lat="45.60366" lon="5.01193">
        <ele>285</ele>
        <time>2019-03-24T09:13:39.000Z</time>
      </trkpt>
      <trkpt lat="45.60406" lon="5.0129">
        <ele>284</ele>
        <time>2019-03-24T09:13:41.000Z</time>
      </trkpt>
      <trkpt lat="45.60442" lon="5.01352">
        <ele>286</ele>
        <time>2019-03-24T09:13:43.000Z</time>
      </trkpt>
      <trkpt lat="45.60523" lon="5.01505">
        <ele>289</ele>
        <time>2019-03-24T09:13:45.000Z</time>
      </trkpt>
      <trkpt lat="45.60564" lon="5.01601">
        <ele>286</ele>
        <time>2019-03-24T09:13:47.000Z</time>
      </trkpt>
      <trkpt lat="45.60592" lon="5.01608">
        <ele>289</ele>
        <time>2019-03-24T09:13:49.000Z</time>
      </trkpt>
      <trkpt lat="45.60632" lon="5.01619">
        <ele>290</ele>
        <time>2019-03-24T09:13:51.000Z</time>
      </trkpt>
      <trkpt lat="45.60663" lon="5.01605">
        <ele>292</ele>
        <time>2019-03-24T09:13:53.000Z</time>
      </trkpt>
      <trkpt lat="45.60691" lon="5.01591">
        <ele>296</ele>
        <time>2019-03-24T09:13:55.000Z</time>
      </trkpt>
      <trkpt lat="45.60727" lon="5.01593">
        <ele>297</ele>
        <time>2019-03-24T09:13:57.000Z</time>
      </trkpt>
      <trkpt lat="45.60765" lon="5.01611">
        <ele>302</ele>
        <time>2019-03-24T09:13:59.000Z</time>
      </trkpt>
      <trkpt lat="45.608" lon="5.01634">
        <ele>303</ele>
        <time>2019-03-24T09:14:01.000Z</time>
      </trkpt>
      <trkpt lat="45.60829" lon="5.01681">
        <ele>303</ele>
        <time>2019-03-24T09:14:03.000Z</time>
      </trkpt>
      <trkpt lat="45.60847" lon="5.01703">
        <ele>308</ele>
        <time>2019-03-24T09:14:05.000Z</time>
      </trkpt>
      <trkpt lat="45.60873" lon="5.0169">
        <ele>309</ele>
        <time>2019-03-24T09:14:07.000Z</time>
      </trkpt>
      <trkpt lat="45.60907" lon="5.01672">
        <ele>312</ele>
        <time>2019-03-24T09:14:09.000Z</time>
      </trkpt>
      <trkpt lat="45.60927" lon="5.01701">
        <ele>316</ele>
        <time>2019-03-24T09:14:11.000Z</time>
      </trkpt>
      <trkpt lat="45.60951" lon="5.01815">
        <ele>317</ele>
        <time>2019-03-24T09:14:13.000Z</time>
      </trkpt>
      <trkpt lat="45.60974" lon="5.01853">
        <ele>318</ele>
        <time>2019-03-24T09:14:15.000Z</time>
      </trkpt>
      <trkpt lat="45.61027" lon="5.01866">
        <ele>322</ele>
        <time>2019-03-24T09:14:17.000Z</time>
      </trkpt>
      <trkpt lat="45.61066" lon="5.01858">
        <ele>323</ele>
        <time>2019-03-24T09:14:19.000Z</time>
      </trkpt>
      <trkpt lat="45.61094" lon="5.01841">
        <ele>327</ele>
        <time>2019-03-24T09:14:21.000Z</time>
      </trkpt>
      <trkpt lat="45.61116" lon="5.01817">
        <ele>330</ele>
        <time>2019-03-24T09:14:23.000Z</time>
      </trkpt>
      <trkpt lat="45.6114" lon="5.01811">
        <ele>331</ele>
        <time>2019-03-24T09:14:25.000Z</time>
      </trkpt>
      <trkpt lat="45.6116" lon="5.0182">
        <ele>331</ele>
        <time>2019-03-24T09:14:27.000Z</time>
      </trkpt>
      <trkpt lat="45.61195" lon="5.01863">
        <ele>335</ele>
        <time>2019-03-24T09:14:29.000Z</time>
      </trkpt>
      <trkpt lat="45.61228" lon="5.01882">
        <ele>337</ele>
        <time>2019-03-24T09:14:31.000Z</time>
      </trkpt>
      <trkpt lat="45.61356" lon="5.01849">
        <ele>347.3</ele>
        <time>2019-03-24T09:14:33.000Z</time>
      </trkpt>
      <trkpt lat="45.61357" lon="5.01849">
        <ele>347.3</ele>
        <time>2019-03-24T09:14:33.000Z</time>
      </trkpt>
      <trkpt lat="45.61371" lon="5.01869">
        <ele>347</ele>
        <time>2019-03-24T09:14:35.000Z</time>
      </trkpt>
      <trkpt lat="45.61371" lon="5.01869">
        <ele>347</ele>
        <time>2019-03-24T09:14:37.000Z</time>
      </trkpt>
      <trkpt lat="45.61362" lon="5.01929">
        <ele>345.3</ele>
        <time>2019-03-24T09:14:39.000Z</time>
      </trkpt>
      <trkpt lat="45.61386" lon="5.01942">
        <ele>345.17001342773</ele>
        <time>2019-03-24T09:14:41.000Z</time>
      </trkpt>
      <trkpt lat="45.61393" lon="5.01947">
        <ele>344.95758056641</ele>
        <time>2019-03-24T09:14:43.000Z</time>
      </trkpt>
      <trkpt lat="45.614" lon="5.01951">
        <ele>344.68490600586</ele>
        <time>2019-03-24T09:14:45.000Z</time>
      </trkpt>
      <trkpt lat="45.61408" lon="5.01954">
        <ele>344.40029907227</ele>
        <time>2019-03-24T09:14:47.000Z</time>
      </trkpt>
      <trkpt lat="45.61416" lon="5.01959">
        <ele>344.10925292969</ele>
        <time>2019-03-24T09:14:49.000Z</time>
      </trkpt>
      <trkpt lat="45.61425" lon="5.01965">
        <ele>343.75833129883</ele>
        <time>2019-03-24T09:14:51.000Z</time>
      </trkpt>
      <trkpt lat="45.61433" lon="5.01973">
        <ele>343.35678100586</ele>
        <time>2019-03-24T09:14:53.000Z</time>
      </trkpt>
      <trkpt lat="45.61445" lon="5.01981">
        <ele>342.87731933594</ele>
        <time>2019-03-24T09:14:55.000Z</time>
      </trkpt>
      <trkpt lat="45.61457" lon="5.01989">
        <ele>342.32412719727</ele>
        <time>2019-03-24T09:14:58.000Z</time>
      </trkpt>
      <trkpt lat="45.61474" lon="5.01995">
        <ele>341.67236328125</ele>
        <time>2019-03-24T09:15:01.000Z</time>
      </trkpt>
      <trkpt lat="45.6149" lon="5.02004">
        <ele>340.96810913086</ele>
        <time>2019-03-24T09:15:04.000Z</time>
      </trkpt>
      <trkpt lat="45.61506" lon="5.02012">
        <ele>340.18746948242</ele>
        <time>2019-03-24T09:15:07.000Z</time>
      </trkpt>
      <trkpt lat="45.61522" lon="5.02021">
        <ele>339.34478759766</ele>
        <time>2019-03-24T09:15:10.000Z</time>
      </trkpt>
      <trkpt lat="45.61535" lon="5.02029">
        <ele>338.47442626953</ele>
        <time>2019-03-24T09:15:13.000Z</time>
      </trkpt>
      <trkpt lat="45.61546" lon="5.02034">
        <ele>337.64077758789</ele>
        <time>2019-03-24T09:15:16.000Z</time>
      </trkpt>
      <trkpt lat="45.61556" lon="5.02042">
        <ele>336.84756469727</ele>
        <time>2019-03-24T09:15:19.000Z</time>
      </trkpt>
      <trkpt lat="45.61566" lon="5.02054">
        <ele>336.13055419922</ele>
        <time>2019-03-24T09:15:22.000Z</time>
      </trkpt>
      <trkpt lat="45.61575" lon="5.02065">
        <ele>335.51324462891</ele>
        <time>2019-03-24T09:15:25.000Z</time>
      </trkpt>
      <trkpt lat="45.61591" lon="5.0208">
        <ele>334.90158081055</ele>
        <time>2019-03-24T09:15:28.000Z</time>
      </trkpt>
      <trkpt lat="45.61602" lon="5.02089">
        <ele>334.24179077148</ele>
        <time>2019-03-24T09:15:31.000Z</time>
      </trkpt>
      <trkpt lat="45.61613" lon="5.02096">
        <ele>333.52252197266</ele>
        <time>2019-03-24T09:15:40.000Z</time>
      </trkpt>
      <trkpt lat="45.61622" lon="5.02104">
        <ele>332.73529052734</ele>
        <time>2019-03-24T09:15:43.000Z</time>
      </trkpt>
      <trkpt lat="45.61628" lon="5.02111">
        <ele>331.88589477539</ele>
        <time>2019-03-24T09:15:46.000Z</time>
      </trkpt>
      <trkpt lat="45.61633" lon="5.02118">
        <ele>331.04858398438</ele>
        <time>2019-03-24T09:15:49.000Z</time>
      </trkpt>
      <trkpt lat="45.61639" lon="5.02125">
        <ele>330.22445678711</ele>
        <time>2019-03-24T09:15:52.000Z</time>
      </trkpt>
      <trkpt lat="45.61649" lon="5.02132">
        <ele>329.37133789062</ele>
        <time>2019-03-24T09:15:55.000Z</time>
      </trkpt>
      <trkpt lat="45.6166" lon="5.0214">
        <ele>328.44827270508</ele>
        <time>2019-03-24T09:15:57.000Z</time>
      </trkpt>
      <trkpt lat="45.61667" lon="5.02149">
        <ele>327.45977783203</ele>
        <time>2019-03-24T09:15:59.000Z</time>
      </trkpt>
      <trkpt lat="45.61674" lon="5.02155">
        <ele>326.42572021484</ele>
        <time>2019-03-24T09:16:01.000Z</time>
      </trkpt>
      <trkpt lat="45.61681" lon="5.02159">
        <ele>325.36871337891</ele>
        <time>2019-03-24T09:16:03.000Z</time>
      </trkpt>
      <trkpt lat="45.61688" lon="5.02164">
        <ele>324.32809448242</ele>
        <time>2019-03-24T09:16:05.000Z</time>
      </trkpt>
      <trkpt lat="45.61696" lon="5.02173">
        <ele>323.29321289062</ele>
        <time>2019-03-24T09:16:07.000Z</time>
      </trkpt>
      <trkpt lat="45.61705" lon="5.02184">
        <ele>322.19580078125</ele>
        <time>2019-03-24T09:16:09.000Z</time>
      </trkpt>
      <trkpt lat="45.61712" lon="5.02192">
        <ele>321.08306884766</ele>
        <time>2019-03-24T09:16:11.000Z</time>
      </trkpt>
      <trkpt lat="45.61718" lon="5.022">
        <ele>319.95840454102</ele>
        <time>2019-03-24T09:16:13.000Z</time>
      </trkpt>
      <trkpt lat="45.61727" lon="5.02208">
        <ele>318.81845092773</ele>
        <time>2019-03-24T09:16:15.000Z</time>
      </trkpt>
      <trkpt lat="45.61734" lon="5.0222">
        <ele>317.69171142578</ele>
        <time>2019-03-24T09:16:17.000Z</time>
      </trkpt>
      <trkpt lat="45.61733" lon="5.02233">
        <ele>316.73178100586</ele>
        <time>2019-03-24T09:16:19.000Z</time>
      </trkpt>
      <trkpt lat="45.61731" lon="5.02241">
        <ele>315.91076660156</ele>
        <time>2019-03-24T09:16:21.000Z</time>
      </trkpt>
      <trkpt lat="45.61728" lon="5.02255">
        <ele>315.21975708008</ele>
        <time>2019-03-24T09:16:23.000Z</time>
      </trkpt>
      <trkpt lat="45.61723" lon="5.02261">
        <ele>314.78839111328</ele>
        <time>2019-03-24T09:16:25.000Z</time>
      </trkpt>
      <trkpt lat="45.61721" lon="5.02269">
        <ele>314.57659912109</ele>
        <time>2019-03-24T09:16:27.000Z</time>
      </trkpt>
      <trkpt lat="45.61722" lon="5.02277">
        <ele>314.45928955078</ele>
        <time>2019-03-24T09:16:29.000Z</time>
      </trkpt>
      <trkpt lat="45.61725" lon="5.02285">
        <ele>314.36529541016</ele>
        <time>2019-03-24T09:16:31.000Z</time>
      </trkpt>
      <trkpt lat="45.61729" lon="5.02293">
        <ele>314.30578613281</ele>
        <time>2019-03-24T09:16:33.000Z</time>
      </trkpt>
      <trkpt lat="45.61731" lon="5.02299">
        <ele>314.18316650391</ele>
        <time>2019-03-24T09:16:35.000Z</time>
      </trkpt>
      <trkpt lat="45.61733" lon="5.02306">
        <ele>314.06024169922</ele>
        <time>2019-03-24T09:16:37.000Z</time>
      </trkpt>
      <trkpt lat="45.61735" lon="5.02313">
        <ele>313.95782470703</ele>
        <time>2019-03-24T09:16:39.000Z</time>
      </trkpt>
      <trkpt lat="45.61736" lon="5.0232">
        <ele>313.89294433594</ele>
        <time>2019-03-24T09:16:41.000Z</time>
      </trkpt>
      <trkpt lat="45.61737" lon="5.0233">
        <ele>313.85968017578</ele>
        <time>2019-03-24T09:16:43.000Z</time>
      </trkpt>
      <trkpt lat="45.6174" lon="5.02337">
        <ele>313.86532592773</ele>
        <time>2019-03-24T09:16:45.000Z</time>
      </trkpt>
      <trkpt lat="45.61741" lon="5.02341">
        <ele>313.90444946289</ele>
        <time>2019-03-24T09:16:47.000Z</time>
      </trkpt>
      <trkpt lat="45.61742" lon="5.02345">
        <ele>313.96832275391</ele>
        <time>2019-03-24T09:16:49.000Z</time>
      </trkpt>
      <trkpt lat="45.61743" lon="5.02348">
        <ele>314.04898071289</ele>
        <time>2019-03-24T09:16:51.000Z</time>
      </trkpt>
      <trkpt lat="45.61745" lon="5.0235">
        <ele>314.14477539062</ele>
        <time>2019-03-24T09:16:53.000Z</time>
      </trkpt>
      <trkpt lat="45.61746" lon="5.02355">
        <ele>314.24850463867</ele>
        <time>2019-03-24T09:16:55.000Z</time>
      </trkpt>
      <trkpt lat="45.61749" lon="5.0236">
        <ele>314.35778808594</ele>
        <time>2019-03-24T09:16:57.000Z</time>
      </trkpt>
      <trkpt lat="45.61752" lon="5.02364">
        <ele>314.50628662109</ele>
        <time>2019-03-24T09:16:59.000Z</time>
      </trkpt>
      <trkpt lat="45.61755" lon="5.02369">
        <ele>314.71801757812</ele>
        <time>2019-03-24T09:17:01.000Z</time>
      </trkpt>
      <trkpt lat="45.61758" lon="5.02373">
        <ele>315.00122070312</ele>
        <time>2019-03-24T09:17:03.000Z</time>
      </trkpt>
      <trkpt lat="45.61761" lon="5.02376">
        <ele>315.30551147461</ele>
        <time>2019-03-24T09:17:05.000Z</time>
      </trkpt>
      <trkpt lat="45.61765" lon="5.02381">
        <ele>315.66732788086</ele>
        <time>2019-03-24T09:17:07.000Z</time>
      </trkpt>
      <trkpt lat="45.61768" lon="5.02384">
        <ele>316.04214477539</ele>
        <time>2019-03-24T09:17:09.000Z</time>
      </trkpt>
      <trkpt lat="45.61772" lon="5.02388">
        <ele>316.42602539062</ele>
        <time>2019-03-24T09:17:11.000Z</time>
      </trkpt>
      <trkpt lat="45.61776" lon="5.02392">
        <ele>316.81048583984</ele>
        <time>2019-03-24T09:17:13.000Z</time>
      </trkpt>
      <trkpt lat="45.61779" lon="5.02397">
        <ele>317.2165222168</ele>
        <time>2019-03-24T09:17:15.000Z</time>
      </trkpt>
      <trkpt lat="45.61782" lon="5.02403">
        <ele>317.61386108398</ele>
        <time>2019-03-24T09:17:17.000Z</time>
      </trkpt>
      <trkpt lat="45.61786" lon="5.02408">
        <ele>318.03009033203</ele>
        <time>2019-03-24T09:17:19.000Z</time>
      </trkpt>
      <trkpt lat="45.61789" lon="5.02413">
        <ele>318.42361450195</ele>
        <time>2019-03-24T09:17:21.000Z</time>
      </trkpt>
      <trkpt lat="45.61792" lon="5.02419">
        <ele>318.81924438477</ele>
        <time>2019-03-24T09:17:23.000Z</time>
      </trkpt>
      <trkpt lat="45.61795" lon="5.02427">
        <ele>319.25775146484</ele>
        <time>2019-03-24T09:17:25.000Z</time>
      </trkpt>
      <trkpt lat="45.61798" lon="5.02435">
        <ele>319.73248291016</ele>
        <time>2019-03-24T09:17:27.000Z</time>
      </trkpt>
      <trkpt lat="45.61802" lon="5.02446">
        <ele>320.27301025391</ele>
        <time>2019-03-24T09:17:29.000Z</time>
      </trkpt>
      <trkpt lat="45.61807" lon="5.02453">
        <ele>320.88409423828</ele>
        <time>2019-03-24T09:17:31.000Z</time>
      </trkpt>
      <trkpt lat="45.6181" lon="5.0246">
        <ele>321.50277709961</ele>
        <time>2019-03-24T09:17:33.000Z</time>
      </trkpt>
      <trkpt lat="45.61813" lon="5.02466">
        <ele>322.10278320312</ele>
        <time>2019-03-24T09:17:35.000Z</time>
      </trkpt>
      <trkpt lat="45.61817" lon="5.02473">
        <ele>322.70660400391</ele>
        <time>2019-03-24T09:17:37.000Z</time>
      </trkpt>
      <trkpt lat="45.61821" lon="5.02481">
        <ele>323.26684570312</ele>
        <time>2019-03-24T09:17:39.000Z</time>
      </trkpt>
      <trkpt lat="45.61824" lon="5.02489">
        <ele>323.80560302734</ele>
        <time>2019-03-24T09:17:41.000Z</time>
      </trkpt>
      <trkpt lat="45.6183" lon="5.02491">
        <ele>324.35198974609</ele>
        <time>2019-03-24T09:17:43.000Z</time>
      </trkpt>
      <trkpt lat="45.61831" lon="5.0249">
        <ele>324.80865478516</ele>
        <time>2019-03-24T09:17:45.000Z</time>
      </trkpt>
      <trkpt lat="45.61832" lon="5.02484">
        <ele>325.11068725586</ele>
        <time>2019-03-24T09:17:47.000Z</time>
      </trkpt>
      <trkpt lat="45.61833" lon="5.02477">
        <ele>325.27059936523</ele>
        <time>2019-03-24T09:17:49.000Z</time>
      </trkpt>
      <trkpt lat="45.61835" lon="5.02474">
        <ele>325.30010986328</ele>
        <time>2019-03-24T09:17:51.000Z</time>
      </trkpt>
      <trkpt lat="45.61835" lon="5.02472">
        <ele>325.20922851562</ele>
        <time>2019-03-24T09:17:53.000Z</time>
      </trkpt>
      <trkpt lat="45.61837" lon="5.02465">
        <ele>325.07659912109</ele>
        <time>2019-03-24T09:17:55.000Z</time>
      </trkpt>
      <trkpt lat="45.61839" lon="5.02458">
        <ele>324.93878173828</ele>
        <time>2019-03-24T09:17:57.000Z</time>
      </trkpt>
      <trkpt lat="45.6184" lon="5.02449">
        <ele>324.7724609375</ele>
        <time>2019-03-24T09:17:59.000Z</time>
      </trkpt>
      <trkpt lat="45.61841" lon="5.02443">
        <ele>324.583984375</ele>
        <time>2019-03-24T09:18:02.000Z</time>
      </trkpt>
      <trkpt lat="45.61846" lon="5.02436">
        <ele>324.38232421875</ele>
        <time>2019-03-24T09:18:04.000Z</time>
      </trkpt>
      <trkpt lat="45.61848" lon="5.0243">
        <ele>324.18200683594</ele>
        <time>2019-03-24T09:18:06.000Z</time>
      </trkpt>
      <trkpt lat="45.61849" lon="5.02424">
        <ele>323.98742675781</ele>
        <time>2019-03-24T09:18:08.000Z</time>
      </trkpt>
      <trkpt lat="45.61851" lon="5.02418">
        <ele>323.8125</ele>
        <time>2019-03-24T09:18:10.000Z</time>
      </trkpt>
      <trkpt lat="45.61852" lon="5.02411">
        <ele>323.65747070312</ele>
        <time>2019-03-24T09:18:12.000Z</time>
      </trkpt>
      <trkpt lat="45.61853" lon="5.02406">
        <ele>323.51895141602</ele>
        <time>2019-03-24T09:18:14.000Z</time>
      </trkpt>
      <trkpt lat="45.61853" lon="5.024">
        <ele>323.39706420898</ele>
        <time>2019-03-24T09:18:16.000Z</time>
      </trkpt>
      <trkpt lat="45.61855" lon="5.02392">
        <ele>323.29635620117</ele>
        <time>2019-03-24T09:18:18.000Z</time>
      </trkpt>
      <trkpt lat="45.61856" lon="5.02384">
        <ele>323.21371459961</ele>
        <time>2019-03-24T09:18:20.000Z</time>
      </trkpt>
      <trkpt lat="45.61857" lon="5.02376">
        <ele>323.12661743164</ele>
        <time>2019-03-24T09:18:22.000Z</time>
      </trkpt>
      <trkpt lat="45.61857" lon="5.02368">
        <ele>323.02984619141</ele>
        <time>2019-03-24T09:18:24.000Z</time>
      </trkpt>
      <trkpt lat="45.61858" lon="5.0236">
        <ele>322.92837524414</ele>
        <time>2019-03-24T09:18:26.000Z</time>
      </trkpt>
      <trkpt lat="45.6186" lon="5.02353">
        <ele>322.82720947266</ele>
        <time>2019-03-24T09:18:28.000Z</time>
      </trkpt>
      <trkpt lat="45.61861" lon="5.02346">
        <ele>322.72723388672</ele>
        <time>2019-03-24T09:18:30.000Z</time>
      </trkpt>
      <trkpt lat="45.61863" lon="5.02339">
        <ele>322.63131713867</ele>
        <time>2019-03-24T09:18:32.000Z</time>
      </trkpt>
      <trkpt lat="45.61864" lon="5.02333">
        <ele>322.53466796875</ele>
        <time>2019-03-24T09:18:34.000Z</time>
      </trkpt>
      <trkpt lat="45.61865" lon="5.02325">
        <ele>322.41369628906</ele>
        <time>2019-03-24T09:18:36.000Z</time>
      </trkpt>
      <trkpt lat="45.61866" lon="5.02318">
        <ele>322.25985717773</ele>
        <time>2019-03-24T09:18:38.000Z</time>
      </trkpt>
      <trkpt lat="45.61867" lon="5.0231">
        <ele>322.08016967773</ele>
        <time>2019-03-24T09:18:40.000Z</time>
      </trkpt>
      <trkpt lat="45.61869" lon="5.02304">
        <ele>321.88232421875</ele>
        <time>2019-03-24T09:18:42.000Z</time>
      </trkpt>
      <trkpt lat="45.61875" lon="5.023">
        <ele>321.7131652832</ele>
        <time>2019-03-24T09:18:44.000Z</time>
      </trkpt>
      <trkpt lat="45.61876" lon="5.02292">
        <ele>321.54827880859</ele>
        <time>2019-03-24T09:18:46.000Z</time>
      </trkpt>
      <trkpt lat="45.61877" lon="5.02283">
        <ele>321.38873291016</ele>
        <time>2019-03-24T09:18:48.000Z</time>
      </trkpt>
      <trkpt lat="45.61878" lon="5.02277">
        <ele>321.24514770508</ele>
        <time>2019-03-24T09:18:50.000Z</time>
      </trkpt>
      <trkpt lat="45.61877" lon="5.02267">
        <ele>321.07232666016</ele>
        <time>2019-03-24T09:18:52.000Z</time>
      </trkpt>
      <trkpt lat="45.61878" lon="5.02258">
        <ele>320.84481811523</ele>
        <time>2019-03-24T09:18:54.000Z</time>
      </trkpt>
      <trkpt lat="45.61875" lon="5.02249">
        <ele>320.58071899414</ele>
        <time>2019-03-24T09:18:56.000Z</time>
      </trkpt>
      <trkpt lat="45.61872" lon="5.02243">
        <ele>320.3098449707</ele>
        <time>2019-03-24T09:18:58.000Z</time>
      </trkpt>
      <trkpt lat="45.61869" lon="5.02241">
        <ele>320.02963256836</ele>
        <time>2019-03-24T09:19:00.000Z</time>
      </trkpt>
      <trkpt lat="45.61863" lon="5.02244">
        <ele>319.77474975586</ele>
        <time>2019-03-24T09:19:02.000Z</time>
      </trkpt>
      <trkpt lat="45.61855" lon="5.02251">
        <ele>319.51293945312</ele>
        <time>2019-03-24T09:19:04.000Z</time>
      </trkpt>
      <trkpt lat="45.61849" lon="5.02255">
        <ele>319.31314086914</ele>
        <time>2019-03-24T09:19:06.000Z</time>
      </trkpt>
      <trkpt lat="45.61844" lon="5.0226">
        <ele>319.15942382812</ele>
        <time>2019-03-24T09:19:08.000Z</time>
      </trkpt>
      <trkpt lat="45.61838" lon="5.0226">
        <ele>318.98892211914</ele>
        <time>2019-03-24T09:19:10.000Z</time>
      </trkpt>
      <trkpt lat="45.61836" lon="5.02259">
        <ele>318.83734130859</ele>
        <time>2019-03-24T09:19:12.000Z</time>
      </trkpt>
      <trkpt lat="45.61839" lon="5.02254">
        <ele>318.71929931641</ele>
        <time>2019-03-24T09:19:14.000Z</time>
      </trkpt>
      <trkpt lat="45.61842" lon="5.02248">
        <ele>318.59844970703</ele>
        <time>2019-03-24T09:19:16.000Z</time>
      </trkpt>
      <trkpt lat="45.61847" lon="5.02242">
        <ele>318.50030517578</ele>
        <time>2019-03-24T09:19:18.000Z</time>
      </trkpt>
      <trkpt lat="45.6185" lon="5.02234">
        <ele>318.45867919922</ele>
        <time>2019-03-24T09:19:20.000Z</time>
      </trkpt>
      <trkpt lat="45.61855" lon="5.02226">
        <ele>318.45034790039</ele>
        <time>2019-03-24T09:19:22.000Z</time>
      </trkpt>
      <trkpt lat="45.61858" lon="5.02218">
        <ele>318.466796875</ele>
        <time>2019-03-24T09:19:24.000Z</time>
      </trkpt>
      <trkpt lat="45.61861" lon="5.02206">
        <ele>318.48309326172</ele>
        <time>2019-03-24T09:19:26.000Z</time>
      </trkpt>
      <trkpt lat="45.61866" lon="5.02196">
        <ele>318.50192260742</ele>
        <time>2019-03-24T09:19:28.000Z</time>
      </trkpt>
      <trkpt lat="45.61873" lon="5.02184">
        <ele>318.55291748047</ele>
        <time>2019-03-24T09:19:30.000Z</time>
      </trkpt>
      <trkpt lat="45.6188" lon="5.02174">
        <ele>318.63882446289</ele>
        <time>2019-03-24T09:19:32.000Z</time>
      </trkpt>
      <trkpt lat="45.61885" lon="5.02168">
        <ele>318.75311279297</ele>
        <time>2019-03-24T09:19:34.000Z</time>
      </trkpt>
      <trkpt lat="45.61889" lon="5.02161">
        <ele>318.88140869141</ele>
        <time>2019-03-24T09:19:36.000Z</time>
      </trkpt>
      <trkpt lat="45.61894" lon="5.02155">
        <ele>318.98931884766</ele>
        <time>2019-03-24T09:19:38.000Z</time>
      </trkpt>
      <trkpt lat="45.61896" lon="5.0215">
        <ele>319.03985595703</ele>
        <time>2019-03-24T09:19:40.000Z</time>
      </trkpt>
      <trkpt lat="45.61901" lon="5.02144">
        <ele>319.02984619141</ele>
        <time>2019-03-24T09:19:42.000Z</time>
      </trkpt>
      <trkpt lat="45.61906" lon="5.02138">
        <ele>318.96624755859</ele>
        <time>2019-03-24T09:19:44.000Z</time>
      </trkpt>
      <trkpt lat="45.61909" lon="5.02134">
        <ele>318.89294433594</ele>
        <time>2019-03-24T09:19:46.000Z</time>
      </trkpt>
      <trkpt lat="45.61913" lon="5.02127">
        <ele>318.76553344727</ele>
        <time>2019-03-24T09:19:48.000Z</time>
      </trkpt>
      <trkpt lat="45.61918" lon="5.02118">
        <ele>318.59613037109</ele>
        <time>2019-03-24T09:19:50.000Z</time>
      </trkpt>
      <trkpt lat="45.61921" lon="5.02107">
        <ele>318.35101318359</ele>
        <time>2019-03-24T09:19:52.000Z</time>
      </trkpt>
      <trkpt lat="45.61927" lon="5.02098">
        <ele>318.09124755859</ele>
        <time>2019-03-24T09:19:54.000Z</time>
      </trkpt>
      <trkpt lat="45.6193" lon="5.02089">
        <ele>317.79443359375</ele>
        <time>2019-03-24T09:19:56.000Z</time>
      </trkpt>
      <trkpt lat="45.61931" lon="5.02082">
        <ele>317.48196411133</ele>
        <time>2019-03-24T09:19:58.000Z</time>
      </trkpt>
      <trkpt lat="45.61931" lon="5.02077">
        <ele>317.15997314453</ele>
        <time>2019-03-24T09:20:00.000Z</time>
      </trkpt>
      <trkpt lat="45.61933" lon="5.02071">
        <ele>316.86502075195</ele>
        <time>2019-03-24T09:20:02.000Z</time>
      </trkpt>
      <trkpt lat="45.61939" lon="5.02061">
        <ele>316.53326416016</ele>
        <time>2019-03-24T09:20:04.000Z</time>
      </trkpt>
      <trkpt lat="45.61941" lon="5.02047">
        <ele>316.07077026367</ele>
        <time>2019-03-24T09:20:06.000Z</time>
      </trkpt>
      <trkpt lat="45.61942" lon="5.02035">
        <ele>315.51065063477</ele>
        <time>2019-03-24T09:20:08.000Z</time>
      </trkpt>
      <trkpt lat="45.61951" lon="5.02008">
        <ele>314.78039550781</ele>
        <time>2019-03-24T09:20:10.000Z</time>
      </trkpt>
      <trkpt lat="45.6196" lon="5.01993">
        <ele>314.15536499023</ele>
        <time>2019-03-24T09:20:12.000Z</time>
      </trkpt>
      <trkpt lat="45.61966" lon="5.01977">
        <ele>313.68572998047</ele>
        <time>2019-03-24T09:20:14.000Z</time>
      </trkpt>
      <trkpt lat="45.61974" lon="5.01965">
        <ele>313.47320556641</ele>
        <time>2019-03-24T09:20:16.000Z</time>
      </trkpt>
      <trkpt lat="45.61983" lon="5.01953">
        <ele>313.50765991211</ele>
        <time>2019-03-24T09:20:18.000Z</time>
      </trkpt>
      <trkpt lat="45.61993" lon="5.01945">
        <ele>313.86077880859</ele>
        <time>2019-03-24T09:20:20.000Z</time>
      </trkpt>
      <trkpt lat="45.62002" lon="5.01941">
        <ele>314.2380065918</ele>
        <time>2019-03-24T09:20:22.000Z</time>
      </trkpt>
      <trkpt lat="45.62009" lon="5.01934">
        <ele>314.52685546875</ele>
        <time>2019-03-24T09:20:24.000Z</time>
      </trkpt>
      <trkpt lat="45.62016" lon="5.01927">
        <ele>314.73834228516</ele>
        <time>2019-03-24T09:20:26.000Z</time>
      </trkpt>
      <trkpt lat="45.62022" lon="5.01919">
        <ele>314.8537902832</ele>
        <time>2019-03-24T09:20:28.000Z</time>
      </trkpt>
      <trkpt lat="45.62028" lon="5.01911">
        <ele>314.93069458008</ele>
        <time>2019-03-24T09:20:30.000Z</time>
      </trkpt>
      <trkpt lat="45.62032" lon="5.01903">
        <ele>314.98208618164</ele>
        <time>2019-03-24T09:20:32.000Z</time>
      </trkpt>
      <trkpt lat="45.62037" lon="5.01898">
        <ele>315.07864379883</ele>
        <time>2019-03-24T09:20:34.000Z</time>
      </trkpt>
      <trkpt lat="45.6204" lon="5.0189">
        <ele>315.21630859375</ele>
        <time>2019-03-24T09:20:36.000Z</time>
      </trkpt>
      <trkpt lat="45.6204" lon="5.01884">
        <ele>315.36920166016</ele>
        <time>2019-03-24T09:20:38.000Z</time>
      </trkpt>
      <trkpt lat="45.62041" lon="5.01877">
        <ele>315.50854492188</ele>
        <time>2019-03-24T09:20:40.000Z</time>
      </trkpt>
      <trkpt lat="45.62043" lon="5.01872">
        <ele>315.63027954102</ele>
        <time>2019-03-24T09:20:42.000Z</time>
      </trkpt>
      <trkpt lat="45.62043" lon="5.01866">
        <ele>315.72030639648</ele>
        <time>2019-03-24T09:20:44.000Z</time>
      </trkpt>
      <trkpt lat="45.62044" lon="5.01856">
        <ele>315.79632568359</ele>
        <time>2019-03-24T09:20:46.000Z</time>
      </trkpt>
      <trkpt lat="45.62043" lon="5.01848">
        <ele>315.86700439453</ele>
        <time>2019-03-24T09:20:48.000Z</time>
      </trkpt>
      <trkpt lat="45.62045" lon="5.01843">
        <ele>315.94134521484</ele>
        <time>2019-03-24T09:20:50.000Z</time>
      </trkpt>
      <trkpt lat="45.62046" lon="5.01837">
        <ele>316.01593017578</ele>
        <time>2019-03-24T09:20:52.000Z</time>
      </trkpt>
      <trkpt lat="45.62049" lon="5.01833">
        <ele>316.11099243164</ele>
        <time>2019-03-24T09:20:54.000Z</time>
      </trkpt>
      <trkpt lat="45.62051" lon="5.0183">
        <ele>316.18884277344</ele>
        <time>2019-03-24T09:20:56.000Z</time>
      </trkpt>
      <trkpt lat="45.62053" lon="5.01826">
        <ele>316.26831054688</ele>
        <time>2019-03-24T09:20:58.000Z</time>
      </trkpt>
      <trkpt lat="45.62054" lon="5.01823">
        <ele>316.31512451172</ele>
        <time>2019-03-24T09:21:00.000Z</time>
      </trkpt>
      <trkpt lat="45.62056" lon="5.0182">
        <ele>316.33779907227</ele>
        <time>2019-03-24T09:21:02.000Z</time>
      </trkpt>
      <trkpt lat="45.62057" lon="5.01817">
        <ele>316.32574462891</ele>
        <time>2019-03-24T09:21:04.000Z</time>
      </trkpt>
      <trkpt lat="45.62058" lon="5.01813">
        <ele>316.28924560547</ele>
        <time>2019-03-24T09:21:06.000Z</time>
      </trkpt>
      <trkpt lat="45.62058" lon="5.01805">
        <ele>316.20681762695</ele>
        <time>2019-03-24T09:21:08.000Z</time>
      </trkpt>
      <trkpt lat="45.62055" lon="5.01795">
        <ele>316.05908203125</ele>
        <time>2019-03-24T09:21:10.000Z</time>
      </trkpt>
      <trkpt lat="45.62055" lon="5.01785">
        <ele>315.8551940918</ele>
        <time>2019-03-24T09:21:12.000Z</time>
      </trkpt>
      <trkpt lat="45.62054" lon="5.01773">
        <ele>315.5859375</ele>
        <time>2019-03-24T09:21:14.000Z</time>
      </trkpt>
      <trkpt lat="45.62053" lon="5.01758">
        <ele>315.24908447266</ele>
        <time>2019-03-24T09:21:16.000Z</time>
      </trkpt>
      <trkpt lat="45.62051" lon="5.01745">
        <ele>314.8388671875</ele>
        <time>2019-03-24T09:21:18.000Z</time>
      </trkpt>
      <trkpt lat="45.62051" lon="5.01729">
        <ele>314.31088256836</ele>
        <time>2019-03-24T09:21:20.000Z</time>
      </trkpt>
      <trkpt lat="45.62051" lon="5.01709">
        <ele>313.58392333984</ele>
        <time>2019-03-24T09:21:22.000Z</time>
      </trkpt>
      <trkpt lat="45.62051" lon="5.01686">
        <ele>312.63946533203</ele>
        <time>2019-03-24T09:21:24.000Z</time>
      </trkpt>
      <trkpt lat="45.62054" lon="5.01667">
        <ele>311.54135131836</ele>
        <time>2019-03-24T09:21:26.000Z</time>
      </trkpt>
      <trkpt lat="45.62059" lon="5.01652">
        <ele>310.35125732422</ele>
        <time>2019-03-24T09:21:28.000Z</time>
      </trkpt>
      <trkpt lat="45.62064" lon="5.01638">
        <ele>309.13204956055</ele>
        <time>2019-03-24T09:21:30.000Z</time>
      </trkpt>
      <trkpt lat="45.6207" lon="5.01625">
        <ele>307.91540527344</ele>
        <time>2019-03-24T09:21:32.000Z</time>
      </trkpt>
      <trkpt lat="45.62077" lon="5.01619">
        <ele>306.80780029297</ele>
        <time>2019-03-24T09:21:34.000Z</time>
      </trkpt>
      <trkpt lat="45.62085" lon="5.0161">
        <ele>305.72711181641</ele>
        <time>2019-03-24T09:21:36.000Z</time>
      </trkpt>
      <trkpt lat="45.62095" lon="5.016">
        <ele>304.76947021484</ele>
        <time>2019-03-24T09:21:38.000Z</time>
      </trkpt>
      <trkpt lat="45.62103" lon="5.01593">
        <ele>303.97158813477</ele>
        <time>2019-03-24T09:21:40.000Z</time>
      </trkpt>
      <trkpt lat="45.62109" lon="5.01586">
        <ele>303.35906982422</ele>
        <time>2019-03-24T09:21:42.000Z</time>
      </trkpt>
      <trkpt lat="45.62115" lon="5.01579">
        <ele>302.89053344727</ele>
        <time>2019-03-24T09:21:44.000Z</time>
      </trkpt>
      <trkpt lat="45.62122" lon="5.01568">
        <ele>302.61553955078</ele>
        <time>2019-03-24T09:21:46.000Z</time>
      </trkpt>
      <trkpt lat="45.62133" lon="5.01553">
        <ele>302.40057373047</ele>
        <time>2019-03-24T09:21:48.000Z</time>
      </trkpt>
      <trkpt lat="45.6214" lon="5.01541">
        <ele>302.20660400391</ele>
        <time>2019-03-24T09:21:50.000Z</time>
      </trkpt>
      <trkpt lat="45.62149" lon="5.0153">
        <ele>302.04458618164</ele>
        <time>2019-03-24T09:21:52.000Z</time>
      </trkpt>
      <trkpt lat="45.62153" lon="5.01521">
        <ele>301.87417602539</ele>
        <time>2019-03-24T09:21:54.000Z</time>
      </trkpt>
      <trkpt lat="45.62159" lon="5.01512">
        <ele>301.68450927734</ele>
        <time>2019-03-24T09:21:56.000Z</time>
      </trkpt>
      <trkpt lat="45.62166" lon="5.01503">
        <ele>301.48983764648</ele>
        <time>2019-03-24T09:21:58.000Z</time>
      </trkpt>
      <trkpt lat="45.62176" lon="5.01493">
        <ele>301.41156005859</ele>
        <time>2019-03-24T09:22:00.000Z</time>
      </trkpt>
      <trkpt lat="45.62184" lon="5.01483">
        <ele>301.42474365234</ele>
        <time>2019-03-24T09:22:02.000Z</time>
      </trkpt>
      <trkpt lat="45.62191" lon="5.01475">
        <ele>301.49749755859</ele>
        <time>2019-03-24T09:22:05.000Z</time>
      </trkpt>
      <trkpt lat="45.62196" lon="5.01463">
        <ele>301.56005859375</ele>
        <time>2019-03-24T09:22:08.000Z</time>
      </trkpt>
      <trkpt lat="45.62203" lon="5.01455">
        <ele>301.62493896484</ele>
        <time>2019-03-24T09:22:11.000Z</time>
      </trkpt>
      <trkpt lat="45.62213" lon="5.0145">
        <ele>301.60494995117</ele>
        <time>2019-03-24T09:22:14.000Z</time>
      </trkpt>
      <trkpt lat="45.62222" lon="5.01441">
        <ele>301.45394897461</ele>
        <time>2019-03-24T09:22:19.000Z</time>
      </trkpt>
      <trkpt lat="45.62228" lon="5.01428">
        <ele>301.11059570312</ele>
        <time>2019-03-24T09:22:22.000Z</time>
      </trkpt>
      <trkpt lat="45.62234" lon="5.0142">
        <ele>300.68170166016</ele>
        <time>2019-03-24T09:22:25.000Z</time>
      </trkpt>
      <trkpt lat="45.62239" lon="5.01414">
        <ele>300.20043945312</ele>
        <time>2019-03-24T09:22:28.000Z</time>
      </trkpt>
      <trkpt lat="45.62242" lon="5.0141">
        <ele>299.68426513672</ele>
        <time>2019-03-24T09:22:32.000Z</time>
      </trkpt>
      <trkpt lat="45.62246" lon="5.01405">
        <ele>299.19198608398</ele>
        <time>2019-03-24T09:22:35.000Z</time>
      </trkpt>
      <trkpt lat="45.6225" lon="5.01397">
        <ele>298.77914428711</ele>
        <time>2019-03-24T09:22:38.000Z</time>
      </trkpt>
      <trkpt lat="45.62254" lon="5.01389">
        <ele>298.44305419922</ele>
        <time>2019-03-24T09:22:41.000Z</time>
      </trkpt>
      <trkpt lat="45.62259" lon="5.01381">
        <ele>298.14349365234</ele>
        <time>2019-03-24T09:22:44.000Z</time>
      </trkpt>
      <trkpt lat="45.62262" lon="5.01374">
        <ele>297.83065795898</ele>
        <time>2019-03-24T09:22:47.000Z</time>
      </trkpt>
      <trkpt lat="45.62268" lon="5.01367">
        <ele>297.53237915039</ele>
        <time>2019-03-24T09:22:49.000Z</time>
      </trkpt>
      <trkpt lat="45.62273" lon="5.01363">
        <ele>297.3173828125</ele>
        <time>2019-03-24T09:22:51.000Z</time>
      </trkpt>
      <trkpt lat="45.62278" lon="5.01359">
        <ele>297.14208984375</ele>
        <time>2019-03-24T09:22:53.000Z</time>
      </trkpt>
      <trkpt lat="45.62281" lon="5.01354">
        <ele>296.984375</ele>
        <time>2019-03-24T09:22:55.000Z</time>
      </trkpt>
      <trkpt lat="45.62288" lon="5.01347">
        <ele>296.8505859375</ele>
        <time>2019-03-24T09:22:57.000Z</time>
      </trkpt>
      <trkpt lat="45.62296" lon="5.01341">
        <ele>296.72705078125</ele>
        <time>2019-03-24T09:22:59.000Z</time>
      </trkpt>
      <trkpt lat="45.62305" lon="5.01331">
        <ele>296.56588745117</ele>
        <time>2019-03-24T09:23:01.000Z</time>
      </trkpt>
      <trkpt lat="45.62311" lon="5.01326">
        <ele>296.38256835938</ele>
        <time>2019-03-24T09:23:03.000Z</time>
      </trkpt>
      <trkpt lat="45.62316" lon="5.01321">
        <ele>296.19348144531</ele>
        <time>2019-03-24T09:23:05.000Z</time>
      </trkpt>
      <trkpt lat="45.62322" lon="5.01318">
        <ele>295.99255371094</ele>
        <time>2019-03-24T09:23:07.000Z</time>
      </trkpt>
      <trkpt lat="45.62327" lon="5.01315">
        <ele>295.78948974609</ele>
        <time>2019-03-24T09:23:09.000Z</time>
      </trkpt>
      <trkpt lat="45.62331" lon="5.01313">
        <ele>295.61270141602</ele>
        <time>2019-03-24T09:23:11.000Z</time>
      </trkpt>
      <trkpt lat="45.62338" lon="5.01309">
        <ele>295.41516113281</ele>
        <time>2019-03-24T09:23:13.000Z</time>
      </trkpt>
      <trkpt lat="45.62344" lon="5.01306">
        <ele>295.22079467773</ele>
        <time>2019-03-24T09:23:15.000Z</time>
      </trkpt>
      <trkpt lat="45.62352" lon="5.01304">
        <ele>295.05728149414</ele>
        <time>2019-03-24T09:23:17.000Z</time>
      </trkpt>
      <trkpt lat="45.62359" lon="5.01302">
        <ele>294.9196472168</ele>
        <time>2019-03-24T09:23:19.000Z</time>
      </trkpt>
      <trkpt lat="45.62363" lon="5.01301">
        <ele>294.79891967773</ele>
        <time>2019-03-24T09:23:21.000Z</time>
      </trkpt>
      <trkpt lat="45.62365" lon="5.01299">
        <ele>294.71475219727</ele>
        <time>2019-03-24T09:23:23.000Z</time>
      </trkpt>
      <trkpt lat="45.62367" lon="5.01297">
        <ele>294.64849853516</ele>
        <time>2019-03-24T09:23:25.000Z</time>
      </trkpt>
      <trkpt lat="45.62374" lon="5.01293">
        <ele>294.55868530273</ele>
        <time>2019-03-24T09:23:27.000Z</time>
      </trkpt>
      <trkpt lat="45.62379" lon="5.01288">
        <ele>294.43002319336</ele>
        <time>2019-03-24T09:23:29.000Z</time>
      </trkpt>
      <trkpt lat="45.62384" lon="5.01283">
        <ele>294.26104736328</ele>
        <time>2019-03-24T09:23:31.000Z</time>
      </trkpt>
      <trkpt lat="45.6239" lon="5.01278">
        <ele>294.09188842773</ele>
        <time>2019-03-24T09:23:33.000Z</time>
      </trkpt>
      <trkpt lat="45.62394" lon="5.01275">
        <ele>293.91986083984</ele>
        <time>2019-03-24T09:23:35.000Z</time>
      </trkpt>
      <trkpt lat="45.62402" lon="5.01269">
        <ele>293.76040649414</ele>
        <time>2019-03-24T09:23:37.000Z</time>
      </trkpt>
      <trkpt lat="45.62409" lon="5.01265">
        <ele>293.63845825195</ele>
        <time>2019-03-24T09:23:39.000Z</time>
      </trkpt>
      <trkpt lat="45.62417" lon="5.01258">
        <ele>293.5436706543</ele>
        <time>2019-03-24T09:23:41.000Z</time>
      </trkpt>
      <trkpt lat="45.62424" lon="5.01253">
        <ele>293.31195068359</ele>
        <time>2019-03-24T09:23:43.000Z</time>
      </trkpt>
      <trkpt lat="45.62432" lon="5.01247">
        <ele>292.90216064453</ele>
        <time>2019-03-24T09:23:45.000Z</time>
      </trkpt>
      <trkpt lat="45.62438" lon="5.01243">
        <ele>292.37493896484</ele>
        <time>2019-03-24T09:23:47.000Z</time>
      </trkpt>
      <trkpt lat="45.62445" lon="5.0124">
        <ele>291.71109008789</ele>
        <time>2019-03-24T09:23:49.000Z</time>
      </trkpt>
      <trkpt lat="45.62452" lon="5.01233">
        <ele>290.88339233398</ele>
        <time>2019-03-24T09:23:51.000Z</time>
      </trkpt>
      <trkpt lat="45.62459" lon="5.01227">
        <ele>290.041015625</ele>
        <time>2019-03-24T09:23:53.000Z</time>
      </trkpt>
      <trkpt lat="45.62467" lon="5.01222">
        <ele>289.2080078125</ele>
        <time>2019-03-24T09:23:55.000Z</time>
      </trkpt>
      <trkpt lat="45.62475" lon="5.0122">
        <ele>288.37255859375</ele>
        <time>2019-03-24T09:23:57.000Z</time>
      </trkpt>
      <trkpt lat="45.62479" lon="5.01221">
        <ele>287.6123046875</ele>
        <time>2019-03-24T09:23:59.000Z</time>
      </trkpt>
      <trkpt lat="45.62483" lon="5.01226">
        <ele>287.0234375</ele>
        <time>2019-03-24T09:24:01.000Z</time>
      </trkpt>
      <trkpt lat="45.62485" lon="5.01235">
        <ele>286.671875</ele>
        <time>2019-03-24T09:24:03.000Z</time>
      </trkpt>
      <trkpt lat="45.62484" lon="5.01243">
        <ele>286.580078125</ele>
        <time>2019-03-24T09:24:05.000Z</time>
      </trkpt>
      <trkpt lat="45.62483" lon="5.01249">
        <ele>286.71435546875</ele>
        <time>2019-03-24T09:24:07.000Z</time>
      </trkpt>
      <trkpt lat="45.6248" lon="5.01254">
        <ele>287.01959228516</ele>
        <time>2019-03-24T09:24:09.000Z</time>
      </trkpt>
      <trkpt lat="45.62477" lon="5.01256">
        <ele>287.42202758789</ele>
        <time>2019-03-24T09:24:11.000Z</time>
      </trkpt>
      <trkpt lat="45.62472" lon="5.01262">
        <ele>287.89599609375</ele>
        <time>2019-03-24T09:24:13.000Z</time>
      </trkpt>
      <trkpt lat="45.62469" lon="5.01267">
        <ele>288.40817260742</ele>
        <time>2019-03-24T09:24:15.000Z</time>
      </trkpt>
      <trkpt lat="45.62467" lon="5.0127">
        <ele>288.91424560547</ele>
        <time>2019-03-24T09:24:17.000Z</time>
      </trkpt>
      <trkpt lat="45.62463" lon="5.01272">
        <ele>289.40740966797</ele>
        <time>2019-03-24T09:24:19.000Z</time>
      </trkpt>
      <trkpt lat="45.6246" lon="5.01276">
        <ele>289.89495849609</ele>
        <time>2019-03-24T09:24:21.000Z</time>
      </trkpt>
      <trkpt lat="45.62458" lon="5.01279">
        <ele>290.31341552734</ele>
        <time>2019-03-24T09:24:23.000Z</time>
      </trkpt>
      <trkpt lat="45.62457" lon="5.01282">
        <ele>290.67749023438</ele>
        <time>2019-03-24T09:24:25.000Z</time>
      </trkpt>
      <trkpt lat="45.62455" lon="5.01284">
        <ele>291.02139282227</ele>
        <time>2019-03-24T09:24:27.000Z</time>
      </trkpt>
      <trkpt lat="45.62453" lon="5.01284">
        <ele>291.29400634766</ele>
        <time>2019-03-24T09:24:29.000Z</time>
      </trkpt>
      <trkpt lat="45.62452" lon="5.01282">
        <ele>291.49813842773</ele>
        <time>2019-03-24T09:24:31.000Z</time>
      </trkpt>
      <trkpt lat="45.6245" lon="5.01282">
        <ele>291.65930175781</ele>
        <time>2019-03-24T09:24:33.000Z</time>
      </trkpt>
      <trkpt lat="45.62448" lon="5.01282">
        <ele>291.80511474609</ele>
        <time>2019-03-24T09:24:35.000Z</time>
      </trkpt>
      <trkpt lat="45.62448" lon="5.01284">
        <ele>291.91082763672</ele>
        <time>2019-03-24T09:24:37.000Z</time>
      </trkpt>
      <trkpt lat="45.62447" lon="5.01285">
        <ele>292.02020263672</ele>
        <time>2019-03-24T09:24:39.000Z</time>
      </trkpt>
      <trkpt lat="45.62447" lon="5.01283">
        <ele>292.09442138672</ele>
        <time>2019-03-24T09:24:41.000Z</time>
      </trkpt>
      <trkpt lat="45.62445" lon="5.01281">
        <ele>292.16302490234</ele>
        <time>2019-03-24T09:24:43.000Z</time>
      </trkpt>
      <trkpt lat="45.62444" lon="5.0128">
        <ele>292.2038269043</ele>
        <time>2019-03-24T09:24:45.000Z</time>
      </trkpt>
      <trkpt lat="45.62442" lon="5.01279">
        <ele>292.24618530273</ele>
        <time>2019-03-24T09:24:47.000Z</time>
      </trkpt>
      <trkpt lat="45.62438" lon="5.01278">
        <ele>292.32138061523</ele>
        <time>2019-03-24T09:24:49.000Z</time>
      </trkpt>
      <trkpt lat="45.62433" lon="5.01278">
        <ele>292.50256347656</ele>
        <time>2019-03-24T09:24:51.000Z</time>
      </trkpt>
      <trkpt lat="45.62429" lon="5.01282">
        <ele>292.76644897461</ele>
        <time>2019-03-24T09:24:53.000Z</time>
      </trkpt>
      <trkpt lat="45.62426" lon="5.01285">
        <ele>293.10693359375</ele>
        <time>2019-03-24T09:24:55.000Z</time>
      </trkpt>
      <trkpt lat="45.62424" lon="5.01286">
        <ele>293.46850585938</ele>
        <time>2019-03-24T09:24:57.000Z</time>
      </trkpt>
      <trkpt lat="45.62421" lon="5.01284">
        <ele>293.79434204102</ele>
        <time>2019-03-24T09:24:59.000Z</time>
      </trkpt>
      <trkpt lat="45.62419" lon="5.01286">
        <ele>294.09918212891</ele>
        <time>2019-03-24T09:25:01.000Z</time>
      </trkpt>
      <trkpt lat="45.62416" lon="5.01289">
        <ele>294.36947631836</ele>
        <time>2019-03-24T09:25:03.000Z</time>
      </trkpt>
      <trkpt lat="45.62413" lon="5.0129">
        <ele>294.54187011719</ele>
        <time>2019-03-24T09:25:05.000Z</time>
      </trkpt>
      <trkpt lat="45.62409" lon="5.01288">
        <ele>294.6462097168</ele>
        <time>2019-03-24T09:25:07.000Z</time>
      </trkpt>
      <trkpt lat="45.62407" lon="5.01292">
        <ele>294.75396728516</ele>
        <time>2019-03-24T09:25:09.000Z</time>
      </trkpt>
      <trkpt lat="45.62405" lon="5.01294">
        <ele>294.82513427734</ele>
        <time>2019-03-24T09:25:11.000Z</time>
      </trkpt>
      <trkpt lat="45.62402" lon="5.01296">
        <ele>294.84201049805</ele>
        <time>2019-03-24T09:25:13.000Z</time>
      </trkpt>
      <trkpt lat="45.624" lon="5.01294">
        <ele>294.84512329102</ele>
        <time>2019-03-24T09:25:15.000Z</time>
      </trkpt>
      <trkpt lat="45.62396" lon="5.01296">
        <ele>294.88079833984</ele>
        <time>2019-03-24T09:25:17.000Z</time>
      </trkpt>
      <trkpt lat="45.62393" lon="5.01298">
        <ele>294.90225219727</ele>
        <time>2019-03-24T09:25:19.000Z</time>
      </trkpt>
      <trkpt lat="45.62391" lon="5.01299">
        <ele>294.91555786133</ele>
        <time>2019-03-24T09:25:21.000Z</time>
      </trkpt>
      <trkpt lat="45.62389" lon="5.01301">
        <ele>294.93246459961</ele>
        <time>2019-03-24T09:25:23.000Z</time>
      </trkpt>
      <trkpt lat="45.62386" lon="5.01304">
        <ele>295.00582885742</ele>
        <time>2019-03-24T09:25:25.000Z</time>
      </trkpt>
      <trkpt lat="45.62384" lon="5.01306">
        <ele>295.09115600586</ele>
        <time>2019-03-24T09:25:27.000Z</time>
      </trkpt>
      <trkpt lat="45.62383" lon="5.01309">
        <ele>295.19921875</ele>
        <time>2019-03-24T09:25:29.000Z</time>
      </trkpt>
      <trkpt lat="45.62381" lon="5.01311">
        <ele>295.32315063477</ele>
        <time>2019-03-24T09:25:31.000Z</time>
      </trkpt>
      <trkpt lat="45.62378" lon="5.01314">
        <ele>295.46868896484</ele>
        <time>2019-03-24T09:25:33.000Z</time>
      </trkpt>
      <trkpt lat="45.62378" lon="5.01318">
        <ele>295.63159179688</ele>
        <time>2019-03-24T09:25:35.000Z</time>
      </trkpt>
      <trkpt lat="45.62378" lon="5.01322">
        <ele>295.8303527832</ele>
        <time>2019-03-24T09:25:37.000Z</time>
      </trkpt>
      <trkpt lat="45.62377" lon="5.01325">
        <ele>296.02847290039</ele>
        <time>2019-03-24T09:25:39.000Z</time>
      </trkpt>
      <trkpt lat="45.62373" lon="5.01325">
        <ele>296.20132446289</ele>
        <time>2019-03-24T09:25:41.000Z</time>
      </trkpt>
      <trkpt lat="45.6237" lon="5.01329">
        <ele>296.38385009766</ele>
        <time>2019-03-24T09:25:43.000Z</time>
      </trkpt>
      <trkpt lat="45.62367" lon="5.0133">
        <ele>296.53775024414</ele>
        <time>2019-03-24T09:25:45.000Z</time>
      </trkpt>
      <trkpt lat="45.62365" lon="5.01336">
        <ele>296.69317626953</ele>
        <time>2019-03-24T09:25:47.000Z</time>
      </trkpt>
      <trkpt lat="45.62362" lon="5.01341">
        <ele>296.84252929688</ele>
        <time>2019-03-24T09:25:49.000Z</time>
      </trkpt>
      <trkpt lat="45.62359" lon="5.01343">
        <ele>297.00787353516</ele>
        <time>2019-03-24T09:25:52.000Z</time>
      </trkpt>
      <trkpt lat="45.62356" lon="5.01346">
        <ele>297.14654541016</ele>
        <time>2019-03-24T09:25:54.000Z</time>
      </trkpt>
      <trkpt lat="45.62352" lon="5.01349">
        <ele>297.29574584961</ele>
        <time>2019-03-24T09:25:56.000Z</time>
      </trkpt>
      <trkpt lat="45.62351" lon="5.01353">
        <ele>297.42468261719</ele>
        <time>2019-03-24T09:25:58.000Z</time>
      </trkpt>
      <trkpt lat="45.6235" lon="5.01358">
        <ele>297.56265258789</ele>
        <time>2019-03-24T09:26:00.000Z</time>
      </trkpt>
      <trkpt lat="45.62349" lon="5.01363">
        <ele>297.72134399414</ele>
        <time>2019-03-24T09:26:02.000Z</time>
      </trkpt>
      <trkpt lat="45.62349" lon="5.01366">
        <ele>297.88836669922</ele>
        <time>2019-03-24T09:26:04.000Z</time>
      </trkpt>
      <trkpt lat="45.62349" lon="5.01371">
        <ele>298.05712890625</ele>
        <time>2019-03-24T09:26:06.000Z</time>
      </trkpt>
      <trkpt lat="45.62348" lon="5.01376">
        <ele>298.23699951172</ele>
        <time>2019-03-24T09:26:08.000Z</time>
      </trkpt>
      <trkpt lat="45.62346" lon="5.01381">
        <ele>298.43359375</ele>
        <time>2019-03-24T09:26:10.000Z</time>
      </trkpt>
      <trkpt lat="45.62343" lon="5.01383">
        <ele>298.62240600586</ele>
        <time>2019-03-24T09:26:12.000Z</time>
      </trkpt>
      <trkpt lat="45.62343" lon="5.01388">
        <ele>298.83123779297</ele>
        <time>2019-03-24T09:26:14.000Z</time>
      </trkpt>
      <trkpt lat="45.62343" lon="5.01393">
        <ele>299.0439453125</ele>
        <time>2019-03-24T09:26:16.000Z</time>
      </trkpt>
      <trkpt lat="45.62341" lon="5.01398">
        <ele>299.26873779297</ele>
        <time>2019-03-24T09:26:18.000Z</time>
      </trkpt>
      <trkpt lat="45.62339" lon="5.01404">
        <ele>299.5198059082</ele>
        <time>2019-03-24T09:26:20.000Z</time>
      </trkpt>
      <trkpt lat="45.62337" lon="5.01409">
        <ele>299.79483032227</ele>
        <time>2019-03-24T09:26:22.000Z</time>
      </trkpt>
      <trkpt lat="45.62336" lon="5.01413">
        <ele>300.07693481445</ele>
        <time>2019-03-24T09:26:24.000Z</time>
      </trkpt>
      <trkpt lat="45.62335" lon="5.01419">
        <ele>300.41552734375</ele>
        <time>2019-03-24T09:26:26.000Z</time>
      </trkpt>
      <trkpt lat="45.62335" lon="5.01422">
        <ele>300.77008056641</ele>
        <time>2019-03-24T09:26:28.000Z</time>
      </trkpt>
      <trkpt lat="45.62335" lon="5.01426">
        <ele>301.14697265625</ele>
        <time>2019-03-24T09:26:30.000Z</time>
      </trkpt>
      <trkpt lat="45.62334" lon="5.01429">
        <ele>301.55743408203</ele>
        <time>2019-03-24T09:26:32.000Z</time>
      </trkpt>
      <trkpt lat="45.62333" lon="5.01433">
        <ele>302.00665283203</ele>
        <time>2019-03-24T09:26:34.000Z</time>
      </trkpt>
      <trkpt lat="45.62333" lon="5.01436">
        <ele>302.44226074219</ele>
        <time>2019-03-24T09:26:36.000Z</time>
      </trkpt>
      <trkpt lat="45.62332" lon="5.0144">
        <ele>302.88397216797</ele>
        <time>2019-03-24T09:26:38.000Z</time>
      </trkpt>
      <trkpt lat="45.62332" lon="5.01443">
        <ele>303.31869506836</ele>
        <time>2019-03-24T09:26:40.000Z</time>
      </trkpt>
      <trkpt lat="45.62333" lon="5.01447">
        <ele>303.75180053711</ele>
        <time>2019-03-24T09:26:42.000Z</time>
      </trkpt>
      <trkpt lat="45.62332" lon="5.0145">
        <ele>304.16851806641</ele>
        <time>2019-03-24T09:26:44.000Z</time>
      </trkpt>
      <trkpt lat="45.62332" lon="5.01453">
        <ele>304.57650756836</ele>
        <time>2019-03-24T09:26:46.000Z</time>
      </trkpt>
      <trkpt lat="45.62333" lon="5.01457">
        <ele>304.98202514648</ele>
        <time>2019-03-24T09:26:48.000Z</time>
      </trkpt>
      <trkpt lat="45.62333" lon="5.01461">
        <ele>305.39852905273</ele>
        <time>2019-03-24T09:26:50.000Z</time>
      </trkpt>
      <trkpt lat="45.62333" lon="5.01465">
        <ele>305.82666015625</ele>
        <time>2019-03-24T09:26:52.000Z</time>
      </trkpt>
      <trkpt lat="45.62334" lon="5.01468">
        <ele>306.26168823242</ele>
        <time>2019-03-24T09:26:54.000Z</time>
      </trkpt>
      <trkpt lat="45.62334" lon="5.01473">
        <ele>306.72494506836</ele>
        <time>2019-03-24T09:26:56.000Z</time>
      </trkpt>
      <trkpt lat="45.62335" lon="5.01475">
        <ele>307.16223144531</ele>
        <time>2019-03-24T09:26:58.000Z</time>
      </trkpt>
      <trkpt lat="45.62336" lon="5.01478">
        <ele>307.55145263672</ele>
        <time>2019-03-24T09:27:00.000Z</time>
      </trkpt>
      <trkpt lat="45.62336" lon="5.01483">
        <ele>307.94418334961</ele>
        <time>2019-03-24T09:27:02.000Z</time>
      </trkpt>
      <trkpt lat="45.62338" lon="5.01485">
        <ele>308.26821899414</ele>
        <time>2019-03-24T09:27:04.000Z</time>
      </trkpt>
      <trkpt lat="45.62338" lon="5.01487">
        <ele>308.56146240234</ele>
        <time>2019-03-24T09:27:06.000Z</time>
      </trkpt>
      <trkpt lat="45.62338" lon="5.0149">
        <ele>308.86563110352</ele>
        <time>2019-03-24T09:27:08.000Z</time>
      </trkpt>
      <trkpt lat="45.62338" lon="5.01496">
        <ele>309.25677490234</ele>
        <time>2019-03-24T09:27:10.000Z</time>
      </trkpt>
      <trkpt lat="45.62338" lon="5.015">
        <ele>309.63360595703</ele>
        <time>2019-03-24T09:27:12.000Z</time>
      </trkpt>
      <trkpt lat="45.62339" lon="5.01505">
        <ele>310.05801391602</ele>
        <time>2019-03-24T09:27:14.000Z</time>
      </trkpt>
      <trkpt lat="45.62339" lon="5.0151">
        <ele>310.46929931641</ele>
        <time>2019-03-24T09:27:16.000Z</time>
      </trkpt>
      <trkpt lat="45.62339" lon="5.01514">
        <ele>310.88241577148</ele>
        <time>2019-03-24T09:27:18.000Z</time>
      </trkpt>
      <trkpt lat="45.62339" lon="5.01519">
        <ele>311.22183227539</ele>
        <time>2019-03-24T09:27:20.000Z</time>
      </trkpt>
      <trkpt lat="45.6234" lon="5.01522">
        <ele>311.49761962891</ele>
        <time>2019-03-24T09:27:22.000Z</time>
      </trkpt>
      <trkpt lat="45.62341" lon="5.01525">
        <ele>311.72760009766</ele>
        <time>2019-03-24T09:27:24.000Z</time>
      </trkpt>
      <trkpt lat="45.62344" lon="5.01528">
        <ele>311.90179443359</ele>
        <time>2019-03-24T09:27:26.000Z</time>
      </trkpt>
      <trkpt lat="45.62345" lon="5.01533">
        <ele>312.05767822266</ele>
        <time>2019-03-24T09:27:28.000Z</time>
      </trkpt>
      <trkpt lat="45.62345" lon="5.01535">
        <ele>312.16860961914</ele>
        <time>2019-03-24T09:27:30.000Z</time>
      </trkpt>
      <trkpt lat="45.62346" lon="5.01538">
        <ele>312.28979492188</ele>
        <time>2019-03-24T09:27:32.000Z</time>
      </trkpt>
      <trkpt lat="45.62345" lon="5.01541">
        <ele>312.447265625</ele>
        <time>2019-03-24T09:27:34.000Z</time>
      </trkpt>
      <trkpt lat="45.62347" lon="5.01543">
        <ele>312.59524536133</ele>
        <time>2019-03-24T09:27:36.000Z</time>
      </trkpt>
      <trkpt lat="45.62349" lon="5.01546">
        <ele>312.70068359375</ele>
        <time>2019-03-24T09:27:38.000Z</time>
      </trkpt>
      <trkpt lat="45.62349" lon="5.0155">
        <ele>312.826171875</ele>
        <time>2019-03-24T09:27:40.000Z</time>
      </trkpt>
      <trkpt lat="45.62353" lon="5.01554">
        <ele>312.9026184082</ele>
        <time>2019-03-24T09:27:42.000Z</time>
      </trkpt>
      <trkpt lat="45.62355" lon="5.01558">
        <ele>312.91513061523</ele>
        <time>2019-03-24T09:27:44.000Z</time>
      </trkpt>
      <trkpt lat="45.62357" lon="5.0156">
        <ele>312.93588256836</ele>
        <time>2019-03-24T09:27:46.000Z</time>
      </trkpt>
      <trkpt lat="45.62361" lon="5.01564">
        <ele>312.92663574219</ele>
        <time>2019-03-24T09:27:48.000Z</time>
      </trkpt>
      <trkpt lat="45.62363" lon="5.01567">
        <ele>312.86288452148</ele>
        <time>2019-03-24T09:27:50.000Z</time>
      </trkpt>
      <trkpt lat="45.62363" lon="5.01573">
        <ele>312.90301513672</ele>
        <time>2019-03-24T09:27:52.000Z</time>
      </trkpt>
      <trkpt lat="45.62365" lon="5.01577">
        <ele>312.96713256836</ele>
        <time>2019-03-24T09:27:54.000Z</time>
      </trkpt>
      <trkpt lat="45.62365" lon="5.01581">
        <ele>313.06536865234</ele>
        <time>2019-03-24T09:27:56.000Z</time>
      </trkpt>
      <trkpt lat="45.62366" lon="5.01584">
        <ele>313.20941162109</ele>
        <time>2019-03-24T09:27:58.000Z</time>
      </trkpt>
      <trkpt lat="45.62366" lon="5.01586">
        <ele>313.35610961914</ele>
        <time>2019-03-24T09:28:00.000Z</time>
      </trkpt>
      <trkpt lat="45.62367" lon="5.01588">
        <ele>313.3703918457</ele>
        <time>2019-03-24T09:28:02.000Z</time>
      </trkpt>
      <trkpt lat="45.6237" lon="5.01591">
        <ele>313.32049560547</ele>
        <time>2019-03-24T09:28:04.000Z</time>
      </trkpt>
      <trkpt lat="45.62371" lon="5.01594">
        <ele>313.20211791992</ele>
        <time>2019-03-24T09:28:06.000Z</time>
      </trkpt>
      <trkpt lat="45.62374" lon="5.01596">
        <ele>312.99618530273</ele>
        <time>2019-03-24T09:28:08.000Z</time>
      </trkpt>
      <trkpt lat="45.62378" lon="5.01602">
        <ele>312.70367431641</ele>
        <time>2019-03-24T09:28:10.000Z</time>
      </trkpt>
      <trkpt lat="45.62381" lon="5.01607">
        <ele>312.38793945312</ele>
        <time>2019-03-24T09:28:12.000Z</time>
      </trkpt>
      <trkpt lat="45.62382" lon="5.0161">
        <ele>312.09555053711</ele>
        <time>2019-03-24T09:28:14.000Z</time>
      </trkpt>
      <trkpt lat="45.62385" lon="5.01611">
        <ele>311.78466796875</ele>
        <time>2019-03-24T09:28:16.000Z</time>
      </trkpt>
      <trkpt lat="45.62387" lon="5.01614">
        <ele>311.50384521484</ele>
        <time>2019-03-24T09:28:18.000Z</time>
      </trkpt>
      <trkpt lat="45.62389" lon="5.01618">
        <ele>311.26910400391</ele>
        <time>2019-03-24T09:28:20.000Z</time>
      </trkpt>
      <trkpt lat="45.6239" lon="5.01624">
        <ele>311.08724975586</ele>
        <time>2019-03-24T09:28:22.000Z</time>
      </trkpt>
      <trkpt lat="45.62391" lon="5.01633">
        <ele>310.91522216797</ele>
        <time>2019-03-24T09:28:24.000Z</time>
      </trkpt>
      <trkpt lat="45.6239" lon="5.01641">
        <ele>310.79846191406</ele>
        <time>2019-03-24T09:28:26.000Z</time>
      </trkpt>
      <trkpt lat="45.6239" lon="5.01648">
        <ele>310.72317504883</ele>
        <time>2019-03-24T09:28:28.000Z</time>
      </trkpt>
      <trkpt lat="45.62387" lon="5.01653">
        <ele>310.72979736328</ele>
        <time>2019-03-24T09:28:30.000Z</time>
      </trkpt>
      <trkpt lat="45.62384" lon="5.0166">
        <ele>310.77230834961</ele>
        <time>2019-03-24T09:28:32.000Z</time>
      </trkpt>
      <trkpt lat="45.62382" lon="5.01667">
        <ele>310.85775756836</ele>
        <time>2019-03-24T09:28:34.000Z</time>
      </trkpt>
      <trkpt lat="45.62379" lon="5.01674">
        <ele>311.00576782227</ele>
        <time>2019-03-24T09:28:36.000Z</time>
      </trkpt>
      <trkpt lat="45.62377" lon="5.0168">
        <ele>311.19705200195</ele>
        <time>2019-03-24T09:28:38.000Z</time>
      </trkpt>
      <trkpt lat="45.62374" lon="5.01687">
        <ele>311.40557861328</ele>
        <time>2019-03-24T09:28:40.000Z</time>
      </trkpt>
      <trkpt lat="45.62373" lon="5.01696">
        <ele>311.63146972656</ele>
        <time>2019-03-24T09:28:42.000Z</time>
      </trkpt>
      <trkpt lat="45.6237" lon="5.01705">
        <ele>311.88055419922</ele>
        <time>2019-03-24T09:28:44.000Z</time>
      </trkpt>
      <trkpt lat="45.62366" lon="5.01712">
        <ele>312.10971069336</ele>
        <time>2019-03-24T09:28:46.000Z</time>
      </trkpt>
      <trkpt lat="45.62363" lon="5.01722">
        <ele>312.33090209961</ele>
        <time>2019-03-24T09:28:48.000Z</time>
      </trkpt>
      <trkpt lat="45.62362" lon="5.01729">
        <ele>312.51370239258</ele>
        <time>2019-03-24T09:28:50.000Z</time>
      </trkpt>
      <trkpt lat="45.62362" lon="5.01737">
        <ele>312.66839599609</ele>
        <time>2019-03-24T09:28:52.000Z</time>
      </trkpt>
      <trkpt lat="45.62361" lon="5.01744">
        <ele>312.79022216797</ele>
        <time>2019-03-24T09:28:54.000Z</time>
      </trkpt>
      <trkpt lat="45.6236" lon="5.01752">
        <ele>312.90203857422</ele>
        <time>2019-03-24T09:28:56.000Z</time>
      </trkpt>
      <trkpt lat="45.62359" lon="5.01761">
        <ele>313.0693359375</ele>
        <time>2019-03-24T09:28:58.000Z</time>
      </trkpt>
      <trkpt lat="45.6236" lon="5.01769">
        <ele>313.31039428711</ele>
        <time>2019-03-24T09:29:00.000Z</time>
      </trkpt>
      <trkpt lat="45.62359" lon="5.01776">
        <ele>313.60571289062</ele>
        <time>2019-03-24T09:29:02.000Z</time>
      </trkpt>
      <trkpt lat="45.62359" lon="5.01783">
        <ele>313.96026611328</ele>
        <time>2019-03-24T09:29:04.000Z</time>
      </trkpt>
      <trkpt lat="45.62358" lon="5.01792">
        <ele>314.37921142578</ele>
        <time>2019-03-24T09:29:06.000Z</time>
      </trkpt>
      <trkpt lat="45.62356" lon="5.01803">
        <ele>314.82403564453</ele>
        <time>2019-03-24T09:29:08.000Z</time>
      </trkpt>
      <trkpt lat="45.62354" lon="5.01812">
        <ele>315.29196166992</ele>
        <time>2019-03-24T09:29:11.000Z</time>
      </trkpt>
      <trkpt lat="45.62352" lon="5.0182">
        <ele>315.78158569336</ele>
        <time>2019-03-24T09:29:14.000Z</time>
      </trkpt>
      <trkpt lat="45.6235" lon="5.01828">
        <ele>316.29409790039</ele>
        <time>2019-03-24T09:29:17.000Z</time>
      </trkpt>
      <trkpt lat="45.62348" lon="5.01836">
        <ele>316.80355834961</ele>
        <time>2019-03-24T09:29:20.000Z</time>
      </trkpt>
      <trkpt lat="45.62346" lon="5.01846">
        <ele>317.27359008789</ele>
        <time>2019-03-24T09:29:23.000Z</time>
      </trkpt>
      <trkpt lat="45.62344" lon="5.01853">
        <ele>317.69952392578</ele>
        <time>2019-03-24T09:29:26.000Z</time>
      </trkpt>
      <trkpt lat="45.62344" lon="5.01862">
        <ele>318.09915161133</ele>
        <time>2019-03-24T09:29:29.000Z</time>
      </trkpt>
      <trkpt lat="45.62343" lon="5.0187">
        <ele>318.46505737305</ele>
        <time>2019-03-24T09:29:32.000Z</time>
      </trkpt>
      <trkpt lat="45.62343" lon="5.01877">
        <ele>318.79376220703</ele>
        <time>2019-03-24T09:29:35.000Z</time>
      </trkpt>
      <trkpt lat="45.62341" lon="5.01886">
        <ele>319.11532592773</ele>
        <time>2019-03-24T09:29:38.000Z</time>
      </trkpt>
      <trkpt lat="45.6234" lon="5.01895">
        <ele>319.44293212891</ele>
        <time>2019-03-24T09:29:41.000Z</time>
      </trkpt>
      <trkpt lat="45.62339" lon="5.01905">
        <ele>319.78253173828</ele>
        <time>2019-03-24T09:29:44.000Z</time>
      </trkpt>
      <trkpt lat="45.62338" lon="5.01914">
        <ele>320.13027954102</ele>
        <time>2019-03-24T09:29:47.000Z</time>
      </trkpt>
      <trkpt lat="45.62335" lon="5.01922">
        <ele>320.46957397461</ele>
        <time>2019-03-24T09:29:50.000Z</time>
      </trkpt>
      <trkpt lat="45.62334" lon="5.0193">
        <ele>320.7790222168</ele>
        <time>2019-03-24T09:29:53.000Z</time>
      </trkpt>
      <trkpt lat="45.62333" lon="5.0194">
        <ele>321.06604003906</ele>
        <time>2012-11-18T09:47:46Z</time>
      </trkpt>
      <trkpt lat="45.62331" lon="5.01949">
        <ele>321.3171081543</ele>
        <time>2012-11-18T09:47:54Z</time>
      </trkpt>
      <trkpt lat="45.6233" lon="5.01957">
        <ele>321.53338623047</ele>
        <time>2012-11-18T09:48:04Z</time>
      </trkpt>
      <trkpt lat="45.62327" lon="5.01966">
        <ele>321.73968505859</ele>
        <time>2012-11-18T09:49:40Z</time>
      </trkpt>
      <trkpt lat="45.62326" lon="5.01975">
        <ele>321.9455871582</ele>
        <time>2012-11-18T09:51:26Z</time>
      </trkpt>
      <trkpt lat="45.62326" lon="5.01985">
        <ele>322.14727783203</ele>
        <time>2012-11-18T09:52:22Z</time>
      </trkpt>
      <trkpt lat="45.62324" lon="5.01995">
        <ele>322.35186767578</ele>
        <time>2012-11-18T09:52:24Z</time>
      </trkpt>
      <trkpt lat="45.62323" lon="5.02004">
        <ele>322.53186035156</ele>
        <time>2012-11-18T09:52:36Z</time>
      </trkpt>
      <trkpt lat="45.62321" lon="5.02011">
        <ele>322.65591430664</ele>
        <time>2012-11-18T09:53:22Z</time>
      </trkpt>
      <trkpt lat="45.6232" lon="5.02017">
        <ele>322.72760009766</ele>
        <time>2012-11-18T09:53:25Z</time>
      </trkpt>
      <trkpt lat="45.6232" lon="5.02023">
        <ele>322.74456787109</ele>
        <time>2012-11-18T09:53:37Z</time>
      </trkpt>
      <trkpt lat="45.62322" lon="5.02027">
        <ele>322.71377563477</ele>
        <time>2012-11-18T09:53:43Z</time>
      </trkpt>
      <trkpt lat="45.62323" lon="5.02035">
        <ele>322.65933227539</ele>
        <time>2012-11-18T09:54:33Z</time>
      </trkpt>
      <trkpt lat="45.62324" lon="5.02041">
        <ele>322.61029052734</ele>
        <time>2012-11-18T09:54:49Z</time>
      </trkpt>
      <trkpt lat="45.62325" lon="5.02047">
        <ele>322.55950927734</ele>
        <time>2012-11-18T09:55:02Z</time>
      </trkpt>
      <trkpt lat="45.62325" lon="5.02053">
        <ele>322.50674438477</ele>
        <time>2012-11-18T09:55:12Z</time>
      </trkpt>
      <trkpt lat="45.62325" lon="5.0206">
        <ele>322.44757080078</ele>
        <time>2012-11-18T09:55:37Z</time>
      </trkpt>
      <trkpt lat="45.62325" lon="5.02066">
        <ele>322.3876953125</ele>
        <time>2012-11-18T09:55:43Z</time>
      </trkpt>
      <trkpt lat="45.62326" lon="5.02072">
        <ele>322.32440185547</ele>
        <time>2012-11-18T09:56:44Z</time>
      </trkpt>
      <trkpt lat="45.62326" lon="5.02081">
        <ele>322.25738525391</ele>
        <time>2012-11-18T09:58:48Z</time>
      </trkpt>
      <trkpt lat="45.62327" lon="5.0209">
        <ele>322.17929077148</ele>
        <time>2012-11-18T09:59:39Z</time>
      </trkpt>
      <trkpt lat="45.62327" lon="5.02102">
        <ele>322.08462524414</ele>
        <time>2012-11-18T09:59:53Z</time>
      </trkpt>
      <trkpt lat="45.62327" lon="5.02115">
        <ele>321.9719543457</ele>
        <time>2012-11-18T10:01:38Z</time>
      </trkpt>
      <trkpt lat="45.62328" lon="5.02128">
        <ele>321.84005737305</ele>
        <time>2012-11-18T10:02:30Z</time>
      </trkpt>
      <trkpt lat="45.62328" lon="5.02143">
        <ele>321.68859863281</ele>
        <time>2012-11-18T10:02:39Z</time>
      </trkpt>
      <trkpt lat="45.62329" lon="5.02157">
        <ele>321.52380371094</ele>
        <time>2012-11-18T10:02:49Z</time>
      </trkpt>
      <trkpt lat="45.62329" lon="5.02171">
        <ele>321.37225341797</ele>
        <time>2012-11-18T10:03:01Z</time>
      </trkpt>
      <trkpt lat="45.62328" lon="5.02185">
        <ele>321.28262329102</ele>
        <time>2012-11-18T10:03:11Z</time>
      </trkpt>
      <trkpt lat="45.62329" lon="5.02199">
        <ele>321.25527954102</ele>
        <time>2012-11-18T10:03:22Z</time>
      </trkpt>
      <trkpt lat="45.62329" lon="5.02212">
        <ele>321.29254150391</ele>
        <time>2012-11-18T10:03:33Z</time>
      </trkpt>
      <trkpt lat="45.62328" lon="5.02226">
        <ele>321.39407348633</ele>
        <time>2012-11-18T10:03:54Z</time>
      </trkpt>
      <trkpt lat="45.62328" lon="5.0224">
        <ele>321.5400390625</ele>
        <time>2012-11-18T10:04:03Z</time>
      </trkpt>
      <trkpt lat="45.62328" lon="5.02255">
        <ele>321.67462158203</ele>
        <time>2012-11-18T10:04:07Z</time>
      </trkpt>
      <trkpt lat="45.62328" lon="5.02269">
        <ele>321.77795410156</ele>
        <time>2012-11-18T10:04:39Z</time>
      </trkpt>
      <trkpt lat="45.62328" lon="5.02284">
        <ele>321.85043334961</ele>
        <time>2012-11-18T10:04:50Z</time>
      </trkpt>
      <trkpt lat="45.62329" lon="5.02297">
        <ele>321.89785766602</ele>
        <time>2012-11-18T10:05:14Z</time>
      </trkpt>
      <trkpt lat="45.62331" lon="5.02311">
        <ele>321.92483520508</ele>
        <time>2012-11-18T10:07:18Z</time>
      </trkpt>
      <trkpt lat="45.62333" lon="5.02321">
        <ele>321.93530273438</ele>
        <time>2012-11-18T10:07:28Z</time>
      </trkpt>
      <trkpt lat="45.62328" lon="5.02334">
        <ele>321.92462158203</ele>
        <time>2012-11-18T10:07:55Z</time>
      </trkpt>
      <trkpt lat="45.62322" lon="5.02346">
        <ele>321.89721679688</ele>
        <time>2012-11-18T10:07:59Z</time>
      </trkpt>
      <trkpt lat="45.62315" lon="5.02357">
        <ele>321.84918212891</ele>
        <time>2012-11-18T10:08:02Z</time>
      </trkpt>
      <trkpt lat="45.62309" lon="5.02366">
        <ele>321.7841796875</ele>
        <time>2012-11-18T10:09:34Z</time>
      </trkpt>
      <trkpt lat="45.62304" lon="5.02377">
        <ele>321.71954345703</ele>
        <time>2012-11-18T10:09:43Z</time>
      </trkpt>
      <trkpt lat="45.62298" lon="5.02388">
        <ele>321.68954467773</ele>
        <time>2012-11-18T10:09:52Z</time>
      </trkpt>
      <trkpt lat="45.62294" lon="5.02401">
        <ele>321.70150756836</ele>
        <time>2012-11-18T10:10:13Z</time>
      </trkpt>
      <trkpt lat="45.62291" lon="5.02413">
        <ele>321.75634765625</ele>
        <time>2012-11-18T10:10:23Z</time>
      </trkpt>
      <trkpt lat="45.62287" lon="5.02428">
        <ele>321.75537109375</ele>
        <time>2012-11-18T10:10:32Z</time>
      </trkpt>
      <trkpt lat="45.62282" lon="5.02445">
        <ele>321.65362548828</ele>
        <time>2012-11-18T10:10:54Z</time>
      </trkpt>
      <trkpt lat="45.62276" lon="5.02459">
        <ele>321.48406982422</ele>
        <time>2012-11-18T10:11:00Z</time>
      </trkpt>
      <trkpt lat="45.62267" lon="5.02477">
        <ele>321.25973510742</ele>
        <time>2012-11-18T10:11:13Z</time>
      </trkpt>
      <trkpt lat="45.62257" lon="5.02491">
        <ele>321.03088378906</ele>
        <time>2012-11-18T10:11:59Z</time>
      </trkpt>
      <trkpt lat="45.62248" lon="5.02505">
        <ele>320.87265014648</ele>
        <time>2012-11-18T10:12:10Z</time>
      </trkpt>
      <trkpt lat="45.62235" lon="5.02519">
        <ele>320.74017333984</ele>
        <time>2012-11-18T10:12:21Z</time>
      </trkpt>
      <trkpt lat="45.62222" lon="5.02532">
        <ele>320.64218139648</ele>
        <time>2012-11-18T10:12:55Z</time>
      </trkpt>
      <trkpt lat="45.62207" lon="5.02542">
        <ele>320.60415649414</ele>
        <time>2012-11-18T10:13:04Z</time>
      </trkpt>
      <trkpt lat="45.62193" lon="5.02554">
        <ele>320.60702514648</ele>
        <time>2012-11-18T10:13:15Z</time>
      </trkpt>
      <trkpt lat="45.62181" lon="5.02562">
        <ele>320.68475341797</ele>
        <time>2012-11-18T10:13:28Z</time>
      </trkpt>
      <trkpt lat="45.62166" lon="5.02572">
        <ele>320.96087646484</ele>
        <time>2012-11-18T10:13:38Z</time>
      </trkpt>
      <trkpt lat="45.62151" lon="5.02579">
        <ele>321.30847167969</ele>
        <time>2012-11-18T10:13:39Z</time>
      </trkpt>
      <trkpt lat="45.62139" lon="5.02587">
        <ele>321.68963623047</ele>
        <time>2012-11-18T10:13:44Z</time>
      </trkpt>
      <trkpt lat="45.62127" lon="5.02596">
        <ele>322.06704711914</ele>
        <time>2012-11-18T10:13:50Z</time>
      </trkpt>
      <trkpt lat="45.62116" lon="5.02605">
        <ele>322.40216064453</ele>
        <time>2012-11-18T10:14:00Z</time>
      </trkpt>
      <trkpt lat="45.62106" lon="5.02617">
        <ele>322.64068603516</ele>
        <time>2012-11-18T10:14:10Z</time>
      </trkpt>
      <trkpt lat="45.62097" lon="5.02632">
        <ele>322.84237670898</ele>
        <time>2012-11-18T10:14:48Z</time>
      </trkpt>
      <trkpt lat="45.62091" lon="5.02629">
        <ele>323.2</ele>
        <time>2012-11-18T10:15:05Z</time>
      </trkpt>
      <trkpt lat="45.62262" lon="5.02698">
        <ele>315</ele>
        <time>2012-11-18T10:15:21Z</time>
      </trkpt>
      <trkpt lat="45.62499" lon="5.02904">
        <ele>292.5</ele>
        <time>2012-11-18T10:15:24Z</time>
      </trkpt>
      <trkpt lat="45.62554" lon="5.0292">
        <ele>289</ele>
        <time>2012-11-18T10:15:34Z</time>
      </trkpt>
      <trkpt lat="45.62558" lon="5.02905">
        <ele>289</ele>
        <time>2012-11-18T10:15:43Z</time>
      </trkpt>
      <trkpt lat="45.62571" lon="5.02867">
        <ele>289</ele>
        <time>2012-11-18T10:15:53Z</time>
      </trkpt>
      <trkpt lat="45.62587" lon="5.02831">
        <ele>287</ele>
        <time>2012-11-18T10:15:58Z</time>
      </trkpt>
      <trkpt lat="45.62607" lon="5.02808">
        <ele>289</ele>
        <time>2012-11-18T10:16:01Z</time>
      </trkpt>
      <trkpt lat="45.62613" lon="5.02793">
        <ele>289</ele>
        <time>2012-11-18T10:16:05Z</time>
      </trkpt>
      <trkpt lat="45.6262" lon="5.02778">
        <ele>289</ele>
        <time>2012-11-18T10:16:08Z</time>
      </trkpt>
      <trkpt lat="45.62627" lon="5.02763">
        <ele>289</ele>
        <time>2012-11-18T10:16:11Z</time>
      </trkpt>
      <trkpt lat="45.62631" lon="5.02756">
        <ele>289</ele>
        <time>2012-11-18T10:16:14Z</time>
      </trkpt>
      <trkpt lat="45.62629" lon="5.0275">
        <ele>289</ele>
        <time>2012-11-18T10:16:15Z</time>
      </trkpt>
      <trkpt lat="45.62628" lon="5.02742">
        <ele>289</ele>
        <time>2012-11-18T10:16:17Z</time>
      </trkpt>
      <trkpt lat="45.62635" lon="5.02721">
        <ele>289</ele>
        <time>2012-11-18T10:16:21Z</time>
      </trkpt>
      <trkpt lat="45.62633" lon="5.02707">
        <ele>289</ele>
        <time>2012-11-18T10:16:22Z</time>
      </trkpt>
      <trkpt lat="45.62643" lon="5.02697">
        <ele>289</ele>
        <time>2012-11-18T10:16:26Z</time>
      </trkpt>
      <trkpt lat="45.6265" lon="5.02689">
        <ele>289</ele>
        <time>2012-11-18T08:08:15Z</time>
      </trkpt>
      <trkpt lat="45.62653" lon="5.02676">
        <ele>288</ele>
        <time>2012-11-18T08:11:20Z</time>
      </trkpt>
      <trkpt lat="45.6266" lon="5.02663">
        <ele>288</ele>
        <time>2012-11-18T08:11:23Z</time>
      </trkpt>
      <trkpt lat="45.62661" lon="5.0265">
        <ele>290</ele>
        <time>2012-11-18T08:11:37Z</time>
      </trkpt>
      <trkpt lat="45.62666" lon="5.02634">
        <ele>291</ele>
        <time>2012-11-18T08:11:38Z</time>
      </trkpt>
      <trkpt lat="45.62676" lon="5.02618">
        <ele>289</ele>
        <time>2012-11-18T08:11:43Z</time>
      </trkpt>
      <trkpt lat="45.62692" lon="5.02601">
        <ele>289</ele>
        <time>2012-11-18T08:11:52Z</time>
      </trkpt>
      <trkpt lat="45.62694" lon="5.02598">
        <ele>290</ele>
        <time>2012-11-18T08:12:03Z</time>
      </trkpt>
      <trkpt lat="45.62697" lon="5.02592">
        <ele>290</ele>
        <time>2012-11-18T08:12:16Z</time>
      </trkpt>
      <trkpt lat="45.62701" lon="5.02582">
        <ele>291</ele>
        <time>2012-11-18T08:12:48Z</time>
      </trkpt>
      <trkpt lat="45.62715" lon="5.02575">
        <ele>291</ele>
        <time>2012-11-18T08:12:57Z</time>
      </trkpt>
      <trkpt lat="45.62717" lon="5.02568">
        <ele>291</ele>
        <time>2012-11-18T08:13:07Z</time>
      </trkpt>
      <trkpt lat="45.62716" lon="5.0254">
        <ele>291</ele>
        <time>2012-11-18T08:13:17Z</time>
      </trkpt>
      <trkpt lat="45.62716" lon="5.02532">
        <ele>291</ele>
        <time>2012-11-18T08:13:29Z</time>
      </trkpt>
      <trkpt lat="45.62723" lon="5.02517">
        <ele>291</ele>
        <time>2012-11-18T08:13:39Z</time>
      </trkpt>
      <trkpt lat="45.62725" lon="5.02501">
        <ele>291</ele>
        <time>2012-11-18T08:13:44Z</time>
      </trkpt>
      <trkpt lat="45.6273" lon="5.0249">
        <ele>291</ele>
        <time>2012-11-18T08:13:50Z</time>
      </trkpt>
      <trkpt lat="45.62734" lon="5.02483">
        <ele>290</ele>
        <time>2012-11-18T08:13:51Z</time>
      </trkpt>
      <trkpt lat="45.62733" lon="5.02475">
        <ele>291</ele>
        <time>2012-11-18T08:13:58Z</time>
      </trkpt>
      <trkpt lat="45.62738" lon="5.02466">
        <ele>291</ele>
        <time>2012-11-18T08:14:04Z</time>
      </trkpt>
      <trkpt lat="45.62739" lon="5.02459">
        <ele>291</ele>
        <time>2012-11-18T08:14:06Z</time>
      </trkpt>
      <trkpt lat="45.62746" lon="5.02446">
        <ele>290</ele>
        <time>2012-11-18T08:14:12Z</time>
      </trkpt>
      <trkpt lat="45.62748" lon="5.02437">
        <ele>290</ele>
        <time>2012-11-18T08:14:20Z</time>
      </trkpt>
      <trkpt lat="45.62745" lon="5.02429">
        <ele>289</ele>
        <time>2012-11-18T08:14:24Z</time>
      </trkpt>
      <trkpt lat="45.62751" lon="5.02429">
        <ele>291</ele>
        <time>2012-11-18T08:14:37Z</time>
      </trkpt>
      <trkpt lat="45.6275" lon="5.02443">
        <ele>290</ele>
        <time>2012-11-18T08:14:47Z</time>
      </trkpt>
      <trkpt lat="45.62751" lon="5.02457">
        <ele>294</ele>
        <time>2012-11-18T08:14:55Z</time>
      </trkpt>
      <trkpt lat="45.62752" lon="5.02467">
        <ele>294</ele>
        <time>2012-11-18T08:15:03Z</time>
      </trkpt>
      <trkpt lat="45.62744" lon="5.02475">
        <ele>290</ele>
        <time>2012-11-18T08:15:10Z</time>
      </trkpt>
      <trkpt lat="45.62744" lon="5.02484">
        <ele>290</ele>
        <time>2012-11-18T08:15:16Z</time>
      </trkpt>
      <trkpt lat="45.62743" lon="5.02492">
        <ele>290</ele>
        <time>2012-11-18T08:15:25Z</time>
      </trkpt>
      <trkpt lat="45.62739" lon="5.02499">
        <ele>290</ele>
        <time>2012-11-18T08:15:33Z</time>
      </trkpt>
      <trkpt lat="45.62738" lon="5.02508">
        <ele>290</ele>
        <time>2012-11-18T08:15:38Z</time>
      </trkpt>
      <trkpt lat="45.62736" lon="5.02517">
        <ele>290</ele>
        <time>2012-11-18T08:15:41Z</time>
      </trkpt>
      <trkpt lat="45.62734" lon="5.02528">
        <ele>291</ele>
        <time>2012-11-18T08:15:52Z</time>
      </trkpt>
      <trkpt lat="45.62733" lon="5.02541">
        <ele>291</ele>
        <time>2012-11-18T08:16:02Z</time>
      </trkpt>
      <trkpt lat="45.62737" lon="5.02551">
        <ele>291</ele>
        <time>2012-11-18T08:16:10Z</time>
      </trkpt>
      <trkpt lat="45.62747" lon="5.02561">
        <ele>291</ele>
        <time>2012-11-18T08:16:22Z</time>
      </trkpt>
      <trkpt lat="45.62761" lon="5.02567">
        <ele>294</ele>
        <time>2012-11-18T08:16:32Z</time>
      </trkpt>
      <trkpt lat="45.62775" lon="5.02565">
        <ele>296</ele>
        <time>2012-11-18T08:16:42Z</time>
      </trkpt>
      <trkpt lat="45.62777" lon="5.02562">
        <ele>296</ele>
        <time>2012-11-18T08:16:53Z</time>
      </trkpt>
      <trkpt lat="45.62789" lon="5.02542">
        <ele>298</ele>
        <time>2012-11-18T08:17:04Z</time>
      </trkpt>
      <trkpt lat="45.62793" lon="5.02526">
        <ele>298</ele>
        <time>2012-11-18T08:18:47Z</time>
      </trkpt>
      <trkpt lat="45.62804" lon="5.02503">
        <ele>300</ele>
        <time>2012-11-18T08:19:53Z</time>
      </trkpt>
      <trkpt lat="45.62815" lon="5.02488">
        <ele>301</ele>
        <time>2012-11-18T08:20:04Z</time>
      </trkpt>
      <trkpt lat="45.6283" lon="5.02483">
        <ele>302</ele>
        <time>2012-11-18T08:20:13Z</time>
      </trkpt>
      <trkpt lat="45.6284" lon="5.02489">
        <ele>309</ele>
        <time>2012-11-18T08:20:15Z</time>
      </trkpt>
      <trkpt lat="45.62843" lon="5.0249">
        <ele>310</ele>
        <time>2012-11-18T08:20:21Z</time>
      </trkpt>
      <trkpt lat="45.62852" lon="5.02503">
        <ele>311</ele>
        <time>2012-11-18T08:20:25Z</time>
      </trkpt>
      <trkpt lat="45.62856" lon="5.02504">
        <ele>311</ele>
        <time>2012-11-18T08:20:27Z</time>
      </trkpt>
      <trkpt lat="45.62868" lon="5.02507">
        <ele>313</ele>
        <time>2012-11-18T08:20:30Z</time>
      </trkpt>
      <trkpt lat="45.62875" lon="5.0251">
        <ele>314</ele>
        <time>2012-11-18T08:20:32Z</time>
      </trkpt>
      <trkpt lat="45.62885" lon="5.02518">
        <ele>315</ele>
        <time>2012-11-18T08:20:33Z</time>
      </trkpt>
      <trkpt lat="45.6289" lon="5.02527">
        <ele>316</ele>
        <time>2012-11-18T08:22:34Z</time>
      </trkpt>
      <trkpt lat="45.62897" lon="5.02531">
        <ele>316</ele>
        <time>2012-11-18T08:22:44Z</time>
      </trkpt>
      <trkpt lat="45.62902" lon="5.02521">
        <ele>317</ele>
        <time>2012-11-18T08:22:55Z</time>
      </trkpt>
      <trkpt lat="45.62905" lon="5.02511">
        <ele>318</ele>
        <time>2012-11-18T08:23:09Z</time>
      </trkpt>
      <trkpt lat="45.62911" lon="5.02504">
        <ele>320</ele>
        <time>2012-11-18T08:23:24Z</time>
      </trkpt>
      <trkpt lat="45.62918" lon="5.025">
        <ele>322</ele>
        <time>2012-11-18T08:23:32Z</time>
      </trkpt>
      <trkpt lat="45.62934" lon="5.02508">
        <ele>325</ele>
        <time>2012-11-18T08:23:37Z</time>
      </trkpt>
      <trkpt lat="45.62947" lon="5.02509">
        <ele>327</ele>
        <time>2012-11-18T08:23:44Z</time>
      </trkpt>
      <trkpt lat="45.62958" lon="5.02501">
        <ele>328</ele>
        <time>2012-11-18T08:23:50Z</time>
      </trkpt>
      <trkpt lat="45.62961" lon="5.02496">
        <ele>330</ele>
        <time>2012-11-18T08:23:55Z</time>
      </trkpt>
      <trkpt lat="45.62965" lon="5.0248">
        <ele>330</ele>
        <time>2012-11-18T08:23:58Z</time>
      </trkpt>
      <trkpt lat="45.6297" lon="5.02469">
        <ele>331</ele>
        <time>2012-11-18T08:24:00Z</time>
      </trkpt>
      <trkpt lat="45.62977" lon="5.02465">
        <ele>331</ele>
        <time>2012-11-18T08:24:05Z</time>
      </trkpt>
      <trkpt lat="45.62986" lon="5.02455">
        <ele>332</ele>
        <time>2012-11-18T08:24:08Z</time>
      </trkpt>
      <trkpt lat="45.62996" lon="5.02452">
        <ele>333</ele>
        <time>2012-11-18T08:24:17Z</time>
      </trkpt>
      <trkpt lat="45.62984" lon="5.02432">
        <ele>334</ele>
        <time>2012-11-18T08:24:29Z</time>
      </trkpt>
      <trkpt lat="45.62968" lon="5.02423">
        <ele>332</ele>
        <time>2012-11-18T08:25:02Z</time>
      </trkpt>
      <trkpt lat="45.6296" lon="5.02415">
        <ele>333</ele>
        <time>2012-11-18T08:26:00Z</time>
      </trkpt>
      <trkpt lat="45.62951" lon="5.024">
        <ele>332</ele>
        <time>2012-11-18T08:26:02Z</time>
      </trkpt>
      <trkpt lat="45.62937" lon="5.02384">
        <ele>332</ele>
        <time>2012-11-18T08:27:06Z</time>
      </trkpt>
      <trkpt lat="45.62913" lon="5.02367">
        <ele>322</ele>
        <time>2012-11-18T08:29:43Z</time>
      </trkpt>
      <trkpt lat="45.62904" lon="5.02361">
        <ele>322</ele>
        <time>2012-11-18T08:29:51Z</time>
      </trkpt>
      <trkpt lat="45.62901" lon="5.02346">
        <ele>324</ele>
        <time>2012-11-18T08:29:55Z</time>
      </trkpt>
      <trkpt lat="45.62896" lon="5.02335">
        <ele>323</ele>
        <time>2012-11-18T08:29:56Z</time>
      </trkpt>
      <trkpt lat="45.6289" lon="5.02324">
        <ele>322</ele>
        <time>2012-11-18T08:30:00Z</time>
      </trkpt>
      <trkpt lat="45.62884" lon="5.023">
        <ele>320</ele>
        <time>2012-11-18T08:30:08Z</time>
      </trkpt>
      <trkpt lat="45.6288" lon="5.02274">
        <ele>319</ele>
        <time>2012-11-18T08:30:12Z</time>
      </trkpt>
      <trkpt lat="45.62876" lon="5.02241">
        <ele>315</ele>
        <time>2012-11-18T08:30:22Z</time>
      </trkpt>
      <trkpt lat="45.62872" lon="5.02219">
        <ele>314</ele>
        <time>2012-11-18T08:30:33Z</time>
      </trkpt>
      <trkpt lat="45.62869" lon="5.02199">
        <ele>313</ele>
        <time>2012-11-18T08:30:46Z</time>
      </trkpt>
      <trkpt lat="45.6286" lon="5.02188">
        <ele>312</ele>
        <time>2012-11-18T08:30:58Z</time>
      </trkpt>
      <trkpt lat="45.62851" lon="5.02181">
        <ele>311</ele>
        <time>2012-11-18T08:31:09Z</time>
      </trkpt>
      <trkpt lat="45.62837" lon="5.02181">
        <ele>310</ele>
        <time>2012-11-18T08:31:18Z</time>
      </trkpt>
      <trkpt lat="45.62833" lon="5.02181">
        <ele>304</ele>
        <time>2012-11-18T08:31:23Z</time>
      </trkpt>
      <trkpt lat="45.62829" lon="5.02188">
        <ele>303</ele>
        <time>2012-11-18T08:31:30Z</time>
      </trkpt>
      <trkpt lat="45.62791" lon="5.02194">
        <ele>299</ele>
        <time>2012-11-18T08:31:34Z</time>
      </trkpt>
      <trkpt lat="45.62778" lon="5.02202">
        <ele>297</ele>
        <time>2012-11-18T08:31:37Z</time>
      </trkpt>
      <trkpt lat="45.62772" lon="5.02197">
        <ele>296</ele>
        <time>2012-11-18T08:31:47Z</time>
      </trkpt>
      <trkpt lat="45.62759" lon="5.02199">
        <ele>295</ele>
        <time>2012-11-18T08:31:58Z</time>
      </trkpt>
      <trkpt lat="45.62751" lon="5.02201">
        <ele>295</ele>
        <time>2012-11-18T08:32:08Z</time>
      </trkpt>
      <trkpt lat="45.6274" lon="5.02199">
        <ele>288</ele>
        <time>2012-11-18T08:32:19Z</time>
      </trkpt>
      <trkpt lat="45.6273" lon="5.02198">
        <ele>288</ele>
        <time>2012-11-18T08:32:29Z</time>
      </trkpt>
      <trkpt lat="45.62722" lon="5.02195">
        <ele>288</ele>
        <time>2012-11-18T08:32:39Z</time>
      </trkpt>
      <trkpt lat="45.62715" lon="5.0218">
        <ele>288</ele>
        <time>2019-03-24T08:34:48.000Z</time>
      </trkpt>
      <trkpt lat="45.62713" lon="5.02167">
        <ele>287</ele>
        <time>2019-03-24T08:34:50.000Z</time>
      </trkpt>
      <trkpt lat="45.6271" lon="5.02146">
        <ele>287</ele>
        <time>2019-03-24T08:34:52.000Z</time>
      </trkpt>
      <trkpt lat="45.62708" lon="5.02138">
        <ele>287</ele>
        <time>2019-03-24T08:34:54.000Z</time>
      </trkpt>
      <trkpt lat="45.62711" lon="5.02126">
        <ele>287</ele>
        <time>2019-03-24T08:34:56.000Z</time>
      </trkpt>
      <trkpt lat="45.62703" lon="5.0211">
        <ele>287</ele>
        <time>2019-03-24T08:34:58.000Z</time>
      </trkpt>
      <trkpt lat="45.62697" lon="5.02095">
        <ele>287</ele>
        <time>2019-03-24T08:35:00.000Z</time>
      </trkpt>
      <trkpt lat="45.62692" lon="5.02088">
        <ele>287</ele>
        <time>2019-03-24T08:35:02.000Z</time>
      </trkpt>
      <trkpt lat="45.62687" lon="5.02079">
        <ele>287</ele>
        <time>2019-03-24T08:35:04.000Z</time>
      </trkpt>
      <trkpt lat="45.62685" lon="5.02036">
        <ele>287</ele>
        <time>2019-03-24T08:35:06.000Z</time>
      </trkpt>
      <trkpt lat="45.62681" lon="5.02022">
        <ele>287</ele>
        <time>2019-03-24T08:35:08.000Z</time>
      </trkpt>
      <trkpt lat="45.62681" lon="5.02002">
        <ele>287</ele>
        <time>2019-03-24T08:35:10.000Z</time>
      </trkpt>
      <trkpt lat="45.62677" lon="5.01986">
        <ele>286</ele>
        <time>2019-03-24T08:35:12.000Z</time>
      </trkpt>
      <trkpt lat="45.62677" lon="5.01974">
        <ele>286</ele>
        <time>2019-03-24T08:35:14.000Z</time>
      </trkpt>
      <trkpt lat="45.62681" lon="5.01967">
        <ele>286</ele>
        <time>2019-03-24T08:35:16.000Z</time>
      </trkpt>
      <trkpt lat="45.62689" lon="5.01963">
        <ele>287</ele>
        <time>2019-03-24T08:35:18.000Z</time>
      </trkpt>
      <trkpt lat="45.62716" lon="5.01955">
        <ele>287</ele>
        <time>2019-03-24T08:35:20.000Z</time>
      </trkpt>
      <trkpt lat="45.62719" lon="5.01952">
        <ele>287</ele>
        <time>2019-03-24T08:35:22.000Z</time>
      </trkpt>
      <trkpt lat="45.62725" lon="5.01954">
        <ele>287</ele>
        <time>2019-03-24T08:35:24.000Z</time>
      </trkpt>
      <trkpt lat="45.62743" lon="5.01952">
        <ele>287</ele>
        <time>2019-03-24T08:35:26.000Z</time>
      </trkpt>
      <trkpt lat="45.62757" lon="5.01952">
        <ele>291</ele>
        <time>2019-03-24T08:35:28.000Z</time>
      </trkpt>
      <trkpt lat="45.62765" lon="5.01952">
        <ele>291</ele>
        <time>2019-03-24T08:35:30.000Z</time>
      </trkpt>
      <trkpt lat="45.62779" lon="5.0195">
        <ele>292</ele>
        <time>2019-03-24T08:35:32.000Z</time>
      </trkpt>
      <trkpt lat="45.62801" lon="5.01957">
        <ele>293</ele>
        <time>2019-03-24T08:35:34.000Z</time>
      </trkpt>
      <trkpt lat="45.62826" lon="5.01973">
        <ele>294</ele>
        <time>2019-03-24T08:35:36.000Z</time>
      </trkpt>
      <trkpt lat="45.62848" lon="5.01986">
        <ele>300</ele>
        <time>2019-03-24T08:35:38.000Z</time>
      </trkpt>
      <trkpt lat="45.62854" lon="5.02002">
        <ele>301</ele>
        <time>2019-03-24T08:35:40.000Z</time>
      </trkpt>
      <trkpt lat="45.62866" lon="5.02013">
        <ele>302</ele>
        <time>2019-03-24T08:35:42.000Z</time>
      </trkpt>
      <trkpt lat="45.62891" lon="5.02021">
        <ele>304</ele>
        <time>2019-03-24T08:35:44.000Z</time>
      </trkpt>
      <trkpt lat="45.62902" lon="5.02019">
        <ele>305</ele>
        <time>2019-03-24T08:35:46.000Z</time>
      </trkpt>
      <trkpt lat="45.6293" lon="5.02039">
        <ele>309</ele>
        <time>2019-03-24T08:35:48.000Z</time>
      </trkpt>
      <trkpt lat="45.62938" lon="5.0204">
        <ele>310</ele>
        <time>2019-03-24T08:35:50.000Z</time>
      </trkpt>
      <trkpt lat="45.62949" lon="5.02048">
        <ele>310</ele>
        <time>2019-03-24T08:35:52.000Z</time>
      </trkpt>
      <trkpt lat="45.62957" lon="5.02053">
        <ele>310</ele>
        <time>2019-03-24T08:35:54.000Z</time>
      </trkpt>
      <trkpt lat="45.62962" lon="5.02061">
        <ele>311</ele>
        <time>2019-03-24T08:35:56.000Z</time>
      </trkpt>
      <trkpt lat="45.62981" lon="5.0206">
        <ele>312</ele>
        <time>2019-03-24T08:35:58.000Z</time>
      </trkpt>
      <trkpt lat="45.62994" lon="5.02065">
        <ele>312</ele>
        <time>2019-03-24T08:36:00.000Z</time>
      </trkpt>
      <trkpt lat="45.63007" lon="5.0207">
        <ele>316</ele>
        <time>2019-03-24T08:36:02.000Z</time>
      </trkpt>
      <trkpt lat="45.63016" lon="5.02075">
        <ele>316</ele>
        <time>2019-03-24T08:36:04.000Z</time>
      </trkpt>
      <trkpt lat="45.63026" lon="5.02077">
        <ele>317</ele>
        <time>2019-03-24T08:36:06.000Z</time>
      </trkpt>
      <trkpt lat="45.63035" lon="5.02084">
        <ele>319</ele>
        <time>2019-03-24T08:36:08.000Z</time>
      </trkpt>
      <trkpt lat="45.63037" lon="5.02095">
        <ele>320</ele>
        <time>2019-03-24T08:36:10.000Z</time>
      </trkpt>
      <trkpt lat="45.63035" lon="5.02119">
        <ele>321</ele>
        <time>2019-03-24T08:36:12.000Z</time>
      </trkpt>
      <trkpt lat="45.63029" lon="5.02137">
        <ele>322</ele>
        <time>2019-03-24T08:36:14.000Z</time>
      </trkpt>
      <trkpt lat="45.63024" lon="5.02152">
        <ele>322</ele>
        <time>2019-03-24T08:36:16.000Z</time>
      </trkpt>
      <trkpt lat="45.63018" lon="5.02171">
        <ele>325</ele>
        <time>2019-03-24T08:36:18.000Z</time>
      </trkpt>
      <trkpt lat="45.63006" lon="5.02193">
        <ele>325</ele>
        <time>2019-03-24T08:36:20.000Z</time>
      </trkpt>
      <trkpt lat="45.62996" lon="5.02209">
        <ele>322</ele>
        <time>2019-03-24T08:36:22.000Z</time>
      </trkpt>
      <trkpt lat="45.62998" lon="5.02219">
        <ele>323</ele>
        <time>2019-03-24T08:36:24.000Z</time>
      </trkpt>
      <trkpt lat="45.63004" lon="5.02226">
        <ele>326</ele>
        <time>2019-03-24T08:36:26.000Z</time>
      </trkpt>
      <trkpt lat="45.63023" lon="5.02232">
        <ele>326</ele>
        <time>2019-03-24T08:36:28.000Z</time>
      </trkpt>
      <trkpt lat="45.63041" lon="5.02236">
        <ele>327</ele>
        <time>2019-03-24T08:36:30.000Z</time>
      </trkpt>
      <trkpt lat="45.63047" lon="5.02239">
        <ele>328</ele>
        <time>2019-03-24T08:36:32.000Z</time>
      </trkpt>
      <trkpt lat="45.63057" lon="5.0224">
        <ele>328</ele>
        <time>2019-03-24T08:36:34.000Z</time>
      </trkpt>
      <trkpt lat="45.63082" lon="5.02229">
        <ele>329</ele>
        <time>2019-03-24T08:36:36.000Z</time>
      </trkpt>
      <trkpt lat="45.63099" lon="5.02229">
        <ele>332</ele>
        <time>2019-03-24T08:36:38.000Z</time>
      </trkpt>
      <trkpt lat="45.63121" lon="5.02233">
        <ele>332</ele>
        <time>2019-03-24T08:36:40.000Z</time>
      </trkpt>
      <trkpt lat="45.63146" lon="5.02242">
        <ele>334</ele>
        <time>2019-03-24T08:36:42.000Z</time>
      </trkpt>
      <trkpt lat="45.63169" lon="5.02247">
        <ele>337</ele>
        <time>2019-03-24T08:36:44.000Z</time>
      </trkpt>
      <trkpt lat="45.63195" lon="5.0226">
        <ele>342</ele>
        <time>2019-03-24T08:36:46.000Z</time>
      </trkpt>
      <trkpt lat="45.63223" lon="5.02276">
        <ele>344</ele>
        <time>2019-03-24T08:36:48.000Z</time>
      </trkpt>
      <trkpt lat="45.63248" lon="5.02272">
        <ele>344</ele>
        <time>2019-03-24T08:36:50.000Z</time>
      </trkpt>
      <trkpt lat="45.63274" lon="5.02275">
        <ele>346</ele>
        <time>2019-03-24T08:36:52.000Z</time>
      </trkpt>
      <trkpt lat="45.63291" lon="5.02285">
        <ele>346</ele>
        <time>2019-03-24T08:36:54.000Z</time>
      </trkpt>
      <trkpt lat="45.63337" lon="5.02308">
        <ele>344</ele>
        <time>2019-03-24T08:36:56.000Z</time>
      </trkpt>
      <trkpt lat="45.63358" lon="5.02319">
        <ele>344</ele>
        <time>2019-03-24T08:36:58.000Z</time>
      </trkpt>
      <trkpt lat="45.63375" lon="5.02325">
        <ele>343</ele>
        <time>2019-03-24T08:37:00.000Z</time>
      </trkpt>
      <trkpt lat="45.63379" lon="5.02304">
        <ele>343</ele>
        <time>2019-03-24T08:37:02.000Z</time>
      </trkpt>
      <trkpt lat="45.63387" lon="5.02268">
        <ele>343</ele>
        <time>2019-03-24T08:37:04.000Z</time>
      </trkpt>
      <trkpt lat="45.63395" lon="5.02227">
        <ele>344</ele>
        <time>2019-03-24T08:37:06.000Z</time>
      </trkpt>
      <trkpt lat="45.63405" lon="5.02182">
        <ele>345</ele>
        <time>2019-03-24T08:37:08.000Z</time>
      </trkpt>
      <trkpt lat="45.6342" lon="5.02128">
        <ele>348</ele>
        <time>2019-03-24T08:37:10.000Z</time>
      </trkpt>
      <trkpt lat="45.63431" lon="5.02061">
        <ele>351</ele>
        <time>2019-03-24T08:37:12.000Z</time>
      </trkpt>
      <trkpt lat="45.63434" lon="5.02016">
        <ele>351</ele>
        <time>2019-03-24T08:37:14.000Z</time>
      </trkpt>
      <trkpt lat="45.63419" lon="5.02014">
        <ele>351</ele>
        <time>2019-03-24T08:37:16.000Z</time>
      </trkpt>
      <trkpt lat="45.63384" lon="5.02003">
        <ele>347</ele>
        <time>2019-03-24T08:37:18.000Z</time>
      </trkpt>
      <trkpt lat="45.63358" lon="5.01995">
        <ele>348</ele>
        <time>2019-03-24T08:37:20.000Z</time>
      </trkpt>
      <trkpt lat="45.63314" lon="5.01987">
        <ele>343</ele>
        <time>2019-03-24T08:37:22.000Z</time>
      </trkpt>
      <trkpt lat="45.63303" lon="5.01985">
        <ele>342</ele>
        <time>2019-03-24T08:37:24.000Z</time>
      </trkpt>
      <trkpt lat="45.6328" lon="5.01982">
        <ele>341</ele>
        <time>2019-03-24T08:37:26.000Z</time>
      </trkpt>
      <trkpt lat="45.63262" lon="5.01979">
        <ele>340</ele>
        <time>2019-03-24T08:37:28.000Z</time>
      </trkpt>
      <trkpt lat="45.63245" lon="5.01967">
        <ele>334</ele>
        <time>2019-03-24T08:37:30.000Z</time>
      </trkpt>
      <trkpt lat="45.63228" lon="5.01948">
        <ele>333</ele>
        <time>2019-03-24T08:37:32.000Z</time>
      </trkpt>
      <trkpt lat="45.63216" lon="5.01939">
        <ele>333</ele>
        <time>2019-03-24T08:37:34.000Z</time>
      </trkpt>
      <trkpt lat="45.63194" lon="5.01944">
        <ele>331</ele>
        <time>2019-03-24T08:37:36.000Z</time>
      </trkpt>
      <trkpt lat="45.63179" lon="5.01948">
        <ele>330</ele>
        <time>2019-03-24T08:37:38.000Z</time>
      </trkpt>
      <trkpt lat="45.63165" lon="5.01957">
        <ele>324</ele>
        <time>2019-03-24T08:37:40.000Z</time>
      </trkpt>
      <trkpt lat="45.63145" lon="5.0197">
        <ele>324</ele>
        <time>2019-03-24T08:37:42.000Z</time>
      </trkpt>
      <trkpt lat="45.63132" lon="5.01975">
        <ele>324</ele>
        <time>2019-03-24T08:37:44.000Z</time>
      </trkpt>
      <trkpt lat="45.63116" lon="5.01974">
        <ele>323</ele>
        <time>2019-03-24T08:37:46.000Z</time>
      </trkpt>
      <trkpt lat="45.63088" lon="5.01968">
        <ele>322</ele>
        <time>2019-03-24T08:37:48.000Z</time>
      </trkpt>
      <trkpt lat="45.63059" lon="5.01954">
        <ele>319</ele>
        <time>2019-03-24T08:37:50.000Z</time>
      </trkpt>
      <trkpt lat="45.63063" lon="5.01944">
        <ele>319</ele>
        <time>2019-03-24T08:37:52.000Z</time>
      </trkpt>
      <trkpt lat="45.63061" lon="5.01921">
        <ele>318</ele>
        <time>2019-03-24T08:37:54.000Z</time>
      </trkpt>
      <trkpt lat="45.63053" lon="5.01894">
        <ele>316</ele>
        <time>2019-03-24T08:37:56.000Z</time>
      </trkpt>
      <trkpt lat="45.63043" lon="5.01876">
        <ele>315</ele>
        <time>2019-03-24T08:37:58.000Z</time>
      </trkpt>
      <trkpt lat="45.63033" lon="5.0186">
        <ele>314</ele>
        <time>2019-03-24T08:38:00.000Z</time>
      </trkpt>
      <trkpt lat="45.63019" lon="5.01842">
        <ele>312</ele>
        <time>2019-03-24T08:38:02.000Z</time>
      </trkpt>
      <trkpt lat="45.63002" lon="5.01836">
        <ele>309</ele>
        <time>2019-03-24T08:38:04.000Z</time>
      </trkpt>
      <trkpt lat="45.62968" lon="5.01823">
        <ele>307</ele>
        <time>2019-03-24T08:38:06.000Z</time>
      </trkpt>
      <trkpt lat="45.62939" lon="5.0181">
        <ele>305</ele>
        <time>2019-03-24T08:38:08.000Z</time>
      </trkpt>
      <trkpt lat="45.62942" lon="5.01793">
        <ele>306</ele>
        <time>2019-03-24T08:38:10.000Z</time>
      </trkpt>
      <trkpt lat="45.62934" lon="5.01789">
        <ele>306</ele>
        <time>2019-03-24T08:38:12.000Z</time>
      </trkpt>
      <trkpt lat="45.62882" lon="5.01805">
        <ele>298</ele>
        <time>2019-03-24T08:38:14.000Z</time>
      </trkpt>
      <trkpt lat="45.62808" lon="5.01827">
        <ele>288</ele>
        <time>2019-03-24T08:38:16.000Z</time>
      </trkpt>
      <trkpt lat="45.62795" lon="5.01826">
        <ele>287</ele>
        <time>2019-03-24T08:38:18.000Z</time>
      </trkpt>
      <trkpt lat="45.6277" lon="5.0182">
        <ele>284</ele>
        <time>2019-03-24T08:38:20.000Z</time>
      </trkpt>
      <trkpt lat="45.62757" lon="5.01822">
        <ele>283</ele>
        <time>2019-03-24T08:38:22.000Z</time>
      </trkpt>
      <trkpt lat="45.62769" lon="5.01781">
        <ele>284</ele>
        <time>2019-03-24T08:38:24.000Z</time>
      </trkpt>
      <trkpt lat="45.62779" lon="5.01763">
        <ele>285</ele>
        <time>2019-03-24T08:38:26.000Z</time>
      </trkpt>
      <trkpt lat="45.628" lon="5.01714">
        <ele>287</ele>
        <time>2019-03-24T08:38:28.000Z</time>
      </trkpt>
      <trkpt lat="45.62812" lon="5.01683">
        <ele>288</ele>
        <time>2019-03-24T08:38:30.000Z</time>
      </trkpt>
      <trkpt lat="45.62828" lon="5.01637">
        <ele>287</ele>
        <time>2019-03-24T08:38:32.000Z</time>
      </trkpt>
      <trkpt lat="45.62839" lon="5.016">
        <ele>292</ele>
        <time>2019-03-24T08:38:34.000Z</time>
      </trkpt>
      <trkpt lat="45.62853" lon="5.01576">
        <ele>289</ele>
        <time>2019-03-24T08:38:36.000Z</time>
      </trkpt>
      <trkpt lat="45.62865" lon="5.01556">
        <ele>291</ele>
        <time>2019-03-24T08:38:38.000Z</time>
      </trkpt>
      <trkpt lat="45.62906" lon="5.01501">
        <ele>294</ele>
        <time>2019-03-24T08:38:40.000Z</time>
      </trkpt>
      <trkpt lat="45.62946" lon="5.01444">
        <ele>302</ele>
        <time>2019-03-24T08:38:42.000Z</time>
      </trkpt>
      <trkpt lat="45.62959" lon="5.01419">
        <ele>304</ele>
        <time>2019-03-24T08:38:44.000Z</time>
      </trkpt>
      <trkpt lat="45.62982" lon="5.01372">
        <ele>303</ele>
        <time>2019-03-24T08:38:46.000Z</time>
      </trkpt>
      <trkpt lat="45.62987" lon="5.0134">
        <ele>305</ele>
        <time>2019-03-24T08:38:48.000Z</time>
      </trkpt>
      <trkpt lat="45.62986" lon="5.01314">
        <ele>304</ele>
        <time>2019-03-24T08:38:50.000Z</time>
      </trkpt>
      <trkpt lat="45.62975" lon="5.0128">
        <ele>303</ele>
        <time>2019-03-24T08:38:52.000Z</time>
      </trkpt>
      <trkpt lat="45.62955" lon="5.01221">
        <ele>302</ele>
        <time>2019-03-24T08:38:54.000Z</time>
      </trkpt>
      <trkpt lat="45.62951" lon="5.01193">
        <ele>302</ele>
        <time>2019-03-24T08:38:56.000Z</time>
      </trkpt>
      <trkpt lat="45.62953" lon="5.01179">
        <ele>302</ele>
        <time>2019-03-24T08:38:58.000Z</time>
      </trkpt>
      <trkpt lat="45.62971" lon="5.01187">
        <ele>302</ele>
        <time>2019-03-24T08:39:00.000Z</time>
      </trkpt>
      <trkpt lat="45.62985" lon="5.01201">
        <ele>303</ele>
        <time>2019-03-24T08:39:02.000Z</time>
      </trkpt>
      <trkpt lat="45.63002" lon="5.01212">
        <ele>308</ele>
        <time>2019-03-24T08:39:04.000Z</time>
      </trkpt>
      <trkpt lat="45.63017" lon="5.01219">
        <ele>308</ele>
        <time>2019-03-24T08:39:06.000Z</time>
      </trkpt>
      <trkpt lat="45.63037" lon="5.01241">
        <ele>310</ele>
        <time>2019-03-24T08:39:08.000Z</time>
      </trkpt>
      <trkpt lat="45.6305" lon="5.01261">
        <ele>315</ele>
        <time>2019-03-24T08:39:10.000Z</time>
      </trkpt>
      <trkpt lat="45.63058" lon="5.01279">
        <ele>316</ele>
        <time>2019-03-24T08:39:12.000Z</time>
      </trkpt>
      <trkpt lat="45.63067" lon="5.013">
        <ele>318</ele>
        <time>2019-03-24T08:39:14.000Z</time>
      </trkpt>
      <trkpt lat="45.6307" lon="5.01318">
        <ele>320</ele>
        <time>2019-03-24T08:39:16.000Z</time>
      </trkpt>
      <trkpt lat="45.63073" lon="5.01327">
        <ele>322</ele>
        <time>2019-03-24T08:39:18.000Z</time>
      </trkpt>
      <trkpt lat="45.63078" lon="5.01352">
        <ele>323</ele>
        <time>2019-03-24T08:39:20.000Z</time>
      </trkpt>
      <trkpt lat="45.63077" lon="5.01376">
        <ele>323</ele>
        <time>2019-03-24T08:39:22.000Z</time>
      </trkpt>
      <trkpt lat="45.63087" lon="5.01406">
        <ele>333</ele>
        <time>2019-03-24T08:39:24.000Z</time>
      </trkpt>
      <trkpt lat="45.63099" lon="5.01427">
        <ele>337</ele>
        <time>2019-03-24T08:39:26.000Z</time>
      </trkpt>
      <trkpt lat="45.63105" lon="5.01443">
        <ele>339</ele>
        <time>2019-03-24T08:39:29.000Z</time>
      </trkpt>
      <trkpt lat="45.63104" lon="5.01455">
        <ele>340</ele>
        <time>2019-03-24T08:39:32.000Z</time>
      </trkpt>
      <trkpt lat="45.63103" lon="5.0147">
        <ele>340</ele>
        <time>2019-03-24T08:39:35.000Z</time>
      </trkpt>
      <trkpt lat="45.63098" lon="5.01481">
        <ele>340</ele>
        <time>2019-03-24T08:39:38.000Z</time>
      </trkpt>
      <trkpt lat="45.63089" lon="5.01512">
        <ele>340</ele>
        <time>2019-03-24T08:39:41.000Z</time>
      </trkpt>
      <trkpt lat="45.63092" lon="5.01523">
        <ele>341</ele>
        <time>2019-03-24T08:39:44.000Z</time>
      </trkpt>
      <trkpt lat="45.63102" lon="5.01532">
        <ele>342</ele>
        <time>2019-03-24T08:39:47.000Z</time>
      </trkpt>
      <trkpt lat="45.6312" lon="5.01538">
        <ele>343</ele>
        <time>2019-03-24T08:39:50.000Z</time>
      </trkpt>
      <trkpt lat="45.6314" lon="5.01536">
        <ele>344</ele>
        <time>2019-03-24T08:39:53.000Z</time>
      </trkpt>
      <trkpt lat="45.63151" lon="5.01537">
        <ele>345</ele>
        <time>2019-03-24T08:39:56.000Z</time>
      </trkpt>
      <trkpt lat="45.63165" lon="5.01538">
        <ele>345</ele>
        <time>2019-03-24T08:39:59.000Z</time>
      </trkpt>
      <trkpt lat="45.6318" lon="5.01536">
        <ele>352</ele>
        <time>2019-03-24T08:40:02.000Z</time>
      </trkpt>
      <trkpt lat="45.63194" lon="5.01532">
        <ele>353</ele>
        <time>2019-03-24T08:40:05.000Z</time>
      </trkpt>
      <trkpt lat="45.63195" lon="5.01532">
        <ele>353</ele>
        <time>2019-03-24T08:40:08.000Z</time>
      </trkpt>
      <trkpt lat="45.63203" lon="5.01532">
        <ele>353</ele>
        <time>2019-03-24T08:40:11.000Z</time>
      </trkpt>
      <trkpt lat="45.63215" lon="5.01532">
        <ele>354</ele>
        <time>2019-03-24T08:40:14.000Z</time>
      </trkpt>
      <trkpt lat="45.63233" lon="5.01527">
        <ele>355</ele>
        <time>2019-03-24T08:40:17.000Z</time>
      </trkpt>
      <trkpt lat="45.63255" lon="5.01522">
        <ele>359</ele>
        <time>2019-03-24T08:40:20.000Z</time>
      </trkpt>
      <trkpt lat="45.63293" lon="5.01513">
        <ele>360</ele>
        <time>2019-03-24T08:40:23.000Z</time>
      </trkpt>
      <trkpt lat="45.63368" lon="5.0149">
        <ele>359</ele>
        <time>2019-03-24T08:40:26.000Z</time>
      </trkpt>
      <trkpt lat="45.63443" lon="5.01469">
        <ele>361</ele>
        <time>2019-03-24T08:40:29.000Z</time>
      </trkpt>
      <trkpt lat="45.63508" lon="5.01446">
        <ele>362</ele>
        <time>2019-03-24T08:40:32.000Z</time>
      </trkpt>
      <trkpt lat="45.63516" lon="5.01431">
        <ele>362</ele>
        <time>2019-03-24T08:40:35.000Z</time>
      </trkpt>
      <trkpt lat="45.63539" lon="5.01365">
        <ele>363</ele>
        <time>2019-03-24T08:40:37.000Z</time>
      </trkpt>
      <trkpt lat="45.63552" lon="5.01294">
        <ele>364</ele>
        <time>2019-03-24T08:40:39.000Z</time>
      </trkpt>
      <trkpt lat="45.63567" lon="5.01214">
        <ele>363</ele>
        <time>2019-03-24T08:40:41.000Z</time>
      </trkpt>
      <trkpt lat="45.63564" lon="5.01173">
        <ele>363</ele>
        <time>2019-03-24T08:40:43.000Z</time>
      </trkpt>
      <trkpt lat="45.63558" lon="5.01142">
        <ele>360</ele>
        <time>2019-03-24T08:40:45.000Z</time>
      </trkpt>
      <trkpt lat="45.63561" lon="5.01084">
        <ele>358</ele>
        <time>2019-03-24T08:40:47.000Z</time>
      </trkpt>
      <trkpt lat="45.63568" lon="5.01032">
        <ele>351</ele>
        <time>2019-03-24T08:40:49.000Z</time>
      </trkpt>
      <trkpt lat="45.63575" lon="5.00977">
        <ele>345</ele>
        <time>2019-03-24T08:40:51.000Z</time>
      </trkpt>
      <trkpt lat="45.63581" lon="5.00922">
        <ele>343</ele>
        <time>2019-03-24T08:40:53.000Z</time>
      </trkpt>
      <trkpt lat="45.63582" lon="5.00904">
        <ele>342</ele>
        <time>2019-03-24T08:40:55.000Z</time>
      </trkpt>
      <trkpt lat="45.63581" lon="5.0087">
        <ele>340</ele>
        <time>2019-03-24T08:40:57.000Z</time>
      </trkpt>
      <trkpt lat="45.63572" lon="5.00814">
        <ele>340</ele>
        <time>2019-03-24T08:40:59.000Z</time>
      </trkpt>
      <trkpt lat="45.6357" lon="5.00804">
        <ele>339</ele>
        <time>2019-03-24T08:41:01.000Z</time>
      </trkpt>
      <trkpt lat="45.63578" lon="5.00792">
        <ele>339</ele>
        <time>2019-03-24T08:41:03.000Z</time>
      </trkpt>
      <trkpt lat="45.63559" lon="5.00724">
        <ele>341</ele>
        <time>2019-03-24T08:41:05.000Z</time>
      </trkpt>
      <trkpt lat="45.6356" lon="5.00669">
        <ele>344</ele>
        <time>2019-03-24T08:41:07.000Z</time>
      </trkpt>
      <trkpt lat="45.63615" lon="5.00624">
        <ele>346</ele>
        <time>2019-03-24T08:41:09.000Z</time>
      </trkpt>
      <trkpt lat="45.63672" lon="5.00542">
        <ele>339</ele>
        <time>2019-03-24T08:41:11.000Z</time>
      </trkpt>
      <trkpt lat="45.63704" lon="5.00483">
        <ele>339</ele>
        <time>2019-03-24T08:41:13.000Z</time>
      </trkpt>
      <trkpt lat="45.63732" lon="5.00385">
        <ele>337</ele>
        <time>2019-03-24T08:41:15.000Z</time>
      </trkpt>
      <trkpt lat="45.63779" lon="5.00281">
        <ele>329</ele>
        <time>2019-03-24T08:41:17.000Z</time>
      </trkpt>
      <trkpt lat="45.63814" lon="5.00228">
        <ele>325</ele>
        <time>2019-03-24T08:41:19.000Z</time>
      </trkpt>
      <trkpt lat="45.63772" lon="5.00133">
        <ele>322</ele>
        <time>2019-03-24T08:41:21.000Z</time>
      </trkpt>
      <trkpt lat="45.63718" lon="5.00082">
        <ele>324</ele>
        <time>2019-03-24T08:41:23.000Z</time>
      </trkpt>
      <trkpt lat="45.63587" lon="4.99861">
        <ele>324</ele>
        <time>2019-03-24T08:45:19.000Z</time>
      </trkpt>
      <trkpt lat="45.63528" lon="4.99824">
        <ele>323</ele>
        <time>2019-03-24T08:45:19.000Z</time>
      </trkpt>
      <trkpt lat="45.63432" lon="4.99809">
        <ele>312</ele>
        <time>2019-03-24T08:45:21.000Z</time>
      </trkpt>
      <trkpt lat="45.63425" lon="4.99756">
        <ele>307.9</ele>
        <time>2019-03-24T08:45:23.000Z</time>
      </trkpt>
      <trkpt lat="45.63406" lon="4.99661">
        <ele>303.1</ele>
        <time>2019-03-24T08:45:25.000Z</time>
      </trkpt>
      <trkpt lat="45.63327" lon="4.99531">
        <ele>291.5</ele>
        <time>2019-03-24T08:45:27.000Z</time>
      </trkpt>
      <trkpt lat="45.6327" lon="4.99416">
        <ele>300</ele>
        <time>2019-03-24T08:45:29.000Z</time>
      </trkpt>
      <trkpt lat="45.63213" lon="4.99322">
        <ele>294.7</ele>
        <time>2019-03-24T08:45:31.000Z</time>
      </trkpt>
      <trkpt lat="45.63205" lon="4.99301">
        <ele>293.9</ele>
        <time>2019-03-24T08:45:33.000Z</time>
      </trkpt>
      <trkpt lat="45.63205" lon="4.99301">
        <ele>293.9</ele>
        <time>2019-03-24T08:45:35.000Z</time>
      </trkpt>
      <trkpt lat="45.632" lon="4.99284">
        <ele>294</ele>
        <time>2019-03-24T08:45:37.000Z</time>
      </trkpt>
      <trkpt lat="45.63187" lon="4.99237">
        <ele>290</ele>
        <time>2019-03-24T08:45:39.000Z</time>
      </trkpt>
      <trkpt lat="45.63178" lon="4.99209">
        <ele>289</ele>
        <time>2019-03-24T08:45:41.000Z</time>
      </trkpt>
      <trkpt lat="45.63169" lon="4.99166">
        <ele>282</ele>
        <time>2019-03-24T08:45:43.000Z</time>
      </trkpt>
      <trkpt lat="45.63159" lon="4.99142">
        <ele>277</ele>
        <time>2019-03-24T08:45:45.000Z</time>
      </trkpt>
      <trkpt lat="45.63152" lon="4.99134">
        <ele>276</ele>
        <time>2019-03-24T08:45:47.000Z</time>
      </trkpt>
      <trkpt lat="45.63122" lon="4.99073">
        <ele>274</ele>
        <time>2019-03-24T08:45:49.000Z</time>
      </trkpt>
      <trkpt lat="45.63107" lon="4.9901">
        <ele>272</ele>
        <time>2019-03-24T08:45:51.000Z</time>
      </trkpt>
      <trkpt lat="45.6309" lon="4.98969">
        <ele>270</ele>
        <time>2019-03-24T08:45:54.000Z</time>
      </trkpt>
      <trkpt lat="45.63059" lon="4.98927">
        <ele>259</ele>
        <time>2019-03-24T08:45:56.000Z</time>
      </trkpt>
      <trkpt lat="45.63033" lon="4.98862">
        <ele>255</ele>
        <time>2019-03-24T08:45:58.000Z</time>
      </trkpt>
      <trkpt lat="45.63025" lon="4.98834">
        <ele>253</ele>
        <time>2019-03-24T08:46:00.000Z</time>
      </trkpt>
      <trkpt lat="45.6301" lon="4.98801">
        <ele>250</ele>
        <time>2019-03-24T08:46:02.000Z</time>
      </trkpt>
      <trkpt lat="45.6301" lon="4.98772">
        <ele>249</ele>
        <time>2019-03-24T08:46:04.000Z</time>
      </trkpt>
      <trkpt lat="45.63018" lon="4.98739">
        <ele>248</ele>
        <time>2019-03-24T08:46:06.000Z</time>
      </trkpt>
      <trkpt lat="45.63039" lon="4.9871">
        <ele>248</ele>
        <time>2019-03-24T08:46:08.000Z</time>
      </trkpt>
      <trkpt lat="45.63039" lon="4.98669">
        <ele>249</ele>
        <time>2019-03-24T08:46:10.000Z</time>
      </trkpt>
      <trkpt lat="45.63016" lon="4.98638">
        <ele>250</ele>
        <time>2019-03-24T08:46:12.000Z</time>
      </trkpt>
      <trkpt lat="45.62967" lon="4.98571">
        <ele>255</ele>
        <time>2019-03-24T08:46:14.000Z</time>
      </trkpt>
      <trkpt lat="45.6295" lon="4.98562">
        <ele>256</ele>
        <time>2019-03-24T08:46:16.000Z</time>
      </trkpt>
      <trkpt lat="45.62875" lon="4.98559">
        <ele>258</ele>
        <time>2019-03-24T08:46:18.000Z</time>
      </trkpt>
      <trkpt lat="45.62846" lon="4.98561">
        <ele>258</ele>
        <time>2019-03-24T08:46:20.000Z</time>
      </trkpt>
      <trkpt lat="45.62806" lon="4.98564">
        <ele>260</ele>
        <time>2019-03-24T08:46:22.000Z</time>
      </trkpt>
      <trkpt lat="45.62752" lon="4.98566">
        <ele>261</ele>
        <time>2019-03-24T08:46:24.000Z</time>
      </trkpt>
      <trkpt lat="45.62693" lon="4.98567">
        <ele>263</ele>
        <time>2019-03-24T08:46:26.000Z</time>
      </trkpt>
      <trkpt lat="45.62664" lon="4.98551">
        <ele>264</ele>
        <time>2019-03-24T08:46:28.000Z</time>
      </trkpt>
      <trkpt lat="45.62649" lon="4.98535">
        <ele>264</ele>
        <time>2019-03-24T08:46:30.000Z</time>
      </trkpt>
      <trkpt lat="45.62634" lon="4.98503">
        <ele>263</ele>
        <time>2019-03-24T08:46:32.000Z</time>
      </trkpt>
      <trkpt lat="45.62625" lon="4.98478">
        <ele>261</ele>
        <time>2019-03-24T08:46:35.000Z</time>
      </trkpt>
      <trkpt lat="45.62612" lon="4.98453">
        <ele>260</ele>
        <time>2019-03-24T08:46:38.000Z</time>
      </trkpt>
      <trkpt lat="45.62602" lon="4.98449">
        <ele>260</ele>
        <time>2019-03-24T08:46:41.000Z</time>
      </trkpt>
      <trkpt lat="45.62593" lon="4.9846">
        <ele>260</ele>
        <time>2019-03-24T08:46:44.000Z</time>
      </trkpt>
      <trkpt lat="45.62569" lon="4.98499">
        <ele>258</ele>
        <time>2019-03-24T08:46:47.000Z</time>
      </trkpt>
      <trkpt lat="45.62551" lon="4.98524">
        <ele>259</ele>
        <time>2019-03-24T08:46:50.000Z</time>
      </trkpt>
      <trkpt lat="45.62509" lon="4.9861">
        <ele>260</ele>
        <time>2019-03-24T08:46:53.000Z</time>
      </trkpt>
      <trkpt lat="45.6246" lon="4.98709">
        <ele>261</ele>
        <time>2019-03-24T08:46:56.000Z</time>
      </trkpt>
      <trkpt lat="45.62444" lon="4.98785">
        <ele>264</ele>
        <time>2019-03-24T08:46:59.000Z</time>
      </trkpt>
      <trkpt lat="45.62412" lon="4.98865">
        <ele>262</ele>
        <time>2019-03-24T08:47:02.000Z</time>
      </trkpt>
      <trkpt lat="45.62367" lon="4.98966">
        <ele>266</ele>
        <time>2019-03-24T08:47:05.000Z</time>
      </trkpt>
      <trkpt lat="45.62342" lon="4.98996">
        <ele>264</ele>
        <time>2019-03-24T08:47:08.000Z</time>
      </trkpt>
      <trkpt lat="45.62325" lon="4.99032">
        <ele>266</ele>
        <time>2019-03-24T08:47:11.000Z</time>
      </trkpt>
      <trkpt lat="45.6229" lon="4.99075">
        <ele>267</ele>
        <time>2019-03-24T08:47:14.000Z</time>
      </trkpt>
      <trkpt lat="45.62264" lon="4.99111">
        <ele>267</ele>
        <time>2019-03-24T08:47:17.000Z</time>
      </trkpt>
      <trkpt lat="45.62255" lon="4.99152">
        <ele>266</ele>
        <time>2019-03-24T08:47:20.000Z</time>
      </trkpt>
      <trkpt lat="45.62275" lon="4.99216">
        <ele>269</ele>
        <time>2019-03-24T08:47:23.000Z</time>
      </trkpt>
      <trkpt lat="45.62282" lon="4.99266">
        <ele>272</ele>
        <time>2019-03-24T08:47:26.000Z</time>
      </trkpt>
      <trkpt lat="45.62279" lon="4.993">
        <ele>273</ele>
        <time>2019-03-24T08:47:29.000Z</time>
      </trkpt>
      <trkpt lat="45.62269" lon="4.99321">
        <ele>272</ele>
        <time>2019-03-24T08:47:32.000Z</time>
      </trkpt>
      <trkpt lat="45.62269" lon="4.99336">
        <ele>274</ele>
        <time>2019-03-24T08:47:35.000Z</time>
      </trkpt>
      <trkpt lat="45.62265" lon="4.99394">
        <ele>276</ele>
        <time>2019-03-24T08:47:38.000Z</time>
      </trkpt>
      <trkpt lat="45.6226" lon="4.9943">
        <ele>278</ele>
        <time>2019-03-24T08:47:41.000Z</time>
      </trkpt>
      <trkpt lat="45.62243" lon="4.99464">
        <ele>271</ele>
        <time>2019-03-24T08:47:44.000Z</time>
      </trkpt>
      <trkpt lat="45.62227" lon="4.99515">
        <ele>275</ele>
        <time>2019-03-24T08:47:47.000Z</time>
      </trkpt>
      <trkpt lat="45.6221" lon="4.99549">
        <ele>275</ele>
        <time>2019-03-24T08:47:50.000Z</time>
      </trkpt>
      <trkpt lat="45.62198" lon="4.99582">
        <ele>274</ele>
        <time>2019-03-24T08:47:52.000Z</time>
      </trkpt>
      <trkpt lat="45.62194" lon="4.99631">
        <ele>278</ele>
        <time>2019-03-24T08:47:55.000Z</time>
      </trkpt>
      <trkpt lat="45.62199" lon="4.997">
        <ele>283</ele>
        <time>2019-03-24T08:47:57.000Z</time>
      </trkpt>
      <trkpt lat="45.62168" lon="4.99703">
        <ele>281</ele>
        <time>2019-03-24T08:47:59.000Z</time>
      </trkpt>
      <trkpt lat="45.62149" lon="4.99705">
        <ele>282</ele>
        <time>2019-03-24T08:48:01.000Z</time>
      </trkpt>
      <trkpt lat="45.62132" lon="4.99698">
        <ele>282</ele>
        <time>2019-03-24T08:48:03.000Z</time>
      </trkpt>
      <trkpt lat="45.62113" lon="4.99697">
        <ele>283</ele>
        <time>2019-03-24T08:48:05.000Z</time>
      </trkpt>
      <trkpt lat="45.62101" lon="4.99696">
        <ele>284</ele>
        <time>2019-03-24T08:48:07.000Z</time>
      </trkpt>
      <trkpt lat="45.62089" lon="4.99707">
        <ele>284</ele>
        <time>2019-03-24T08:48:09.000Z</time>
      </trkpt>
      <trkpt lat="45.62077" lon="4.99713">
        <ele>288</ele>
        <time>2019-03-24T08:48:11.000Z</time>
      </trkpt>
      <trkpt lat="45.62073" lon="4.9972">
        <ele>288</ele>
        <time>2019-03-24T08:48:13.000Z</time>
      </trkpt>
      <trkpt lat="45.62072" lon="4.99721">
        <ele>288</ele>
        <time>2019-03-24T08:48:15.000Z</time>
      </trkpt>
      <trkpt lat="45.62069" lon="4.9973">
        <ele>289</ele>
        <time>2019-03-24T08:48:17.000Z</time>
      </trkpt>
      <trkpt lat="45.6206" lon="4.99748">
        <ele>289</ele>
        <time>2019-03-24T08:48:19.000Z</time>
      </trkpt>
      <trkpt lat="45.62055" lon="4.99757">
        <ele>293</ele>
        <time>2019-03-24T08:48:21.000Z</time>
      </trkpt>
      <trkpt lat="45.62043" lon="4.99777">
        <ele>294</ele>
        <time>2019-03-24T08:48:23.000Z</time>
      </trkpt>
      <trkpt lat="45.62033" lon="4.99798">
        <ele>295</ele>
        <time>2019-03-24T08:48:25.000Z</time>
      </trkpt>
      <trkpt lat="45.6202" lon="4.99824">
        <ele>297</ele>
        <time>2019-03-24T08:48:27.000Z</time>
      </trkpt>
      <trkpt lat="45.62005" lon="4.99852">
        <ele>300</ele>
        <time>2019-03-24T08:48:29.000Z</time>
      </trkpt>
      <trkpt lat="45.61993" lon="4.99878">
        <ele>304</ele>
        <time>2019-03-24T08:48:31.000Z</time>
      </trkpt>
      <trkpt lat="45.61983" lon="4.99904">
        <ele>305</ele>
        <time>2019-03-24T08:48:33.000Z</time>
      </trkpt>
      <trkpt lat="45.61987" lon="4.99923">
        <ele>308</ele>
        <time>2019-03-24T08:48:35.000Z</time>
      </trkpt>
      <trkpt lat="45.62001" lon="4.99969">
        <ele>303</ele>
        <time>2019-03-24T08:48:37.000Z</time>
      </trkpt>
      <trkpt lat="45.62013" lon="5.00005">
        <ele>304</ele>
        <time>2019-03-24T08:48:39.000Z</time>
      </trkpt>
      <trkpt lat="45.62021" lon="5.00034">
        <ele>302</ele>
        <time>2019-03-24T08:48:41.000Z</time>
      </trkpt>
      <trkpt lat="45.62046" lon="5.00127">
        <ele>301</ele>
        <time>2019-03-24T08:48:43.000Z</time>
      </trkpt>
      <trkpt lat="45.62073" lon="5.00211">
        <ele>301</ele>
        <time>2019-03-24T08:48:45.000Z</time>
      </trkpt>
      <trkpt lat="45.62097" lon="5.00286">
        <ele>296</ele>
        <time>2019-03-24T08:48:47.000Z</time>
      </trkpt>
      <trkpt lat="45.62126" lon="5.0038">
        <ele>297</ele>
        <time>2019-03-24T08:48:49.000Z</time>
      </trkpt>
      <trkpt lat="45.62148" lon="5.00452">
        <ele>298</ele>
        <time>2019-03-24T08:48:51.000Z</time>
      </trkpt>
      <trkpt lat="45.62165" lon="5.00528">
        <ele>298</ele>
        <time>2019-03-24T08:48:53.000Z</time>
      </trkpt>
      <trkpt lat="45.62163" lon="5.0055">
        <ele>298.7</ele>
        <time>2019-03-24T08:48:55.000Z</time>
      </trkpt>
      <trkpt lat="45.62154" lon="5.00544">
        <ele>296.12707519531</ele>
        <time>2019-03-24T08:48:57.000Z</time>
      </trkpt>
      <trkpt lat="45.62149" lon="5.00541">
        <ele>296.42608642578</ele>
        <time>2019-03-24T08:48:59.000Z</time>
      </trkpt>
      <trkpt lat="45.62144" lon="5.00538">
        <ele>296.89739990234</ele>
        <time>2019-03-24T08:49:01.000Z</time>
      </trkpt>
      <trkpt lat="45.62139" lon="5.00536">
        <ele>297.55145263672</ele>
        <time>2019-03-24T08:49:03.000Z</time>
      </trkpt>
      <trkpt lat="45.62135" lon="5.00534">
        <ele>298.26065063477</ele>
        <time>2019-03-24T08:49:05.000Z</time>
      </trkpt>
      <trkpt lat="45.62131" lon="5.00533">
        <ele>298.97183227539</ele>
        <time>2019-03-24T08:49:07.000Z</time>
      </trkpt>
      <trkpt lat="45.62128" lon="5.00533">
        <ele>299.61239624023</ele>
        <time>2019-03-24T08:49:09.000Z</time>
      </trkpt>
      <trkpt lat="45.62124" lon="5.00533">
        <ele>300.20434570312</ele>
        <time>2019-03-24T08:49:11.000Z</time>
      </trkpt>
      <trkpt lat="45.62122" lon="5.00532">
        <ele>300.72372436523</ele>
        <time>2019-03-24T08:49:13.000Z</time>
      </trkpt>
      <trkpt lat="45.6212" lon="5.00529">
        <ele>301.1657409668</ele>
        <time>2019-03-24T08:49:15.000Z</time>
      </trkpt>
      <trkpt lat="45.62117" lon="5.00526">
        <ele>301.56637573242</ele>
        <time>2019-03-24T08:49:17.000Z</time>
      </trkpt>
      <trkpt lat="45.62116" lon="5.00524">
        <ele>301.95083618164</ele>
        <time>2019-03-24T08:49:19.000Z</time>
      </trkpt>
      <trkpt lat="45.62112" lon="5.00523">
        <ele>302.32830810547</ele>
        <time>2019-03-24T08:49:21.000Z</time>
      </trkpt>
      <trkpt lat="45.62109" lon="5.00524">
        <ele>302.73736572266</ele>
        <time>2019-03-24T08:49:23.000Z</time>
      </trkpt>
      <trkpt lat="45.62106" lon="5.00524">
        <ele>303.16357421875</ele>
        <time>2019-03-24T08:49:25.000Z</time>
      </trkpt>
      <trkpt lat="45.62102" lon="5.00523">
        <ele>303.64801025391</ele>
        <time>2019-03-24T08:49:27.000Z</time>
      </trkpt>
      <trkpt lat="45.62099" lon="5.00519">
        <ele>304.16375732422</ele>
        <time>2019-03-24T08:49:29.000Z</time>
      </trkpt>
      <trkpt lat="45.62096" lon="5.00518">
        <ele>304.64349365234</ele>
        <time>2019-03-24T08:49:31.000Z</time>
      </trkpt>
      <trkpt lat="45.62094" lon="5.00518">
        <ele>305.10562133789</ele>
        <time>2019-03-24T08:49:33.000Z</time>
      </trkpt>
      <trkpt lat="45.6209" lon="5.00516">
        <ele>305.61505126953</ele>
        <time>2019-03-24T08:49:35.000Z</time>
      </trkpt>
      <trkpt lat="45.62087" lon="5.00514">
        <ele>306.09115600586</ele>
        <time>2019-03-24T08:49:37.000Z</time>
      </trkpt>
      <trkpt lat="45.62085" lon="5.00511">
        <ele>306.5315246582</ele>
        <time>2019-03-24T08:49:39.000Z</time>
      </trkpt>
      <trkpt lat="45.62083" lon="5.00512">
        <ele>306.97512817383</ele>
        <time>2019-03-24T08:49:41.000Z</time>
      </trkpt>
      <trkpt lat="45.62082" lon="5.00511">
        <ele>307.37103271484</ele>
        <time>2019-03-24T08:49:43.000Z</time>
      </trkpt>
      <trkpt lat="45.6208" lon="5.00509">
        <ele>307.70260620117</ele>
        <time>2019-03-24T08:49:45.000Z</time>
      </trkpt>
      <trkpt lat="45.62078" lon="5.00506">
        <ele>307.9948425293</ele>
        <time>2019-03-24T08:49:47.000Z</time>
      </trkpt>
      <trkpt lat="45.62077" lon="5.00503">
        <ele>308.26403808594</ele>
        <time>2019-03-24T08:49:49.000Z</time>
      </trkpt>
      <trkpt lat="45.62076" lon="5.00502">
        <ele>308.46838378906</ele>
        <time>2019-03-24T08:49:51.000Z</time>
      </trkpt>
      <trkpt lat="45.62074" lon="5.005">
        <ele>308.70758056641</ele>
        <time>2019-03-24T08:49:53.000Z</time>
      </trkpt>
      <trkpt lat="45.62072" lon="5.00499">
        <ele>308.93508911133</ele>
        <time>2019-03-24T08:49:55.000Z</time>
      </trkpt>
      <trkpt lat="45.62069" lon="5.00497">
        <ele>309.12298583984</ele>
        <time>2019-03-24T08:49:57.000Z</time>
      </trkpt>
      <trkpt lat="45.62066" lon="5.00496">
        <ele>309.33505249023</ele>
        <time>2019-03-24T08:49:59.000Z</time>
      </trkpt>
      <trkpt lat="45.62062" lon="5.00494">
        <ele>309.60336303711</ele>
        <time>2019-03-24T08:50:01.000Z</time>
      </trkpt>
      <trkpt lat="45.62058" lon="5.00493">
        <ele>309.90655517578</ele>
        <time>2019-03-24T08:50:03.000Z</time>
      </trkpt>
      <trkpt lat="45.62055" lon="5.00491">
        <ele>310.21234130859</ele>
        <time>2019-03-24T08:50:05.000Z</time>
      </trkpt>
      <trkpt lat="45.62053" lon="5.00489">
        <ele>310.53399658203</ele>
        <time>2019-03-24T08:50:07.000Z</time>
      </trkpt>
      <trkpt lat="45.6205" lon="5.00486">
        <ele>310.81646728516</ele>
        <time>2019-03-24T08:50:09.000Z</time>
      </trkpt>
      <trkpt lat="45.62046" lon="5.00487">
        <ele>311.1262512207</ele>
        <time>2019-03-24T08:50:11.000Z</time>
      </trkpt>
      <trkpt lat="45.62045" lon="5.00485">
        <ele>311.35736083984</ele>
        <time>2019-03-24T08:50:13.000Z</time>
      </trkpt>
      <trkpt lat="45.62042" lon="5.00484">
        <ele>311.58972167969</ele>
        <time>2019-03-24T08:50:15.000Z</time>
      </trkpt>
      <trkpt lat="45.62041" lon="5.0048">
        <ele>311.77075195312</ele>
        <time>2019-03-24T08:50:17.000Z</time>
      </trkpt>
      <trkpt lat="45.62039" lon="5.00479">
        <ele>311.96029663086</ele>
        <time>2019-03-24T08:50:19.000Z</time>
      </trkpt>
      <trkpt lat="45.62035" lon="5.00478">
        <ele>312.13143920898</ele>
        <time>2019-03-24T08:50:21.000Z</time>
      </trkpt>
      <trkpt lat="45.62032" lon="5.00477">
        <ele>312.34133911133</ele>
        <time>2019-03-24T08:50:23.000Z</time>
      </trkpt>
      <trkpt lat="45.62031" lon="5.00478">
        <ele>312.54705810547</ele>
        <time>2019-03-24T08:50:25.000Z</time>
      </trkpt>
      <trkpt lat="45.62027" lon="5.00475">
        <ele>312.83206176758</ele>
        <time>2019-03-24T08:50:27.000Z</time>
      </trkpt>
      <trkpt lat="45.62025" lon="5.00474">
        <ele>313.12475585938</ele>
        <time>2019-03-24T08:50:29.000Z</time>
      </trkpt>
      <trkpt lat="45.62023" lon="5.00474">
        <ele>313.39071655273</ele>
        <time>2019-03-24T08:50:31.000Z</time>
      </trkpt>
      <trkpt lat="45.62019" lon="5.00471">
        <ele>313.66683959961</ele>
        <time>2019-03-24T08:50:33.000Z</time>
      </trkpt>
      <trkpt lat="45.62016" lon="5.0047">
        <ele>313.9700012207</ele>
        <time>2019-03-24T08:50:35.000Z</time>
      </trkpt>
      <trkpt lat="45.62015" lon="5.0047">
        <ele>314.21871948242</ele>
        <time>2019-03-24T08:50:37.000Z</time>
      </trkpt>
      <trkpt lat="45.62013" lon="5.00469">
        <ele>314.47512817383</ele>
        <time>2019-03-24T08:50:39.000Z</time>
      </trkpt>
      <trkpt lat="45.62011" lon="5.00469">
        <ele>314.7138671875</ele>
        <time>2019-03-24T08:50:41.000Z</time>
      </trkpt>
      <trkpt lat="45.62009" lon="5.00469">
        <ele>314.95205688477</ele>
        <time>2019-03-24T08:50:43.000Z</time>
      </trkpt>
      <trkpt lat="45.62006" lon="5.00468">
        <ele>315.17440795898</ele>
        <time>2019-03-24T08:50:45.000Z</time>
      </trkpt>
      <trkpt lat="45.62003" lon="5.00467">
        <ele>315.45245361328</ele>
        <time>2019-03-24T08:50:47.000Z</time>
      </trkpt>
      <trkpt lat="45.61999" lon="5.00465">
        <ele>315.75152587891</ele>
        <time>2019-03-24T08:50:49.000Z</time>
      </trkpt>
      <trkpt lat="45.61996" lon="5.00463">
        <ele>316.06607055664</ele>
        <time>2019-03-24T08:50:51.000Z</time>
      </trkpt>
      <trkpt lat="45.61992" lon="5.00464">
        <ele>316.39706420898</ele>
        <time>2019-03-24T08:50:53.000Z</time>
      </trkpt>
      <trkpt lat="45.61989" lon="5.00463">
        <ele>316.71978759766</ele>
        <time>2019-03-24T08:50:55.000Z</time>
      </trkpt>
      <trkpt lat="45.61987" lon="5.00462">
        <ele>317.01385498047</ele>
        <time>2019-03-24T08:50:57.000Z</time>
      </trkpt>
      <trkpt lat="45.61983" lon="5.00459">
        <ele>317.30801391602</ele>
        <time>2019-03-24T08:50:59.000Z</time>
      </trkpt>
      <trkpt lat="45.61979" lon="5.00459">
        <ele>317.62347412109</ele>
        <time>2019-03-24T08:51:01.000Z</time>
      </trkpt>
      <trkpt lat="45.61977" lon="5.00457">
        <ele>317.90084838867</ele>
        <time>2019-03-24T08:51:03.000Z</time>
      </trkpt>
      <trkpt lat="45.61973" lon="5.00454">
        <ele>318.19900512695</ele>
        <time>2019-03-24T08:51:05.000Z</time>
      </trkpt>
      <trkpt lat="45.61969" lon="5.00453">
        <ele>318.51931762695</ele>
        <time>2019-03-24T08:51:07.000Z</time>
      </trkpt>
      <trkpt lat="45.61968" lon="5.00453">
        <ele>318.81552124023</ele>
        <time>2019-03-24T08:51:09.000Z</time>
      </trkpt>
      <trkpt lat="45.61964" lon="5.00453">
        <ele>319.10107421875</ele>
        <time>2019-03-24T08:51:11.000Z</time>
      </trkpt>
      <trkpt lat="45.61963" lon="5.00452">
        <ele>319.38110351562</ele>
        <time>2019-03-24T08:51:13.000Z</time>
      </trkpt>
      <trkpt lat="45.61961" lon="5.00453">
        <ele>319.63623046875</ele>
        <time>2019-03-24T08:51:15.000Z</time>
      </trkpt>
      <trkpt lat="45.6196" lon="5.00455">
        <ele>319.86492919922</ele>
        <time>2019-03-24T08:51:17.000Z</time>
      </trkpt>
      <trkpt lat="45.61958" lon="5.00459">
        <ele>320.10171508789</ele>
        <time>2019-03-24T08:51:19.000Z</time>
      </trkpt>
      <trkpt lat="45.61956" lon="5.00462">
        <ele>320.33255004883</ele>
        <time>2019-03-24T08:51:21.000Z</time>
      </trkpt>
      <trkpt lat="45.61956" lon="5.00465">
        <ele>320.53961181641</ele>
        <time>2019-03-24T08:51:23.000Z</time>
      </trkpt>
      <trkpt lat="45.61956" lon="5.0047">
        <ele>320.72158813477</ele>
        <time>2019-03-24T08:51:25.000Z</time>
      </trkpt>
      <trkpt lat="45.61955" lon="5.00474">
        <ele>320.90365600586</ele>
        <time>2019-03-24T08:51:27.000Z</time>
      </trkpt>
      <trkpt lat="45.61955" lon="5.00477">
        <ele>321.05285644531</ele>
        <time>2019-03-24T08:51:29.000Z</time>
      </trkpt>
      <trkpt lat="45.61953" lon="5.00481">
        <ele>321.19906616211</ele>
        <time>2019-03-24T08:51:31.000Z</time>
      </trkpt>
      <trkpt lat="45.61951" lon="5.00487">
        <ele>321.37744140625</ele>
        <time>2019-03-24T08:51:33.000Z</time>
      </trkpt>
      <trkpt lat="45.61951" lon="5.00489">
        <ele>321.55303955078</ele>
        <time>2019-03-24T08:51:36.000Z</time>
      </trkpt>
      <trkpt lat="45.6195" lon="5.0049">
        <ele>321.72625732422</ele>
        <time>2019-03-24T08:51:38.000Z</time>
      </trkpt>
      <trkpt lat="45.61947" lon="5.00494">
        <ele>321.94281005859</ele>
        <time>2019-03-24T08:51:40.000Z</time>
      </trkpt>
      <trkpt lat="45.61945" lon="5.00497">
        <ele>322.15069580078</ele>
        <time>2019-03-24T08:51:42.000Z</time>
      </trkpt>
      <trkpt lat="45.61943" lon="5.00501">
        <ele>322.35067749023</ele>
        <time>2019-03-24T08:51:44.000Z</time>
      </trkpt>
      <trkpt lat="45.6194" lon="5.00504">
        <ele>322.56015014648</ele>
        <time>2019-03-24T08:51:46.000Z</time>
      </trkpt>
      <trkpt lat="45.6194" lon="5.00509">
        <ele>322.72994995117</ele>
        <time>2019-03-24T08:51:48.000Z</time>
      </trkpt>
      <trkpt lat="45.61937" lon="5.00514">
        <ele>322.85681152344</ele>
        <time>2019-03-24T08:51:50.000Z</time>
      </trkpt>
      <trkpt lat="45.61936" lon="5.00517">
        <ele>322.94610595703</ele>
        <time>2019-03-24T08:51:52.000Z</time>
      </trkpt>
      <trkpt lat="45.61934" lon="5.00518">
        <ele>323.02389526367</ele>
        <time>2019-03-24T08:51:54.000Z</time>
      </trkpt>
      <trkpt lat="45.6193" lon="5.00523">
        <ele>323.12020874023</ele>
        <time>2019-03-24T08:51:56.000Z</time>
      </trkpt>
      <trkpt lat="45.61928" lon="5.0053">
        <ele>323.22589111328</ele>
        <time>2019-03-24T08:51:58.000Z</time>
      </trkpt>
      <trkpt lat="45.61926" lon="5.00535">
        <ele>323.31744384766</ele>
        <time>2019-03-24T08:52:00.000Z</time>
      </trkpt>
      <trkpt lat="45.61924" lon="5.00539">
        <ele>323.41967773438</ele>
        <time>2019-03-24T08:52:02.000Z</time>
      </trkpt>
      <trkpt lat="45.61921" lon="5.00544">
        <ele>323.50262451172</ele>
        <time>2019-03-24T08:52:04.000Z</time>
      </trkpt>
      <trkpt lat="45.61919" lon="5.00547">
        <ele>323.56350708008</ele>
        <time>2019-03-24T08:52:06.000Z</time>
      </trkpt>
      <trkpt lat="45.61918" lon="5.00551">
        <ele>323.60870361328</ele>
        <time>2019-03-24T08:52:08.000Z</time>
      </trkpt>
      <trkpt lat="45.61916" lon="5.00556">
        <ele>323.64837646484</ele>
        <time>2019-03-24T08:52:10.000Z</time>
      </trkpt>
      <trkpt lat="45.61914" lon="5.00558">
        <ele>323.71109008789</ele>
        <time>2019-03-24T08:52:12.000Z</time>
      </trkpt>
      <trkpt lat="45.61912" lon="5.00564">
        <ele>323.76846313477</ele>
        <time>2019-03-24T08:52:14.000Z</time>
      </trkpt>
      <trkpt lat="45.6191" lon="5.00568">
        <ele>323.82797241211</ele>
        <time>2019-03-24T08:52:16.000Z</time>
      </trkpt>
      <trkpt lat="45.61908" lon="5.00573">
        <ele>323.90423583984</ele>
        <time>2019-03-24T08:52:18.000Z</time>
      </trkpt>
      <trkpt lat="45.61906" lon="5.0058">
        <ele>323.99920654297</ele>
        <time>2019-03-24T08:52:20.000Z</time>
      </trkpt>
      <trkpt lat="45.61903" lon="5.00585">
        <ele>324.08013916016</ele>
        <time>2019-03-24T08:52:22.000Z</time>
      </trkpt>
      <trkpt lat="45.61901" lon="5.00589">
        <ele>324.19378662109</ele>
        <time>2019-03-24T08:52:24.000Z</time>
      </trkpt>
      <trkpt lat="45.61898" lon="5.00594">
        <ele>324.30651855469</ele>
        <time>2019-03-24T08:52:26.000Z</time>
      </trkpt>
      <trkpt lat="45.61896" lon="5.00601">
        <ele>324.44586181641</ele>
        <time>2019-03-24T08:52:28.000Z</time>
      </trkpt>
      <trkpt lat="45.61892" lon="5.00607">
        <ele>324.60577392578</ele>
        <time>2019-03-24T08:52:30.000Z</time>
      </trkpt>
      <trkpt lat="45.61889" lon="5.00614">
        <ele>324.77801513672</ele>
        <time>2019-03-24T08:52:32.000Z</time>
      </trkpt>
      <trkpt lat="45.61886" lon="5.00622">
        <ele>324.95465087891</ele>
        <time>2019-03-24T08:52:34.000Z</time>
      </trkpt>
      <trkpt lat="45.61882" lon="5.00631">
        <ele>325.13751220703</ele>
        <time>2019-03-24T08:52:36.000Z</time>
      </trkpt>
      <trkpt lat="45.61879" lon="5.00637">
        <ele>325.32186889648</ele>
        <time>2019-03-24T08:52:38.000Z</time>
      </trkpt>
      <trkpt lat="45.61876" lon="5.00644">
        <ele>325.49847412109</ele>
        <time>2019-03-24T08:52:40.000Z</time>
      </trkpt>
      <trkpt lat="45.61873" lon="5.00651">
        <ele>325.66842651367</ele>
        <time>2019-03-24T08:52:42.000Z</time>
      </trkpt>
      <trkpt lat="45.61869" lon="5.00658">
        <ele>325.83285522461</ele>
        <time>2019-03-24T08:52:44.000Z</time>
      </trkpt>
      <trkpt lat="45.61866" lon="5.00666">
        <ele>325.98706054688</ele>
        <time>2019-03-24T08:52:46.000Z</time>
      </trkpt>
      <trkpt lat="45.61863" lon="5.00675">
        <ele>326.15026855469</ele>
        <time>2019-03-24T08:52:48.000Z</time>
      </trkpt>
      <trkpt lat="45.6186" lon="5.00681">
        <ele>326.33056640625</ele>
        <time>2019-03-24T08:52:50.000Z</time>
      </trkpt>
      <trkpt lat="45.61857" lon="5.00687">
        <ele>326.55401611328</ele>
        <time>2019-03-24T08:52:52.000Z</time>
      </trkpt>
      <trkpt lat="45.61853" lon="5.00692">
        <ele>326.79913330078</ele>
        <time>2019-03-24T08:52:54.000Z</time>
      </trkpt>
      <trkpt lat="45.61851" lon="5.00698">
        <ele>327.08422851562</ele>
        <time>2019-03-24T08:52:56.000Z</time>
      </trkpt>
      <trkpt lat="45.61848" lon="5.00702">
        <ele>327.37045288086</ele>
        <time>2019-03-24T08:52:58.000Z</time>
      </trkpt>
      <trkpt lat="45.61846" lon="5.00705">
        <ele>327.66690063477</ele>
        <time>2019-03-24T08:53:00.000Z</time>
      </trkpt>
      <trkpt lat="45.61843" lon="5.00711">
        <ele>327.94570922852</ele>
        <time>2019-03-24T08:53:02.000Z</time>
      </trkpt>
      <trkpt lat="45.61841" lon="5.00715">
        <ele>328.22561645508</ele>
        <time>2019-03-24T08:53:04.000Z</time>
      </trkpt>
      <trkpt lat="45.6184" lon="5.00721">
        <ele>328.47387695312</ele>
        <time>2019-03-24T08:53:06.000Z</time>
      </trkpt>
      <trkpt lat="45.61838" lon="5.00726">
        <ele>328.74066162109</ele>
        <time>2019-03-24T08:53:08.000Z</time>
      </trkpt>
      <trkpt lat="45.61836" lon="5.00731">
        <ele>328.98458862305</ele>
        <time>2019-03-24T08:53:10.000Z</time>
      </trkpt>
      <trkpt lat="45.61834" lon="5.00733">
        <ele>329.23944091797</ele>
        <time>2019-03-24T08:53:12.000Z</time>
      </trkpt>
      <trkpt lat="45.61832" lon="5.00737">
        <ele>329.4638671875</ele>
        <time>2019-03-24T08:53:14.000Z</time>
      </trkpt>
      <trkpt lat="45.6183" lon="5.00742">
        <ele>329.69131469727</ele>
        <time>2019-03-24T08:53:16.000Z</time>
      </trkpt>
      <trkpt lat="45.61828" lon="5.00746">
        <ele>329.8893737793</ele>
        <time>2019-03-24T08:53:18.000Z</time>
      </trkpt>
      <trkpt lat="45.61825" lon="5.00752">
        <ele>330.07049560547</ele>
        <time>2019-03-24T08:53:20.000Z</time>
      </trkpt>
      <trkpt lat="45.61822" lon="5.00757">
        <ele>330.19232177734</ele>
        <time>2019-03-24T08:53:22.000Z</time>
      </trkpt>
      <trkpt lat="45.6182" lon="5.00761">
        <ele>330.28359985352</ele>
        <time>2019-03-24T08:53:24.000Z</time>
      </trkpt>
      <trkpt lat="45.61818" lon="5.00766">
        <ele>330.32992553711</ele>
        <time>2019-03-24T08:53:26.000Z</time>
      </trkpt>
      <trkpt lat="45.61816" lon="5.00771">
        <ele>330.33901977539</ele>
        <time>2019-03-24T08:53:28.000Z</time>
      </trkpt>
      <trkpt lat="45.61814" lon="5.00776">
        <ele>330.31927490234</ele>
        <time>2019-03-24T08:53:30.000Z</time>
      </trkpt>
      <trkpt lat="45.61811" lon="5.00782">
        <ele>330.27865600586</ele>
        <time>2019-03-24T08:53:32.000Z</time>
      </trkpt>
      <trkpt lat="45.61809" lon="5.0079">
        <ele>330.22344970703</ele>
        <time>2019-03-24T08:53:34.000Z</time>
      </trkpt>
      <trkpt lat="45.61806" lon="5.00796">
        <ele>330.16760253906</ele>
        <time>2019-03-24T08:53:36.000Z</time>
      </trkpt>
      <trkpt lat="45.61803" lon="5.00807">
        <ele>330.08160400391</ele>
        <time>2019-03-24T08:53:38.000Z</time>
      </trkpt>
      <trkpt lat="45.61798" lon="5.00817">
        <ele>329.98110961914</ele>
        <time>2019-03-24T08:53:41.000Z</time>
      </trkpt>
      <trkpt lat="45.61794" lon="5.00829">
        <ele>329.85528564453</ele>
        <time>2019-03-24T08:53:44.000Z</time>
      </trkpt>
      <trkpt lat="45.61787" lon="5.00837">
        <ele>329.69638061523</ele>
        <time>2019-03-24T08:53:47.000Z</time>
      </trkpt>
      <trkpt lat="45.6178" lon="5.00852">
        <ele>329.30935668945</ele>
        <time>2019-03-24T08:53:50.000Z</time>
      </trkpt>
      <trkpt lat="45.61772" lon="5.00861">
        <ele>328.80438232422</ele>
        <time>1993-11-18T06:33:20Z</time>
      </trkpt>
      <trkpt lat="45.6176" lon="5.00857">
        <ele>328.44879150391</ele>
        <time>1993-11-18T06:33:20Z</time>
      </trkpt>
      <trkpt lat="45.61747" lon="5.00852">
        <ele>328.27285766602</ele>
        <time>1993-11-18T06:33:20Z</time>
      </trkpt>
      <trkpt lat="45.61736" lon="5.00846">
        <ele>328.20346069336</ele>
        <time>1993-11-18T06:33:20Z</time>
      </trkpt>
      <trkpt lat="45.61724" lon="5.00841">
        <ele>328.40957641602</ele>
        <time>1993-11-18T06:33:20Z</time>
      </trkpt>
      <trkpt lat="45.61715" lon="5.00835">
        <ele>328.85797119141</ele>
        <time>1993-11-18T06:33:20Z</time>
      </trkpt>
      <trkpt lat="45.61705" lon="5.00828">
        <ele>329.19812011719</ele>
        <time>1993-11-18T06:33:20Z</time>
      </trkpt>
      <trkpt lat="45.61697" lon="5.00823">
        <ele>329.39801025391</ele>
        <time>1993-11-18T06:33:20Z</time>
      </trkpt>
      <trkpt lat="45.61687" lon="5.00817">
        <ele>329.55221557617</ele>
        <time>1993-11-18T06:33:20Z</time>
      </trkpt>
      <trkpt lat="45.61678" lon="5.00814">
        <ele>329.67376708984</ele>
        <time>1993-11-18T06:33:20Z</time>
      </trkpt>
      <trkpt lat="45.61667" lon="5.00807">
        <ele>329.73849487305</ele>
        <time>1993-11-18T06:33:20Z</time>
      </trkpt>
      <trkpt lat="45.61658" lon="5.00802">
        <ele>329.85855102539</ele>
        <time>1993-11-18T06:33:20Z</time>
      </trkpt>
      <trkpt lat="45.61649" lon="5.00796">
        <ele>330.07824707031</ele>
        <time>1993-11-18T06:33:20Z</time>
      </trkpt>
      <trkpt lat="45.61639" lon="5.00791">
        <ele>330.37442016602</ele>
        <time>1993-11-18T06:33:20Z</time>
      </trkpt>
      <trkpt lat="45.61629" lon="5.00785">
        <ele>330.77294921875</ele>
        <time>1993-11-18T06:33:20Z</time>
      </trkpt>
      <trkpt lat="45.6162" lon="5.0078">
        <ele>331.23812866211</ele>
        <time>1993-11-18T06:33:20Z</time>
      </trkpt>
      <trkpt lat="45.61612" lon="5.00773">
        <ele>331.75177001953</ele>
        <time>1993-11-18T06:33:20Z</time>
      </trkpt>
      <trkpt lat="45.61605" lon="5.00768">
        <ele>332.25811767578</ele>
        <time>1993-11-18T06:33:20Z</time>
      </trkpt>
      <trkpt lat="45.616" lon="5.00765">
        <ele>332.72982788086</ele>
        <time>1993-11-18T06:33:20Z</time>
      </trkpt>
      <trkpt lat="45.61594" lon="5.00761">
        <ele>333.17404174805</ele>
        <time>1993-11-18T06:33:20Z</time>
      </trkpt>
      <trkpt lat="45.61589" lon="5.00758">
        <ele>333.5830078125</ele>
        <time>1993-11-18T06:33:20Z</time>
      </trkpt>
      <trkpt lat="45.61584" lon="5.00757">
        <ele>333.90090942383</ele>
      </trkpt>
      <trkpt lat="45.61578" lon="5.00757">
        <ele>334.18368530273</ele>
      </trkpt>
      <trkpt lat="45.61572" lon="5.00757">
        <ele>334.49713134766</ele>
      </trkpt>
      <trkpt lat="45.61569" lon="5.00757">
        <ele>334.77554321289</ele>
      </trkpt>
      <trkpt lat="45.61562" lon="5.00755">
        <ele>335.09646606445</ele>
      </trkpt>
      <trkpt lat="45.61557" lon="5.00754">
        <ele>335.48120117188</ele>
      </trkpt>
      <trkpt lat="45.61551" lon="5.00752">
        <ele>335.90051269531</ele>
      </trkpt>
      <trkpt lat="45.61546" lon="5.00748">
        <ele>336.32455444336</ele>
      </trkpt>
      <trkpt lat="45.6154" lon="5.00745">
        <ele>336.76348876953</ele>
      </trkpt>
      <trkpt lat="45.61536" lon="5.00744">
        <ele>337.13690185547</ele>
      </trkpt>
      <trkpt lat="45.61532" lon="5.00741">
        <ele>337.45617675781</ele>
      </trkpt>
      <trkpt lat="45.61527" lon="5.00739">
        <ele>337.74438476562</ele>
      </trkpt>
      <trkpt lat="45.61523" lon="5.00735">
        <ele>337.98681640625</ele>
      </trkpt>
      <trkpt lat="45.61519" lon="5.00733">
        <ele>338.20837402344</ele>
      </trkpt>
      <trkpt lat="45.61517" lon="5.00733">
        <ele>338.42053222656</ele>
      </trkpt>
      <trkpt lat="45.61513" lon="5.00732">
        <ele>338.63525390625</ele>
      </trkpt>
      <trkpt lat="45.61508" lon="5.0073">
        <ele>338.83935546875</ele>
      </trkpt>
      <trkpt lat="45.61504" lon="5.00726">
        <ele>339.03723144531</ele>
      </trkpt>
      <trkpt lat="45.61501" lon="5.00724">
        <ele>339.24035644531</ele>
      </trkpt>
      <trkpt lat="45.61497" lon="5.00722">
        <ele>339.48190307617</ele>
      </trkpt>
      <trkpt lat="45.61492" lon="5.0072">
        <ele>339.76422119141</ele>
      </trkpt>
      <trkpt lat="45.61489" lon="5.0072">
        <ele>340.05694580078</ele>
      </trkpt>
      <trkpt lat="45.61484" lon="5.00718">
        <ele>340.41427612305</ele>
      </trkpt>
      <trkpt lat="45.61481" lon="5.00718">
        <ele>340.77969360352</ele>
      </trkpt>
      <trkpt lat="45.61477" lon="5.00717">
        <ele>341.15142822266</ele>
      </trkpt>
      <trkpt lat="45.61472" lon="5.00714">
        <ele>341.52484130859</ele>
      </trkpt>
      <trkpt lat="45.61468" lon="5.00713">
        <ele>341.90850830078</ele>
      </trkpt>
      <trkpt lat="45.61465" lon="5.00714">
        <ele>342.26068115234</ele>
      </trkpt>
      <trkpt lat="45.61461" lon="5.00715">
        <ele>342.64306640625</ele>
      </trkpt>
      <trkpt lat="45.6146" lon="5.00719">
        <ele>342.98907470703</ele>
      </trkpt>
      <trkpt lat="45.61459" lon="5.00724">
        <ele>343.28942871094</ele>
      </trkpt>
      <trkpt lat="45.61457" lon="5.00727">
        <ele>343.57244873047</ele>
      </trkpt>
      <trkpt lat="45.61455" lon="5.00733">
        <ele>343.86724853516</ele>
      </trkpt>
      <trkpt lat="45.61453" lon="5.0074">
        <ele>344.1416015625</ele>
      </trkpt>
      <trkpt lat="45.61453" lon="5.00744">
        <ele>344.41558837891</ele>
      </trkpt>
      <trkpt lat="45.6145" lon="5.0075">
        <ele>344.73211669922</ele>
      </trkpt>
      <trkpt lat="45.61448" lon="5.00757">
        <ele>345.02835083008</ele>
      </trkpt>
      <trkpt lat="45.61447" lon="5.00762">
        <ele>345.26556396484</ele>
      </trkpt>
      <trkpt lat="45.61443" lon="5.00771">
        <ele>345.52447509766</ele>
      </trkpt>
      <trkpt lat="45.61443" lon="5.00776">
        <ele>345.75946044922</ele>
      </trkpt>
      <trkpt lat="45.61442" lon="5.00782">
        <ele>345.91870117188</ele>
      </trkpt>
      <trkpt lat="45.61441" lon="5.00787">
        <ele>346.06002807617</ele>
      </trkpt>
      <trkpt lat="45.61441" lon="5.00797">
        <ele>346.17651367188</ele>
      </trkpt>
      <trkpt lat="45.6144" lon="5.00806">
        <ele>346.24465942383</ele>
      </trkpt>
      <trkpt lat="45.61438" lon="5.00813">
        <ele>346.34066772461</ele>
      </trkpt>
      <trkpt lat="45.61437" lon="5.00821">
        <ele>346.46542358398</ele>
      </trkpt>
      <trkpt lat="45.61436" lon="5.00828">
        <ele>346.60968017578</ele>
      </trkpt>
      <trkpt lat="45.61436" lon="5.00837">
        <ele>346.75424194336</ele>
      </trkpt>
      <trkpt lat="45.61435" lon="5.00844">
        <ele>346.86480712891</ele>
      </trkpt>
      <trkpt lat="45.61433" lon="5.00852">
        <ele>346.93298339844</ele>
      </trkpt>
      <trkpt lat="45.6143" lon="5.00859">
        <ele>347.03668212891</ele>
      </trkpt>
      <trkpt lat="45.61428" lon="5.00866">
        <ele>347.13180541992</ele>
      </trkpt>
      <trkpt lat="45.61426" lon="5.00872">
        <ele>347.28021240234</ele>
      </trkpt>
      <trkpt lat="45.61424" lon="5.00877">
        <ele>347.46832275391</ele>
      </trkpt>
      <trkpt lat="45.61422" lon="5.00883">
        <ele>347.68536376953</ele>
      </trkpt>
      <trkpt lat="45.61417" lon="5.00888">
        <ele>347.95443725586</ele>
      </trkpt>
      <trkpt lat="45.61412" lon="5.00894">
        <ele>348.27880859375</ele>
      </trkpt>
      <trkpt lat="45.61408" lon="5.009">
        <ele>348.60891723633</ele>
      </trkpt>
      <trkpt lat="45.61406" lon="5.00906">
        <ele>348.94332885742</ele>
      </trkpt>
      <trkpt lat="45.61404" lon="5.0091">
        <ele>349.26864624023</ele>
      </trkpt>
      <trkpt lat="45.61402" lon="5.00916">
        <ele>349.48852539062</ele>
      </trkpt>
      <trkpt lat="45.614" lon="5.0092">
        <ele>349.64834594727</ele>
      </trkpt>
      <trkpt lat="45.61387" lon="5.00946">
        <ele>351.3</ele>
      </trkpt>
      <trkpt lat="45.61282" lon="5.00965">
        <ele>362.5</ele>
      </trkpt>
      <trkpt lat="45.61204" lon="5.01397">
        <ele>357.8</ele>
      </trkpt>
      <trkpt lat="45.61289" lon="5.01676">
        <ele>350.5</ele>
      </trkpt>
      <trkpt lat="45.61368" lon="5.01834">
        <ele>347.1</ele>
      </trkpt>
      <trkpt lat="45.61369" lon="5.01846">
        <ele>347</ele>
      </trkpt>
      <trkpt lat="45.61369" lon="5.01846">
        <ele>347</ele>
      </trkpt>
      <trkpt lat="45.61342" lon="5.02022">
        <ele>343.5</ele>
      </trkpt>
      <trkpt lat="45.61341" lon="5.02023">
        <ele>343.5</ele>
      </trkpt>
      <trkpt lat="45.61341" lon="5.02023">
        <ele>343.5</ele>
      </trkpt>
      <trkpt lat="45.61327" lon="5.02087">
        <ele>341.7</ele>
      </trkpt>
      <trkpt lat="45.61299" lon="5.02232">
        <ele>339</ele>
      </trkpt>
      <trkpt lat="45.61248" lon="5.02466">
        <ele>337</ele>
      </trkpt>
      <trkpt lat="45.61227" lon="5.02582">
        <ele>335</ele>
      </trkpt>
      <trkpt lat="45.6118" lon="5.0265">
        <ele>334</ele>
      </trkpt>
      <trkpt lat="45.61113" lon="5.02723">
        <ele>333</ele>
      </trkpt>
      <trkpt lat="45.61071" lon="5.02785">
        <ele>336</ele>
      </trkpt>
      <trkpt lat="45.61041" lon="5.02859">
        <ele>338</ele>
      </trkpt>
      <trkpt lat="45.60966" lon="5.0308">
        <ele>342</ele>
      </trkpt>
      <trkpt lat="45.60899" lon="5.03023">
        <ele>340</ele>
      </trkpt>
      <trkpt lat="45.60873" lon="5.03096">
        <ele>343</ele>
      </trkpt>
      <trkpt lat="45.60852" lon="5.03166">
        <ele>344</ele>
      </trkpt>
      <trkpt lat="45.60846" lon="5.03199">
        <ele>346</ele>
      </trkpt>
      <trkpt lat="45.60843" lon="5.03308">
        <ele>347</ele>
      </trkpt>
      <trkpt lat="45.6084" lon="5.03397">
        <ele>348</ele>
      </trkpt>
      <trkpt lat="45.60819" lon="5.03393">
        <ele>343</ele>
      </trkpt>
      <trkpt lat="45.60799" lon="5.03422">
        <ele>343</ele>
      </trkpt>
      <trkpt lat="45.60792" lon="5.03431">
        <ele>342</ele>
      </trkpt>
      <trkpt lat="45.60776" lon="5.03442">
        <ele>341</ele>
      </trkpt>
      <trkpt lat="45.60767" lon="5.03453">
        <ele>341</ele>
      </trkpt>
      <trkpt lat="45.60754" lon="5.03469">
        <ele>342</ele>
      </trkpt>
      <trkpt lat="45.60747" lon="5.0348">
        <ele>340</ele>
      </trkpt>
      <trkpt lat="45.60735" lon="5.03487">
        <ele>341</ele>
      </trkpt>
      <trkpt lat="45.60725" lon="5.03503">
        <ele>343</ele>
      </trkpt>
      <trkpt lat="45.60702" lon="5.03518">
        <ele>343</ele>
      </trkpt>
      <trkpt lat="45.60689" lon="5.0352">
        <ele>342</ele>
      </trkpt>
      <trkpt lat="45.60683" lon="5.03521">
        <ele>342</ele>
      </trkpt>
      <trkpt lat="45.6068" lon="5.03505">
        <ele>341</ele>
      </trkpt>
      <trkpt lat="45.60681" lon="5.03493">
        <ele>340</ele>
      </trkpt>
      <trkpt lat="45.60677" lon="5.03488">
        <ele>340</ele>
      </trkpt>
      <trkpt lat="45.60677" lon="5.03463">
        <ele>340</ele>
      </trkpt>
      <trkpt lat="45.60689" lon="5.03443">
        <ele>340</ele>
      </trkpt>
      <trkpt lat="45.60692" lon="5.03421">
        <ele>340</ele>
      </trkpt>
      <trkpt lat="45.60682" lon="5.033">
        <ele>335</ele>
      </trkpt>
      <trkpt lat="45.60672" lon="5.03276">
        <ele>334</ele>
      </trkpt>
      <trkpt lat="45.60658" lon="5.03264">
        <ele>339</ele>
      </trkpt>
      <trkpt lat="45.6063" lon="5.03258">
        <ele>342</ele>
      </trkpt>
      <trkpt lat="45.60592" lon="5.03266">
        <ele>345</ele>
      </trkpt>
      <trkpt lat="45.60561" lon="5.03285">
        <ele>352</ele>
      </trkpt>
      <trkpt lat="45.60529" lon="5.03311">
        <ele>354</ele>
      </trkpt>
      <trkpt lat="45.60499" lon="5.03343">
        <ele>359</ele>
      </trkpt>
      <trkpt lat="45.60472" lon="5.03363">
        <ele>361</ele>
      </trkpt>
      <trkpt lat="45.60396" lon="5.03394">
        <ele>363</ele>
      </trkpt>
      <trkpt lat="45.60328" lon="5.03424">
        <ele>365</ele>
      </trkpt>
      <trkpt lat="45.60306" lon="5.03383">
        <ele>365</ele>
      </trkpt>
      <trkpt lat="45.60248" lon="5.03328">
        <ele>365</ele>
      </trkpt>
      <trkpt lat="45.60159" lon="5.03427">
        <ele>364</ele>
      </trkpt>
      <trkpt lat="45.60147" lon="5.03395">
        <ele>365</ele>
      </trkpt>
      <trkpt lat="45.60136" lon="5.03326">
        <ele>368</ele>
      </trkpt>
      <trkpt lat="45.60112" lon="5.03275">
        <ele>368</ele>
      </trkpt>
      <trkpt lat="45.60067" lon="5.03204">
        <ele>367</ele>
      </trkpt>
      <trkpt lat="45.60031" lon="5.03159">
        <ele>367</ele>
      </trkpt>
      <trkpt lat="45.59972" lon="5.03062">
        <ele>360</ele>
      </trkpt>
      <trkpt lat="45.59939" lon="5.03052">
        <ele>358</ele>
      </trkpt>
      <trkpt lat="45.59834" lon="5.03002">
        <ele>355</ele>
      </trkpt>
      <trkpt lat="45.59757" lon="5.02977">
        <ele>352</ele>
      </trkpt>
      <trkpt lat="45.59668" lon="5.02905">
        <ele>354</ele>
      </trkpt>
      <trkpt lat="45.59616" lon="5.02871">
        <ele>352</ele>
      </trkpt>
      <trkpt lat="45.59605" lon="5.02843">
        <ele>352</ele>
      </trkpt>
      <trkpt lat="45.59593" lon="5.02809">
        <ele>352</ele>
      </trkpt>
      <trkpt lat="45.59587" lon="5.02767">
        <ele>349</ele>
      </trkpt>
      <trkpt lat="45.59584" lon="5.02735">
        <ele>346</ele>
      </trkpt>
      <trkpt lat="45.59591" lon="5.02642">
        <ele>340</ele>
      </trkpt>
      <trkpt lat="45.59575" lon="5.02559">
        <ele>330</ele>
      </trkpt>
      <trkpt lat="45.59568" lon="5.0253">
        <ele>329</ele>
      </trkpt>
      <trkpt lat="45.59562" lon="5.02517">
        <ele>329</ele>
      </trkpt>
      <trkpt lat="45.59656" lon="5.02398">
        <ele>328</ele>
      </trkpt>
      <trkpt lat="45.5963" lon="5.0227">
        <ele>323</ele>
      </trkpt>
      <trkpt lat="45.59594" lon="5.02136">
        <ele>318</ele>
      </trkpt>
      <trkpt lat="45.59577" lon="5.02101">
        <ele>318</ele>
      </trkpt>
      <trkpt lat="45.59564" lon="5.02064">
        <ele>317</ele>
      </trkpt>
      <trkpt lat="45.59542" lon="5.02029">
        <ele>316</ele>
      </trkpt>
      <trkpt lat="45.59518" lon="5.02009">
        <ele>316</ele>
      </trkpt>
      <trkpt lat="45.59495" lon="5.01995">
        <ele>313</ele>
      </trkpt>
      <trkpt lat="45.59471" lon="5.01999">
        <ele>309</ele>
      </trkpt>
      <trkpt lat="45.59367" lon="5.02005">
        <ele>304</ele>
      </trkpt>
      <trkpt lat="45.59356" lon="5.02007">
        <ele>303</ele>
      </trkpt>
      <trkpt lat="45.59342" lon="5.01999">
        <ele>302</ele>
      </trkpt>
      <trkpt lat="45.59322" lon="5.01998">
        <ele>298</ele>
      </trkpt>
      <trkpt lat="45.59304" lon="5.01992">
        <ele>293</ele>
      </trkpt>
      <trkpt lat="45.5926" lon="5.01987">
        <ele>288</ele>
      </trkpt>
      <trkpt lat="45.59216" lon="5.01993">
        <ele>281</ele>
      </trkpt>
      <trkpt lat="45.59199" lon="5.02045">
        <ele>280</ele>
      </trkpt>
      <trkpt lat="45.59174" lon="5.02092">
        <ele>277</ele>
      </trkpt>
      <trkpt lat="45.59163" lon="5.02111">
        <ele>272</ele>
      </trkpt>
      <trkpt lat="45.59101" lon="5.02096">
        <ele>268</ele>
      </trkpt>
      <trkpt lat="45.59119" lon="5.0218">
        <ele>268</ele>
      </trkpt>
      <trkpt lat="45.59126" lon="5.02255">
        <ele>267</ele>
      </trkpt>
      <trkpt lat="45.59125" lon="5.02311">
        <ele>267</ele>
      </trkpt>
      <trkpt lat="45.59119" lon="5.02356">
        <ele>267</ele>
      </trkpt>
      <trkpt lat="45.59123" lon="5.02371">
        <ele>267</ele>
      </trkpt>
      <trkpt lat="45.59134" lon="5.02394">
        <ele>268</ele>
      </trkpt>
      <trkpt lat="45.5915" lon="5.0242">
        <ele>269</ele>
      </trkpt>
      <trkpt lat="45.59154" lon="5.02445">
        <ele>268</ele>
      </trkpt>
      <trkpt lat="45.59162" lon="5.02597">
        <ele>268</ele>
      </trkpt>
      <trkpt lat="45.59148" lon="5.02709">
        <ele>270</ele>
      </trkpt>
      <trkpt lat="45.59122" lon="5.02709">
        <ele>269</ele>
      </trkpt>
      <trkpt lat="45.59085" lon="5.02714">
        <ele>269</ele>
      </trkpt>
      <trkpt lat="45.59052" lon="5.02708">
        <ele>266</ele>
      </trkpt>
      <trkpt lat="45.5902" lon="5.02694">
        <ele>265</ele>
      </trkpt>
      <trkpt lat="45.58928" lon="5.02667">
        <ele>265</ele>
      </trkpt>
      <trkpt lat="45.58891" lon="5.02636">
        <ele>266</ele>
      </trkpt>
      <trkpt lat="45.58858" lon="5.02636">
        <ele>267</ele>
      </trkpt>
      <trkpt lat="45.58733" lon="5.02664">
        <ele>273</ele>
      </trkpt>
      <trkpt lat="45.58663" lon="5.02668">
        <ele>275</ele>
      </trkpt>
      <trkpt lat="45.58601" lon="5.02665">
        <ele>277</ele>
      </trkpt>
      <trkpt lat="45.58393" lon="5.02739">
        <ele>283</ele>
      </trkpt>
      <trkpt lat="45.58418" lon="5.02443">
        <ele>289</ele>
      </trkpt>
      <trkpt lat="45.58349" lon="5.02299">
        <ele>292</ele>
      </trkpt>
      <trkpt lat="45.58242" lon="5.02179">
        <ele>298</ele>
      </trkpt>
      <trkpt lat="45.58233" lon="5.02166">
        <ele>302</ele>
      </trkpt>
      <trkpt lat="45.58255" lon="5.0212">
        <ele>300</ele>
      </trkpt>
      <trkpt lat="45.5826" lon="5.02086">
        <ele>303</ele>
      </trkpt>
      <trkpt lat="45.58276" lon="5.02006">
        <ele>301</ele>
      </trkpt>
      <trkpt lat="45.583" lon="5.01945">
        <ele>299</ele>
      </trkpt>
      <trkpt lat="45.58313" lon="5.01929">
        <ele>298</ele>
      </trkpt>
      <trkpt lat="45.58327" lon="5.01929">
        <ele>298</ele>
      </trkpt>
      <trkpt lat="45.58362" lon="5.01901">
        <ele>290</ele>
      </trkpt>
      <trkpt lat="45.58396" lon="5.0187">
        <ele>286</ele>
      </trkpt>
      <trkpt lat="45.5842" lon="5.01882">
        <ele>278</ele>
      </trkpt>
      <trkpt lat="45.58426" lon="5.01912">
        <ele>282</ele>
      </trkpt>
      <trkpt lat="45.58433" lon="5.01931">
        <ele>281</ele>
      </trkpt>
      <trkpt lat="45.58447" lon="5.0194">
        <ele>279</ele>
      </trkpt>
      <trkpt lat="45.58475" lon="5.01911">
        <ele>272</ele>
      </trkpt>
      <trkpt lat="45.58489" lon="5.01878">
        <ele>271</ele>
      </trkpt>
      <trkpt lat="45.58486" lon="5.01826">
        <ele>265</ele>
      </trkpt>
      <trkpt lat="45.58329" lon="5.01532">
        <ele>254</ele>
      </trkpt>
      <trkpt lat="45.58213" lon="5.01289">
        <ele>249</ele>
      </trkpt>
      <trkpt lat="45.58156" lon="5.01428">
        <ele>260</ele>
      </trkpt>
      <trkpt lat="45.57913" lon="5.00822">
        <ele>262.9</ele>
      </trkpt>
      <trkpt lat="45.57954" lon="5.00747">
        <ele>250</ele>
      </trkpt>
      <trkpt lat="45.58066" lon="5.00676">
        <ele>240</ele>
      </trkpt>
      <trkpt lat="45.58243" lon="5.00543">
        <ele>235.5</ele>
      </trkpt>
      <trkpt lat="45.5832" lon="5.00498">
        <ele>236.6</ele>
      </trkpt>
      <trkpt lat="45.58388" lon="5.00442">
        <ele>237.2</ele>
      </trkpt>
      <trkpt lat="45.58491" lon="5.00423">
        <ele>239</ele>
      </trkpt>
      <trkpt lat="45.58411" lon="4.99881">
        <ele>240.6</ele>
      </trkpt>
    </trkseg>
  </trk>
</gpx>